<?xml version="1.0" encoding="UTF-8" standalone="no" ?>
<gpx xmlns="http://www.topografix.com/GPX/1/1" xmlns:xsi="http://www.w3.org/2001/XMLSchema-instance" xsi:schemaLocation="http://www.topografix.com/GPX/1/1 http://www.topografix.com/GPX/1/1/gpx.xsd" version="1.1" creator="VisuGPX - https://www.visugpx.com">
  <metadata>
    <name>Emeindras de Dessus</name>
    <desc><![CDATA[Emeindras de Dessus depuis Sappey en Chartreuse]]></desc>
  </metadata>
  <trk>
    <name><![CDATA[2011-05-02-01 Sappey en Chartreuse]]></name>
    <trkseg>
      <trkpt lat="45.26018" lon="5.77738">
        <ele>1011.6</ele>
        <time>2011-05-02T11:56:11Z</time>
      </trkpt>
      <trkpt lat="45.26025" lon="5.7774">
        <ele>1013</ele>
        <time>2011-05-02T11:56:15Z</time>
      </trkpt>
      <trkpt lat="45.26032" lon="5.7774">
        <ele>1014.4</ele>
        <time>2011-05-02T11:56:18Z</time>
      </trkpt>
      <trkpt lat="45.2604" lon="5.7774">
        <ele>1014.5</ele>
        <time>2011-05-02T11:56:21Z</time>
      </trkpt>
      <trkpt lat="45.26048" lon="5.7774">
        <ele>1014.7</ele>
        <time>2011-05-02T11:56:24Z</time>
      </trkpt>
      <trkpt lat="45.26056" lon="5.77741">
        <ele>1015.4</ele>
        <time>2011-05-02T11:56:27Z</time>
      </trkpt>
      <trkpt lat="45.26064" lon="5.77741">
        <ele>1016</ele>
        <time>2011-05-02T11:56:30Z</time>
      </trkpt>
      <trkpt lat="45.26072" lon="5.77741">
        <ele>1016.2</ele>
        <time>2011-05-02T11:56:33Z</time>
      </trkpt>
      <trkpt lat="45.26081" lon="5.77741">
        <ele>1016.2</ele>
        <time>2011-05-02T11:56:36Z</time>
      </trkpt>
      <trkpt lat="45.26089" lon="5.77741">
        <ele>1016.5</ele>
        <time>2011-05-02T11:56:39Z</time>
      </trkpt>
      <trkpt lat="45.26096" lon="5.7774">
        <ele>1016.8</ele>
        <time>2011-05-02T11:56:42Z</time>
      </trkpt>
      <trkpt lat="45.26105" lon="5.7774">
        <ele>1017.7</ele>
        <time>2011-05-02T11:56:45Z</time>
      </trkpt>
      <trkpt lat="45.26112" lon="5.77742">
        <ele>1018.8</ele>
        <time>2011-05-02T11:56:48Z</time>
      </trkpt>
      <trkpt lat="45.26115" lon="5.77743">
        <ele>1019.1</ele>
        <time>2011-05-02T11:56:49Z</time>
      </trkpt>
      <trkpt lat="45.26126" lon="5.77748">
        <ele>1020.4</ele>
        <time>2011-05-02T11:56:54Z</time>
      </trkpt>
      <trkpt lat="45.26134" lon="5.77754">
        <ele>1022</ele>
        <time>2011-05-02T11:56:58Z</time>
      </trkpt>
      <trkpt lat="45.26141" lon="5.7776">
        <ele>1022.5</ele>
        <time>2011-05-02T11:57:02Z</time>
      </trkpt>
      <trkpt lat="45.26149" lon="5.77766">
        <ele>1023.1</ele>
        <time>2011-05-02T11:57:06Z</time>
      </trkpt>
      <trkpt lat="45.26156" lon="5.77772">
        <ele>1024.6</ele>
        <time>2011-05-02T11:57:10Z</time>
      </trkpt>
      <trkpt lat="45.26163" lon="5.77777">
        <ele>1024.6</ele>
        <time>2011-05-02T11:57:13Z</time>
      </trkpt>
      <trkpt lat="45.26169" lon="5.77782">
        <ele>1025</ele>
        <time>2011-05-02T11:57:16Z</time>
      </trkpt>
      <trkpt lat="45.26176" lon="5.77787">
        <ele>1025.9</ele>
        <time>2011-05-02T11:57:19Z</time>
      </trkpt>
      <trkpt lat="45.26182" lon="5.77791">
        <ele>1026.9</ele>
        <time>2011-05-02T11:57:22Z</time>
      </trkpt>
      <trkpt lat="45.26189" lon="5.77795">
        <ele>1027.2</ele>
        <time>2011-05-02T11:57:25Z</time>
      </trkpt>
      <trkpt lat="45.26197" lon="5.778">
        <ele>1027.7</ele>
        <time>2011-05-02T11:57:29Z</time>
      </trkpt>
      <trkpt lat="45.26203" lon="5.77806">
        <ele>1028.6</ele>
        <time>2011-05-02T11:57:32Z</time>
      </trkpt>
      <trkpt lat="45.26207" lon="5.77813">
        <ele>1029.3</ele>
        <time>2011-05-02T11:57:35Z</time>
      </trkpt>
      <trkpt lat="45.26213" lon="5.7782">
        <ele>1030.3</ele>
        <time>2011-05-02T11:57:38Z</time>
      </trkpt>
      <trkpt lat="45.26219" lon="5.77827">
        <ele>1030.4</ele>
        <time>2011-05-02T11:57:41Z</time>
      </trkpt>
      <trkpt lat="45.26225" lon="5.77834">
        <ele>1031.2</ele>
        <time>2011-05-02T11:57:44Z</time>
      </trkpt>
      <trkpt lat="45.26229" lon="5.77842">
        <ele>1031.3</ele>
        <time>2011-05-02T11:57:47Z</time>
      </trkpt>
      <trkpt lat="45.26233" lon="5.7785">
        <ele>1031.5</ele>
        <time>2011-05-02T11:57:50Z</time>
      </trkpt>
      <trkpt lat="45.26235" lon="5.77852">
        <ele>1031.5</ele>
        <time>2011-05-02T11:57:51Z</time>
      </trkpt>
      <trkpt lat="45.26245" lon="5.77866">
        <ele>1033.2</ele>
        <time>2011-05-02T11:57:57Z</time>
      </trkpt>
      <trkpt lat="45.26251" lon="5.77874">
        <ele>1034.4</ele>
        <time>2011-05-02T11:58:01Z</time>
      </trkpt>
      <trkpt lat="45.26259" lon="5.77879">
        <ele>1035.6</ele>
        <time>2011-05-02T11:58:05Z</time>
      </trkpt>
      <trkpt lat="45.26266" lon="5.77884">
        <ele>1037.2</ele>
        <time>2011-05-02T11:58:09Z</time>
      </trkpt>
      <trkpt lat="45.26274" lon="5.77889">
        <ele>1037.3</ele>
        <time>2011-05-02T11:58:13Z</time>
      </trkpt>
      <trkpt lat="45.26282" lon="5.77895">
        <ele>1038.1</ele>
        <time>2011-05-02T11:58:17Z</time>
      </trkpt>
      <trkpt lat="45.26288" lon="5.77901">
        <ele>1039</ele>
        <time>2011-05-02T11:58:21Z</time>
      </trkpt>
      <trkpt lat="45.26294" lon="5.77908">
        <ele>1039.6</ele>
        <time>2011-05-02T11:58:25Z</time>
      </trkpt>
      <trkpt lat="45.26301" lon="5.77914">
        <ele>1040.4</ele>
        <time>2011-05-02T11:58:29Z</time>
      </trkpt>
      <trkpt lat="45.26308" lon="5.77921">
        <ele>1040.1</ele>
        <time>2011-05-02T11:58:33Z</time>
      </trkpt>
      <trkpt lat="45.26314" lon="5.77927">
        <ele>1041.3</ele>
        <time>2011-05-02T11:58:37Z</time>
      </trkpt>
      <trkpt lat="45.26322" lon="5.77934">
        <ele>1042.6</ele>
        <time>2011-05-02T11:58:41Z</time>
      </trkpt>
      <trkpt lat="45.26328" lon="5.77941">
        <ele>1044.5</ele>
        <time>2011-05-02T11:58:45Z</time>
      </trkpt>
      <trkpt lat="45.26335" lon="5.77949">
        <ele>1045.6</ele>
        <time>2011-05-02T11:58:49Z</time>
      </trkpt>
      <trkpt lat="45.26341" lon="5.77955">
        <ele>1045.9</ele>
        <time>2011-05-02T11:58:53Z</time>
      </trkpt>
      <trkpt lat="45.26342" lon="5.77956">
        <ele>1046.3</ele>
        <time>2011-05-02T11:58:54Z</time>
      </trkpt>
      <trkpt lat="45.26354" lon="5.77964">
        <ele>1047.1</ele>
        <time>2011-05-02T11:59:00Z</time>
      </trkpt>
      <trkpt lat="45.26363" lon="5.77969">
        <ele>1047.6</ele>
        <time>2011-05-02T11:59:04Z</time>
      </trkpt>
      <trkpt lat="45.26369" lon="5.77972">
        <ele>1048.5</ele>
        <time>2011-05-02T11:59:07Z</time>
      </trkpt>
      <trkpt lat="45.26377" lon="5.77977">
        <ele>1049.8</ele>
        <time>2011-05-02T11:59:11Z</time>
      </trkpt>
      <trkpt lat="45.26385" lon="5.77981">
        <ele>1050.2</ele>
        <time>2011-05-02T11:59:15Z</time>
      </trkpt>
      <trkpt lat="45.26394" lon="5.77983">
        <ele>1051.1</ele>
        <time>2011-05-02T11:59:20Z</time>
      </trkpt>
      <trkpt lat="45.26402" lon="5.77985">
        <ele>1051.5</ele>
        <time>2011-05-02T11:59:24Z</time>
      </trkpt>
      <trkpt lat="45.2641" lon="5.77985">
        <ele>1052.9</ele>
        <time>2011-05-02T11:59:28Z</time>
      </trkpt>
      <trkpt lat="45.26417" lon="5.77987">
        <ele>1053.5</ele>
        <time>2011-05-02T11:59:31Z</time>
      </trkpt>
      <trkpt lat="45.26426" lon="5.77988">
        <ele>1055.2</ele>
        <time>2011-05-02T11:59:35Z</time>
      </trkpt>
      <trkpt lat="45.26434" lon="5.7799">
        <ele>1055.6</ele>
        <time>2011-05-02T11:59:39Z</time>
      </trkpt>
      <trkpt lat="45.26443" lon="5.77992">
        <ele>1057.3</ele>
        <time>2011-05-02T11:59:43Z</time>
      </trkpt>
      <trkpt lat="45.26451" lon="5.77994">
        <ele>1058.5</ele>
        <time>2011-05-02T11:59:47Z</time>
      </trkpt>
      <trkpt lat="45.2646" lon="5.77995">
        <ele>1060</ele>
        <time>2011-05-02T11:59:51Z</time>
      </trkpt>
      <trkpt lat="45.26468" lon="5.77996">
        <ele>1061.6</ele>
        <time>2011-05-02T11:59:55Z</time>
      </trkpt>
      <trkpt lat="45.2647" lon="5.77996">
        <ele>1061.8</ele>
        <time>2011-05-02T11:59:56Z</time>
      </trkpt>
      <trkpt lat="45.26485" lon="5.77998">
        <ele>1062.3</ele>
        <time>2011-05-02T12:00:03Z</time>
      </trkpt>
      <trkpt lat="45.26493" lon="5.78001">
        <ele>1064.4</ele>
        <time>2011-05-02T12:00:07Z</time>
      </trkpt>
      <trkpt lat="45.26502" lon="5.78004">
        <ele>1065.7</ele>
        <time>2011-05-02T12:00:11Z</time>
      </trkpt>
      <trkpt lat="45.26509" lon="5.78009">
        <ele>1067.8</ele>
        <time>2011-05-02T12:00:24Z</time>
      </trkpt>
      <trkpt lat="45.26512" lon="5.78021">
        <ele>1068.7</ele>
        <time>2011-05-02T12:00:56Z</time>
      </trkpt>
      <trkpt lat="45.26512" lon="5.78021">
        <ele>1068.6</ele>
        <time>2011-05-02T12:00:57Z</time>
      </trkpt>
      <trkpt lat="45.26521" lon="5.78041">
        <ele>1068.1</ele>
        <time>2011-05-02T12:01:18Z</time>
      </trkpt>
      <trkpt lat="45.26525" lon="5.78052">
        <ele>1070.2</ele>
        <time>2011-05-02T12:01:23Z</time>
      </trkpt>
      <trkpt lat="45.26529" lon="5.78063">
        <ele>1071.1</ele>
        <time>2011-05-02T12:01:28Z</time>
      </trkpt>
      <trkpt lat="45.26535" lon="5.78073">
        <ele>1071.8</ele>
        <time>2011-05-02T12:01:33Z</time>
      </trkpt>
      <trkpt lat="45.26542" lon="5.78081">
        <ele>1072.3</ele>
        <time>2011-05-02T12:01:38Z</time>
      </trkpt>
      <trkpt lat="45.26548" lon="5.78088">
        <ele>1072.5</ele>
        <time>2011-05-02T12:01:42Z</time>
      </trkpt>
      <trkpt lat="45.26553" lon="5.78096">
        <ele>1073.7</ele>
        <time>2011-05-02T12:01:46Z</time>
      </trkpt>
      <trkpt lat="45.26558" lon="5.78103">
        <ele>1073.8</ele>
        <time>2011-05-02T12:01:50Z</time>
      </trkpt>
      <trkpt lat="45.26564" lon="5.7811">
        <ele>1074.8</ele>
        <time>2011-05-02T12:01:54Z</time>
      </trkpt>
      <trkpt lat="45.2657" lon="5.78117">
        <ele>1075.3</ele>
        <time>2011-05-02T12:01:58Z</time>
      </trkpt>
      <trkpt lat="45.26572" lon="5.78118">
        <ele>1075.4</ele>
        <time>2011-05-02T12:01:59Z</time>
      </trkpt>
      <trkpt lat="45.2658" lon="5.78134">
        <ele>1076.8</ele>
        <time>2011-05-02T12:02:07Z</time>
      </trkpt>
      <trkpt lat="45.26584" lon="5.78144">
        <ele>1077.1</ele>
        <time>2011-05-02T12:02:11Z</time>
      </trkpt>
      <trkpt lat="45.26588" lon="5.78153">
        <ele>1077.2</ele>
        <time>2011-05-02T12:02:15Z</time>
      </trkpt>
      <trkpt lat="45.26591" lon="5.78162">
        <ele>1078.4</ele>
        <time>2011-05-02T12:02:19Z</time>
      </trkpt>
      <trkpt lat="45.26594" lon="5.78171">
        <ele>1079</ele>
        <time>2011-05-02T12:02:23Z</time>
      </trkpt>
      <trkpt lat="45.26596" lon="5.78182">
        <ele>1079.7</ele>
        <time>2011-05-02T12:02:27Z</time>
      </trkpt>
      <trkpt lat="45.26599" lon="5.78191">
        <ele>1081.2</ele>
        <time>2011-05-02T12:02:31Z</time>
      </trkpt>
      <trkpt lat="45.26599" lon="5.78204">
        <ele>1081.1</ele>
        <time>2011-05-02T12:02:36Z</time>
      </trkpt>
      <trkpt lat="45.26601" lon="5.78216">
        <ele>1082.4</ele>
        <time>2011-05-02T12:02:41Z</time>
      </trkpt>
      <trkpt lat="45.26603" lon="5.78227">
        <ele>1083.4</ele>
        <time>2011-05-02T12:02:45Z</time>
      </trkpt>
      <trkpt lat="45.26605" lon="5.78238">
        <ele>1084.4</ele>
        <time>2011-05-02T12:02:49Z</time>
      </trkpt>
      <trkpt lat="45.26607" lon="5.78248">
        <ele>1084.9</ele>
        <time>2011-05-02T12:02:53Z</time>
      </trkpt>
      <trkpt lat="45.26609" lon="5.7826">
        <ele>1084.6</ele>
        <time>2011-05-02T12:02:58Z</time>
      </trkpt>
      <trkpt lat="45.26611" lon="5.78272">
        <ele>1086.3</ele>
        <time>2011-05-02T12:03:03Z</time>
      </trkpt>
      <trkpt lat="45.26612" lon="5.78274">
        <ele>1086.4</ele>
        <time>2011-05-02T12:03:04Z</time>
      </trkpt>
      <trkpt lat="45.26615" lon="5.78293">
        <ele>1088.2</ele>
        <time>2011-05-02T12:03:11Z</time>
      </trkpt>
      <trkpt lat="45.26617" lon="5.78303">
        <ele>1088.2</ele>
        <time>2011-05-02T12:03:15Z</time>
      </trkpt>
      <trkpt lat="45.26621" lon="5.78315">
        <ele>1088.9</ele>
        <time>2011-05-02T12:03:20Z</time>
      </trkpt>
      <trkpt lat="45.26626" lon="5.78323">
        <ele>1088.6</ele>
        <time>2011-05-02T12:03:25Z</time>
      </trkpt>
      <trkpt lat="45.26631" lon="5.78332">
        <ele>1089.7</ele>
        <time>2011-05-02T12:03:30Z</time>
      </trkpt>
      <trkpt lat="45.26637" lon="5.78342">
        <ele>1091</ele>
        <time>2011-05-02T12:03:35Z</time>
      </trkpt>
      <trkpt lat="45.26644" lon="5.78349">
        <ele>1093.2</ele>
        <time>2011-05-02T12:03:54Z</time>
      </trkpt>
      <trkpt lat="45.26648" lon="5.78358">
        <ele>1093.8</ele>
        <time>2011-05-02T12:04:10Z</time>
      </trkpt>
      <trkpt lat="45.26649" lon="5.7836">
        <ele>1093.8</ele>
        <time>2011-05-02T12:04:11Z</time>
      </trkpt>
      <trkpt lat="45.2666" lon="5.78374">
        <ele>1094.5</ele>
        <time>2011-05-02T12:04:19Z</time>
      </trkpt>
      <trkpt lat="45.26667" lon="5.78381">
        <ele>1096.1</ele>
        <time>2011-05-02T12:04:24Z</time>
      </trkpt>
      <trkpt lat="45.26674" lon="5.78387">
        <ele>1097.1</ele>
        <time>2011-05-02T12:04:29Z</time>
      </trkpt>
      <trkpt lat="45.26681" lon="5.7839">
        <ele>1098.2</ele>
        <time>2011-05-02T12:04:34Z</time>
      </trkpt>
      <trkpt lat="45.26689" lon="5.78392">
        <ele>1098.8</ele>
        <time>2011-05-02T12:04:39Z</time>
      </trkpt>
      <trkpt lat="45.26697" lon="5.78394">
        <ele>1099</ele>
        <time>2011-05-02T12:04:44Z</time>
      </trkpt>
      <trkpt lat="45.26705" lon="5.78396">
        <ele>1100.8</ele>
        <time>2011-05-02T12:04:49Z</time>
      </trkpt>
      <trkpt lat="45.26713" lon="5.78398">
        <ele>1103</ele>
        <time>2011-05-02T12:04:54Z</time>
      </trkpt>
      <trkpt lat="45.26721" lon="5.78401">
        <ele>1103.6</ele>
        <time>2011-05-02T12:04:59Z</time>
      </trkpt>
      <trkpt lat="45.2673" lon="5.78405">
        <ele>1105.4</ele>
        <time>2011-05-02T12:05:04Z</time>
      </trkpt>
      <trkpt lat="45.26738" lon="5.78407">
        <ele>1105.4</ele>
        <time>2011-05-02T12:05:09Z</time>
      </trkpt>
      <trkpt lat="45.26745" lon="5.78413">
        <ele>1107.2</ele>
        <time>2011-05-02T12:05:14Z</time>
      </trkpt>
      <trkpt lat="45.26747" lon="5.78415">
        <ele>1107.5</ele>
        <time>2011-05-02T12:05:15Z</time>
      </trkpt>
      <trkpt lat="45.2675" lon="5.78434">
        <ele>1107.5</ele>
        <time>2011-05-02T12:05:25Z</time>
      </trkpt>
      <trkpt lat="45.26746" lon="5.78445">
        <ele>1109.3</ele>
        <time>2011-05-02T12:05:30Z</time>
      </trkpt>
      <trkpt lat="45.2674" lon="5.78452">
        <ele>1110.2</ele>
        <time>2011-05-02T12:05:34Z</time>
      </trkpt>
      <trkpt lat="45.26734" lon="5.78457">
        <ele>1111.5</ele>
        <time>2011-05-02T12:05:38Z</time>
      </trkpt>
      <trkpt lat="45.26726" lon="5.7846">
        <ele>1112.4</ele>
        <time>2011-05-02T12:05:42Z</time>
      </trkpt>
      <trkpt lat="45.26718" lon="5.78463">
        <ele>1112.3</ele>
        <time>2011-05-02T12:05:46Z</time>
      </trkpt>
      <trkpt lat="45.2671" lon="5.78465">
        <ele>1113</ele>
        <time>2011-05-02T12:05:50Z</time>
      </trkpt>
      <trkpt lat="45.26701" lon="5.78467">
        <ele>1114</ele>
        <time>2011-05-02T12:05:54Z</time>
      </trkpt>
      <trkpt lat="45.26693" lon="5.7847">
        <ele>1114.8</ele>
        <time>2011-05-02T12:05:58Z</time>
      </trkpt>
      <trkpt lat="45.26685" lon="5.78473">
        <ele>1115.1</ele>
        <time>2011-05-02T12:06:02Z</time>
      </trkpt>
      <trkpt lat="45.26677" lon="5.78476">
        <ele>1115.8</ele>
        <time>2011-05-02T12:06:06Z</time>
      </trkpt>
      <trkpt lat="45.26669" lon="5.78478">
        <ele>1116.5</ele>
        <time>2011-05-02T12:06:10Z</time>
      </trkpt>
      <trkpt lat="45.26661" lon="5.78479">
        <ele>1117.7</ele>
        <time>2011-05-02T12:06:14Z</time>
      </trkpt>
      <trkpt lat="45.26653" lon="5.78479">
        <ele>1119.2</ele>
        <time>2011-05-02T12:06:18Z</time>
      </trkpt>
      <trkpt lat="45.2665" lon="5.78479">
        <ele>1119.5</ele>
        <time>2011-05-02T12:06:19Z</time>
      </trkpt>
      <trkpt lat="45.26636" lon="5.78478">
        <ele>1121.5</ele>
        <time>2011-05-02T12:06:27Z</time>
      </trkpt>
      <trkpt lat="45.26627" lon="5.78475">
        <ele>1122.4</ele>
        <time>2011-05-02T12:06:32Z</time>
      </trkpt>
      <trkpt lat="45.26619" lon="5.78472">
        <ele>1123.7</ele>
        <time>2011-05-02T12:06:37Z</time>
      </trkpt>
      <trkpt lat="45.26611" lon="5.7847">
        <ele>1124.2</ele>
        <time>2011-05-02T12:06:42Z</time>
      </trkpt>
      <trkpt lat="45.26603" lon="5.78468">
        <ele>1125.4</ele>
        <time>2011-05-02T12:06:46Z</time>
      </trkpt>
      <trkpt lat="45.26594" lon="5.78467">
        <ele>1126.2</ele>
        <time>2011-05-02T12:06:50Z</time>
      </trkpt>
      <trkpt lat="45.26587" lon="5.78467">
        <ele>1127.3</ele>
        <time>2011-05-02T12:06:53Z</time>
      </trkpt>
      <trkpt lat="45.26579" lon="5.78467">
        <ele>1128.2</ele>
        <time>2011-05-02T12:06:57Z</time>
      </trkpt>
      <trkpt lat="45.26572" lon="5.78469">
        <ele>1129.4</ele>
        <time>2011-05-02T12:07:00Z</time>
      </trkpt>
      <trkpt lat="45.26564" lon="5.78475">
        <ele>1131.3</ele>
        <time>2011-05-02T12:07:04Z</time>
      </trkpt>
      <trkpt lat="45.26557" lon="5.78482">
        <ele>1131.8</ele>
        <time>2011-05-02T12:07:08Z</time>
      </trkpt>
      <trkpt lat="45.26552" lon="5.7849">
        <ele>1132.9</ele>
        <time>2011-05-02T12:07:12Z</time>
      </trkpt>
      <trkpt lat="45.26549" lon="5.785">
        <ele>1133.3</ele>
        <time>2011-05-02T12:07:16Z</time>
      </trkpt>
      <trkpt lat="45.26545" lon="5.78511">
        <ele>1133.8</ele>
        <time>2011-05-02T12:07:26Z</time>
      </trkpt>
      <trkpt lat="45.26544" lon="5.78511">
        <ele>1133.9</ele>
        <time>2011-05-02T12:07:27Z</time>
      </trkpt>
      <trkpt lat="45.26536" lon="5.7853">
        <ele>1134.4</ele>
        <time>2011-05-02T12:08:23Z</time>
      </trkpt>
      <trkpt lat="45.26536" lon="5.78541">
        <ele>1134.3</ele>
        <time>2011-05-02T12:08:27Z</time>
      </trkpt>
      <trkpt lat="45.26536" lon="5.78543">
        <ele>1134.4</ele>
        <time>2011-05-02T12:08:28Z</time>
      </trkpt>
      <trkpt lat="45.26537" lon="5.78562">
        <ele>1135.7</ele>
        <time>2011-05-02T12:08:35Z</time>
      </trkpt>
      <trkpt lat="45.26537" lon="5.78573">
        <ele>1136</ele>
        <time>2011-05-02T12:08:39Z</time>
      </trkpt>
      <trkpt lat="45.26539" lon="5.78585">
        <ele>1136.3</ele>
        <time>2011-05-02T12:08:43Z</time>
      </trkpt>
      <trkpt lat="45.26541" lon="5.78595">
        <ele>1137</ele>
        <time>2011-05-02T12:08:46Z</time>
      </trkpt>
      <trkpt lat="45.26544" lon="5.78604">
        <ele>1137.6</ele>
        <time>2011-05-02T12:08:49Z</time>
      </trkpt>
      <trkpt lat="45.26547" lon="5.78614">
        <ele>1137.5</ele>
        <time>2011-05-02T12:08:52Z</time>
      </trkpt>
      <trkpt lat="45.2655" lon="5.78622">
        <ele>1138.6</ele>
        <time>2011-05-02T12:08:55Z</time>
      </trkpt>
      <trkpt lat="45.26553" lon="5.78632">
        <ele>1138.9</ele>
        <time>2011-05-02T12:08:58Z</time>
      </trkpt>
      <trkpt lat="45.26556" lon="5.78641">
        <ele>1140</ele>
        <time>2011-05-02T12:09:01Z</time>
      </trkpt>
      <trkpt lat="45.2656" lon="5.7865">
        <ele>1140.8</ele>
        <time>2011-05-02T12:09:04Z</time>
      </trkpt>
      <trkpt lat="45.26563" lon="5.78659">
        <ele>1141</ele>
        <time>2011-05-02T12:09:07Z</time>
      </trkpt>
      <trkpt lat="45.26566" lon="5.78668">
        <ele>1141.7</ele>
        <time>2011-05-02T12:09:10Z</time>
      </trkpt>
      <trkpt lat="45.26569" lon="5.78677">
        <ele>1143.6</ele>
        <time>2011-05-02T12:09:13Z</time>
      </trkpt>
      <trkpt lat="45.26572" lon="5.78686">
        <ele>1144.7</ele>
        <time>2011-05-02T12:09:16Z</time>
      </trkpt>
      <trkpt lat="45.26575" lon="5.78695">
        <ele>1144.7</ele>
        <time>2011-05-02T12:09:19Z</time>
      </trkpt>
      <trkpt lat="45.26578" lon="5.78704">
        <ele>1145.8</ele>
        <time>2011-05-02T12:09:22Z</time>
      </trkpt>
      <trkpt lat="45.26582" lon="5.78713">
        <ele>1146.7</ele>
        <time>2011-05-02T12:09:25Z</time>
      </trkpt>
      <trkpt lat="45.26585" lon="5.78723">
        <ele>1147.1</ele>
        <time>2011-05-02T12:09:28Z</time>
      </trkpt>
      <trkpt lat="45.26586" lon="5.78726">
        <ele>1147.1</ele>
        <time>2011-05-02T12:09:29Z</time>
      </trkpt>
      <trkpt lat="45.26592" lon="5.7874">
        <ele>1147.2</ele>
        <time>2011-05-02T12:09:34Z</time>
      </trkpt>
      <trkpt lat="45.26596" lon="5.7875">
        <ele>1148.3</ele>
        <time>2011-05-02T12:09:38Z</time>
      </trkpt>
      <trkpt lat="45.266" lon="5.78758">
        <ele>1149</ele>
        <time>2011-05-02T12:09:41Z</time>
      </trkpt>
      <trkpt lat="45.26605" lon="5.78769">
        <ele>1149.4</ele>
        <time>2011-05-02T12:09:45Z</time>
      </trkpt>
      <trkpt lat="45.2661" lon="5.78779">
        <ele>1150.9</ele>
        <time>2011-05-02T12:09:49Z</time>
      </trkpt>
      <trkpt lat="45.26616" lon="5.78788">
        <ele>1152.5</ele>
        <time>2011-05-02T12:09:53Z</time>
      </trkpt>
      <trkpt lat="45.26621" lon="5.78795">
        <ele>1152.8</ele>
        <time>2011-05-02T12:09:56Z</time>
      </trkpt>
      <trkpt lat="45.26624" lon="5.78803">
        <ele>1153</ele>
        <time>2011-05-02T12:09:59Z</time>
      </trkpt>
      <trkpt lat="45.26628" lon="5.78812">
        <ele>1153.8</ele>
        <time>2011-05-02T12:10:02Z</time>
      </trkpt>
      <trkpt lat="45.26631" lon="5.78823">
        <ele>1155.5</ele>
        <time>2011-05-02T12:10:06Z</time>
      </trkpt>
      <trkpt lat="45.26634" lon="5.78832">
        <ele>1156.1</ele>
        <time>2011-05-02T12:10:09Z</time>
      </trkpt>
      <trkpt lat="45.26637" lon="5.78842">
        <ele>1156.6</ele>
        <time>2011-05-02T12:10:12Z</time>
      </trkpt>
      <trkpt lat="45.2664" lon="5.78851">
        <ele>1157</ele>
        <time>2011-05-02T12:10:15Z</time>
      </trkpt>
      <trkpt lat="45.26642" lon="5.78861">
        <ele>1157.6</ele>
        <time>2011-05-02T12:10:18Z</time>
      </trkpt>
      <trkpt lat="45.26645" lon="5.78871">
        <ele>1157.7</ele>
        <time>2011-05-02T12:10:22Z</time>
      </trkpt>
      <trkpt lat="45.26649" lon="5.78881">
        <ele>1158.4</ele>
        <time>2011-05-02T12:10:26Z</time>
      </trkpt>
      <trkpt lat="45.26651" lon="5.78892">
        <ele>1158.6</ele>
        <time>2011-05-02T12:10:30Z</time>
      </trkpt>
      <trkpt lat="45.26652" lon="5.78895">
        <ele>1158.9</ele>
        <time>2011-05-02T12:10:31Z</time>
      </trkpt>
      <trkpt lat="45.26658" lon="5.78913">
        <ele>1160.5</ele>
        <time>2011-05-02T12:10:38Z</time>
      </trkpt>
      <trkpt lat="45.26662" lon="5.78922">
        <ele>1161</ele>
        <time>2011-05-02T12:10:42Z</time>
      </trkpt>
      <trkpt lat="45.26667" lon="5.78931">
        <ele>1161.2</ele>
        <time>2011-05-02T12:10:46Z</time>
      </trkpt>
      <trkpt lat="45.2667" lon="5.78942">
        <ele>1162</ele>
        <time>2011-05-02T12:10:50Z</time>
      </trkpt>
      <trkpt lat="45.26674" lon="5.78953">
        <ele>1162.7</ele>
        <time>2011-05-02T12:10:54Z</time>
      </trkpt>
      <trkpt lat="45.26677" lon="5.78964">
        <ele>1163.5</ele>
        <time>2011-05-02T12:10:58Z</time>
      </trkpt>
      <trkpt lat="45.2668" lon="5.78975">
        <ele>1164.3</ele>
        <time>2011-05-02T12:11:02Z</time>
      </trkpt>
      <trkpt lat="45.26682" lon="5.78987">
        <ele>1164.8</ele>
        <time>2011-05-02T12:11:06Z</time>
      </trkpt>
      <trkpt lat="45.26685" lon="5.78997">
        <ele>1166.2</ele>
        <time>2011-05-02T12:11:09Z</time>
      </trkpt>
      <trkpt lat="45.26687" lon="5.79006">
        <ele>1167.1</ele>
        <time>2011-05-02T12:11:12Z</time>
      </trkpt>
      <trkpt lat="45.26689" lon="5.79015">
        <ele>1166.7</ele>
        <time>2011-05-02T12:11:15Z</time>
      </trkpt>
      <trkpt lat="45.26692" lon="5.79024">
        <ele>1166.7</ele>
        <time>2011-05-02T12:11:18Z</time>
      </trkpt>
      <trkpt lat="45.26696" lon="5.79035">
        <ele>1168.5</ele>
        <time>2011-05-02T12:11:22Z</time>
      </trkpt>
      <trkpt lat="45.26701" lon="5.79046">
        <ele>1169.3</ele>
        <time>2011-05-02T12:11:26Z</time>
      </trkpt>
      <trkpt lat="45.26705" lon="5.79057">
        <ele>1169.3</ele>
        <time>2011-05-02T12:11:30Z</time>
      </trkpt>
      <trkpt lat="45.26709" lon="5.79068">
        <ele>1170.6</ele>
        <time>2011-05-02T12:11:34Z</time>
      </trkpt>
      <trkpt lat="45.2671" lon="5.79071">
        <ele>1170.9</ele>
        <time>2011-05-02T12:11:35Z</time>
      </trkpt>
      <trkpt lat="45.26715" lon="5.79091">
        <ele>1172.2</ele>
        <time>2011-05-02T12:11:42Z</time>
      </trkpt>
      <trkpt lat="45.2672" lon="5.79101">
        <ele>1173.4</ele>
        <time>2011-05-02T12:11:46Z</time>
      </trkpt>
      <trkpt lat="45.26724" lon="5.79112">
        <ele>1174</ele>
        <time>2011-05-02T12:11:50Z</time>
      </trkpt>
      <trkpt lat="45.26727" lon="5.79122">
        <ele>1174.9</ele>
        <time>2011-05-02T12:11:54Z</time>
      </trkpt>
      <trkpt lat="45.26731" lon="5.79131">
        <ele>1175.6</ele>
        <time>2011-05-02T12:11:58Z</time>
      </trkpt>
      <trkpt lat="45.26735" lon="5.79141">
        <ele>1176</ele>
        <time>2011-05-02T12:12:02Z</time>
      </trkpt>
      <trkpt lat="45.26738" lon="5.79153">
        <ele>1176.6</ele>
        <time>2011-05-02T12:12:06Z</time>
      </trkpt>
      <trkpt lat="45.26742" lon="5.79164">
        <ele>1177.3</ele>
        <time>2011-05-02T12:12:10Z</time>
      </trkpt>
      <trkpt lat="45.26746" lon="5.79175">
        <ele>1177.1</ele>
        <time>2011-05-02T12:12:14Z</time>
      </trkpt>
      <trkpt lat="45.2675" lon="5.79183">
        <ele>1178</ele>
        <time>2011-05-02T12:12:17Z</time>
      </trkpt>
      <trkpt lat="45.26755" lon="5.79192">
        <ele>1178.2</ele>
        <time>2011-05-02T12:12:20Z</time>
      </trkpt>
      <trkpt lat="45.26759" lon="5.79201">
        <ele>1178.3</ele>
        <time>2011-05-02T12:12:23Z</time>
      </trkpt>
      <trkpt lat="45.26762" lon="5.79211">
        <ele>1178.1</ele>
        <time>2011-05-02T12:12:26Z</time>
      </trkpt>
      <trkpt lat="45.26765" lon="5.79222">
        <ele>1178</ele>
        <time>2011-05-02T12:12:29Z</time>
      </trkpt>
      <trkpt lat="45.26769" lon="5.79231">
        <ele>1178.1</ele>
        <time>2011-05-02T12:12:32Z</time>
      </trkpt>
      <trkpt lat="45.26773" lon="5.7924">
        <ele>1178.6</ele>
        <time>2011-05-02T12:12:35Z</time>
      </trkpt>
      <trkpt lat="45.26774" lon="5.79243">
        <ele>1178.8</ele>
        <time>2011-05-02T12:12:36Z</time>
      </trkpt>
      <trkpt lat="45.26782" lon="5.79257">
        <ele>1180.4</ele>
        <time>2011-05-02T12:12:41Z</time>
      </trkpt>
      <trkpt lat="45.26786" lon="5.79267">
        <ele>1181.4</ele>
        <time>2011-05-02T12:12:44Z</time>
      </trkpt>
      <trkpt lat="45.26791" lon="5.79275">
        <ele>1182</ele>
        <time>2011-05-02T12:12:47Z</time>
      </trkpt>
      <trkpt lat="45.26796" lon="5.79283">
        <ele>1183.2</ele>
        <time>2011-05-02T12:12:50Z</time>
      </trkpt>
      <trkpt lat="45.26801" lon="5.79291">
        <ele>1183.1</ele>
        <time>2011-05-02T12:12:53Z</time>
      </trkpt>
      <trkpt lat="45.26808" lon="5.79298">
        <ele>1183.2</ele>
        <time>2011-05-02T12:12:56Z</time>
      </trkpt>
      <trkpt lat="45.26813" lon="5.79306">
        <ele>1183</ele>
        <time>2011-05-02T12:12:59Z</time>
      </trkpt>
      <trkpt lat="45.26818" lon="5.79313">
        <ele>1183.6</ele>
        <time>2011-05-02T12:13:02Z</time>
      </trkpt>
      <trkpt lat="45.26823" lon="5.79319">
        <ele>1185.2</ele>
        <time>2011-05-02T12:13:05Z</time>
      </trkpt>
      <trkpt lat="45.26828" lon="5.79327">
        <ele>1186.1</ele>
        <time>2011-05-02T12:13:08Z</time>
      </trkpt>
      <trkpt lat="45.26834" lon="5.79334">
        <ele>1187.2</ele>
        <time>2011-05-02T12:13:11Z</time>
      </trkpt>
      <trkpt lat="45.26839" lon="5.7934">
        <ele>1186.8</ele>
        <time>2011-05-02T12:13:14Z</time>
      </trkpt>
      <trkpt lat="45.26846" lon="5.79346">
        <ele>1187.2</ele>
        <time>2011-05-02T12:13:18Z</time>
      </trkpt>
      <trkpt lat="45.26853" lon="5.79352">
        <ele>1189.3</ele>
        <time>2011-05-02T12:13:22Z</time>
      </trkpt>
      <trkpt lat="45.26861" lon="5.79356">
        <ele>1190.2</ele>
        <time>2011-05-02T12:13:26Z</time>
      </trkpt>
      <trkpt lat="45.26867" lon="5.79359">
        <ele>1191.6</ele>
        <time>2011-05-02T12:13:29Z</time>
      </trkpt>
      <trkpt lat="45.26874" lon="5.79361">
        <ele>1191.8</ele>
        <time>2011-05-02T12:13:32Z</time>
      </trkpt>
      <trkpt lat="45.26881" lon="5.79363">
        <ele>1191.7</ele>
        <time>2011-05-02T12:13:35Z</time>
      </trkpt>
      <trkpt lat="45.26889" lon="5.79367">
        <ele>1190.6</ele>
        <time>2011-05-02T12:13:48Z</time>
      </trkpt>
      <trkpt lat="45.2689" lon="5.79367">
        <ele>1190.9</ele>
        <time>2011-05-02T12:13:49Z</time>
      </trkpt>
      <trkpt lat="45.26897" lon="5.79378">
        <ele>1191.2</ele>
        <time>2011-05-02T12:15:22Z</time>
      </trkpt>
      <trkpt lat="45.26899" lon="5.79377">
        <ele>1191.3</ele>
        <time>2011-05-02T12:15:23Z</time>
      </trkpt>
      <trkpt lat="45.26912" lon="5.79372">
        <ele>1190.8</ele>
        <time>2011-05-02T12:16:02Z</time>
      </trkpt>
      <trkpt lat="45.26919" lon="5.79368">
        <ele>1190.5</ele>
        <time>2011-05-02T12:16:05Z</time>
      </trkpt>
      <trkpt lat="45.26925" lon="5.79362">
        <ele>1190</ele>
        <time>2011-05-02T12:16:07Z</time>
      </trkpt>
      <trkpt lat="45.26931" lon="5.79357">
        <ele>1189.5</ele>
        <time>2011-05-02T12:16:09Z</time>
      </trkpt>
      <trkpt lat="45.26938" lon="5.79353">
        <ele>1189.3</ele>
        <time>2011-05-02T12:16:11Z</time>
      </trkpt>
      <trkpt lat="45.26946" lon="5.79347">
        <ele>1189.2</ele>
        <time>2011-05-02T12:16:13Z</time>
      </trkpt>
      <trkpt lat="45.2695" lon="5.79345">
        <ele>1189.1</ele>
        <time>2011-05-02T12:16:14Z</time>
      </trkpt>
      <trkpt lat="45.26955" lon="5.79343">
        <ele>1189.1</ele>
        <time>2011-05-02T12:16:15Z</time>
      </trkpt>
      <trkpt lat="45.26959" lon="5.7934">
        <ele>1189</ele>
        <time>2011-05-02T12:16:16Z</time>
      </trkpt>
      <trkpt lat="45.26963" lon="5.79337">
        <ele>1189.3</ele>
        <time>2011-05-02T12:16:17Z</time>
      </trkpt>
      <trkpt lat="45.26968" lon="5.79335">
        <ele>1189.5</ele>
        <time>2011-05-02T12:16:18Z</time>
      </trkpt>
      <trkpt lat="45.26973" lon="5.79334">
        <ele>1189.7</ele>
        <time>2011-05-02T12:16:19Z</time>
      </trkpt>
      <trkpt lat="45.26978" lon="5.79333">
        <ele>1189.2</ele>
        <time>2011-05-02T12:16:20Z</time>
      </trkpt>
      <trkpt lat="45.26983" lon="5.79333">
        <ele>1188.8</ele>
        <time>2011-05-02T12:16:21Z</time>
      </trkpt>
      <trkpt lat="45.26988" lon="5.79333">
        <ele>1188.5</ele>
        <time>2011-05-02T12:16:22Z</time>
      </trkpt>
      <trkpt lat="45.26993" lon="5.79334">
        <ele>1188.6</ele>
        <time>2011-05-02T12:16:23Z</time>
      </trkpt>
      <trkpt lat="45.26998" lon="5.79335">
        <ele>1188.6</ele>
        <time>2011-05-02T12:16:24Z</time>
      </trkpt>
      <trkpt lat="45.27003" lon="5.79336">
        <ele>1188.7</ele>
        <time>2011-05-02T12:16:25Z</time>
      </trkpt>
      <trkpt lat="45.27009" lon="5.79338">
        <ele>1188.3</ele>
        <time>2011-05-02T12:16:26Z</time>
      </trkpt>
      <trkpt lat="45.27014" lon="5.79339">
        <ele>1187.9</ele>
        <time>2011-05-02T12:16:27Z</time>
      </trkpt>
      <trkpt lat="45.27023" lon="5.79342">
        <ele>1187.5</ele>
        <time>2011-05-02T12:16:29Z</time>
      </trkpt>
      <trkpt lat="45.27031" lon="5.79344">
        <ele>1187.8</ele>
        <time>2011-05-02T12:16:32Z</time>
      </trkpt>
      <trkpt lat="45.27037" lon="5.79348">
        <ele>1188.5</ele>
        <time>2011-05-02T12:16:35Z</time>
      </trkpt>
      <trkpt lat="45.27044" lon="5.79354">
        <ele>1188.7</ele>
        <time>2011-05-02T12:16:38Z</time>
      </trkpt>
      <trkpt lat="45.27049" lon="5.79363">
        <ele>1188.2</ele>
        <time>2011-05-02T12:16:41Z</time>
      </trkpt>
      <trkpt lat="45.27052" lon="5.79374">
        <ele>1188.5</ele>
        <time>2011-05-02T12:16:45Z</time>
      </trkpt>
      <trkpt lat="45.27053" lon="5.79386">
        <ele>1189.3</ele>
        <time>2011-05-02T12:16:50Z</time>
      </trkpt>
      <trkpt lat="45.27055" lon="5.79398">
        <ele>1190</ele>
        <time>2011-05-02T12:16:55Z</time>
      </trkpt>
      <trkpt lat="45.27057" lon="5.7941">
        <ele>1191.7</ele>
        <time>2011-05-02T12:17:00Z</time>
      </trkpt>
      <trkpt lat="45.27059" lon="5.79422">
        <ele>1192.4</ele>
        <time>2011-05-02T12:17:04Z</time>
      </trkpt>
      <trkpt lat="45.2706" lon="5.79433">
        <ele>1192.6</ele>
        <time>2011-05-02T12:17:08Z</time>
      </trkpt>
      <trkpt lat="45.27063" lon="5.79444">
        <ele>1193.3</ele>
        <time>2011-05-02T12:17:12Z</time>
      </trkpt>
      <trkpt lat="45.27065" lon="5.79455">
        <ele>1194.2</ele>
        <time>2011-05-02T12:17:16Z</time>
      </trkpt>
      <trkpt lat="45.27069" lon="5.79466">
        <ele>1194</ele>
        <time>2011-05-02T12:17:20Z</time>
      </trkpt>
      <trkpt lat="45.27073" lon="5.79477">
        <ele>1195.3</ele>
        <time>2011-05-02T12:17:24Z</time>
      </trkpt>
      <trkpt lat="45.27074" lon="5.7948">
        <ele>1195.6</ele>
        <time>2011-05-02T12:17:25Z</time>
      </trkpt>
      <trkpt lat="45.27078" lon="5.795">
        <ele>1196.2</ele>
        <time>2011-05-02T12:17:32Z</time>
      </trkpt>
      <trkpt lat="45.2708" lon="5.79511">
        <ele>1198</ele>
        <time>2011-05-02T12:17:36Z</time>
      </trkpt>
      <trkpt lat="45.27081" lon="5.79522">
        <ele>1198.1</ele>
        <time>2011-05-02T12:17:40Z</time>
      </trkpt>
      <trkpt lat="45.27083" lon="5.79532">
        <ele>1199.2</ele>
        <time>2011-05-02T12:17:43Z</time>
      </trkpt>
      <trkpt lat="45.27086" lon="5.79541">
        <ele>1201.1</ele>
        <time>2011-05-02T12:17:46Z</time>
      </trkpt>
      <trkpt lat="45.27089" lon="5.79552">
        <ele>1201.8</ele>
        <time>2011-05-02T12:17:50Z</time>
      </trkpt>
      <trkpt lat="45.27094" lon="5.79563">
        <ele>1202.2</ele>
        <time>2011-05-02T12:17:54Z</time>
      </trkpt>
      <trkpt lat="45.27097" lon="5.79574">
        <ele>1203.1</ele>
        <time>2011-05-02T12:17:58Z</time>
      </trkpt>
      <trkpt lat="45.271" lon="5.79585">
        <ele>1204.4</ele>
        <time>2011-05-02T12:18:02Z</time>
      </trkpt>
      <trkpt lat="45.27102" lon="5.79596">
        <ele>1205.2</ele>
        <time>2011-05-02T12:18:06Z</time>
      </trkpt>
      <trkpt lat="45.27104" lon="5.79607">
        <ele>1207</ele>
        <time>2011-05-02T12:18:10Z</time>
      </trkpt>
      <trkpt lat="45.27105" lon="5.7962">
        <ele>1207.5</ele>
        <time>2011-05-02T12:18:15Z</time>
      </trkpt>
      <trkpt lat="45.27107" lon="5.79632">
        <ele>1208.2</ele>
        <time>2011-05-02T12:18:20Z</time>
      </trkpt>
      <trkpt lat="45.2711" lon="5.79642">
        <ele>1209.1</ele>
        <time>2011-05-02T12:18:24Z</time>
      </trkpt>
      <trkpt lat="45.27114" lon="5.79652">
        <ele>1210.4</ele>
        <time>2011-05-02T12:18:28Z</time>
      </trkpt>
      <trkpt lat="45.27115" lon="5.79655">
        <ele>1210.7</ele>
        <time>2011-05-02T12:18:29Z</time>
      </trkpt>
      <trkpt lat="45.27121" lon="5.79672">
        <ele>1211.5</ele>
        <time>2011-05-02T12:18:36Z</time>
      </trkpt>
      <trkpt lat="45.27125" lon="5.79681">
        <ele>1212.4</ele>
        <time>2011-05-02T12:18:40Z</time>
      </trkpt>
      <trkpt lat="45.27129" lon="5.7969">
        <ele>1213.3</ele>
        <time>2011-05-02T12:18:44Z</time>
      </trkpt>
      <trkpt lat="45.27134" lon="5.79698">
        <ele>1213.9</ele>
        <time>2011-05-02T12:18:48Z</time>
      </trkpt>
      <trkpt lat="45.27138" lon="5.79707">
        <ele>1214.7</ele>
        <time>2011-05-02T12:18:52Z</time>
      </trkpt>
      <trkpt lat="45.27144" lon="5.79716">
        <ele>1216.5</ele>
        <time>2011-05-02T12:18:56Z</time>
      </trkpt>
      <trkpt lat="45.2715" lon="5.79724">
        <ele>1216.6</ele>
        <time>2011-05-02T12:19:00Z</time>
      </trkpt>
      <trkpt lat="45.27155" lon="5.79731">
        <ele>1216.7</ele>
        <time>2011-05-02T12:19:04Z</time>
      </trkpt>
      <trkpt lat="45.27161" lon="5.79739">
        <ele>1218.6</ele>
        <time>2011-05-02T12:19:08Z</time>
      </trkpt>
      <trkpt lat="45.27168" lon="5.79747">
        <ele>1218.8</ele>
        <time>2011-05-02T12:19:12Z</time>
      </trkpt>
      <trkpt lat="45.27175" lon="5.79753">
        <ele>1218.7</ele>
        <time>2011-05-02T12:19:16Z</time>
      </trkpt>
      <trkpt lat="45.27183" lon="5.7976">
        <ele>1219.2</ele>
        <time>2011-05-02T12:19:20Z</time>
      </trkpt>
      <trkpt lat="45.2719" lon="5.79766">
        <ele>1219.3</ele>
        <time>2011-05-02T12:19:24Z</time>
      </trkpt>
      <trkpt lat="45.27198" lon="5.79771">
        <ele>1220.2</ele>
        <time>2011-05-02T12:19:28Z</time>
      </trkpt>
      <trkpt lat="45.27205" lon="5.79773">
        <ele>1220.7</ele>
        <time>2011-05-02T12:19:31Z</time>
      </trkpt>
      <trkpt lat="45.27207" lon="5.79773">
        <ele>1220.6</ele>
        <time>2011-05-02T12:19:32Z</time>
      </trkpt>
      <trkpt lat="45.27221" lon="5.79777">
        <ele>1222.5</ele>
        <time>2011-05-02T12:19:38Z</time>
      </trkpt>
      <trkpt lat="45.27229" lon="5.7978">
        <ele>1223.2</ele>
        <time>2011-05-02T12:19:42Z</time>
      </trkpt>
      <trkpt lat="45.27236" lon="5.79781">
        <ele>1223.4</ele>
        <time>2011-05-02T12:19:45Z</time>
      </trkpt>
      <trkpt lat="45.27244" lon="5.7978">
        <ele>1224</ele>
        <time>2011-05-02T12:19:50Z</time>
      </trkpt>
      <trkpt lat="45.27235" lon="5.79781">
        <ele>1224</ele>
        <time>2011-05-02T12:20:00Z</time>
      </trkpt>
      <trkpt lat="45.27228" lon="5.79779">
        <ele>1223.5</ele>
        <time>2011-05-02T12:20:02Z</time>
      </trkpt>
      <trkpt lat="45.27219" lon="5.79776">
        <ele>1223.3</ele>
        <time>2011-05-02T12:20:04Z</time>
      </trkpt>
      <trkpt lat="45.27215" lon="5.79775">
        <ele>1223.2</ele>
        <time>2011-05-02T12:20:05Z</time>
      </trkpt>
      <trkpt lat="45.27206" lon="5.79774">
        <ele>1223.1</ele>
        <time>2011-05-02T12:20:07Z</time>
      </trkpt>
      <trkpt lat="45.27198" lon="5.79772">
        <ele>1222.6</ele>
        <time>2011-05-02T12:20:10Z</time>
      </trkpt>
      <trkpt lat="45.27206" lon="5.79774">
        <ele>1222.1</ele>
        <time>2011-05-02T12:20:18Z</time>
      </trkpt>
      <trkpt lat="45.27212" lon="5.79777">
        <ele>1222.1</ele>
        <time>2011-05-02T12:20:22Z</time>
      </trkpt>
      <trkpt lat="45.2722" lon="5.79778">
        <ele>1221.9</ele>
        <time>2011-05-02T12:20:26Z</time>
      </trkpt>
      <trkpt lat="45.27228" lon="5.79779">
        <ele>1222.6</ele>
        <time>2011-05-02T12:20:30Z</time>
      </trkpt>
      <trkpt lat="45.27235" lon="5.79781">
        <ele>1222.4</ele>
        <time>2011-05-02T12:20:33Z</time>
      </trkpt>
      <trkpt lat="45.27237" lon="5.79781">
        <ele>1222.6</ele>
        <time>2011-05-02T12:20:34Z</time>
      </trkpt>
      <trkpt lat="45.2725" lon="5.79782">
        <ele>1223.9</ele>
        <time>2011-05-02T12:20:39Z</time>
      </trkpt>
      <trkpt lat="45.27258" lon="5.79783">
        <ele>1224.8</ele>
        <time>2011-05-02T12:20:42Z</time>
      </trkpt>
      <trkpt lat="45.27265" lon="5.79783">
        <ele>1224.7</ele>
        <time>2011-05-02T12:20:45Z</time>
      </trkpt>
      <trkpt lat="45.27273" lon="5.79784">
        <ele>1225.2</ele>
        <time>2011-05-02T12:20:48Z</time>
      </trkpt>
      <trkpt lat="45.27281" lon="5.79789">
        <ele>1225.5</ele>
        <time>2011-05-02T12:20:52Z</time>
      </trkpt>
      <trkpt lat="45.27288" lon="5.79792">
        <ele>1225.7</ele>
        <time>2011-05-02T12:20:55Z</time>
      </trkpt>
      <trkpt lat="45.27294" lon="5.79797">
        <ele>1227.9</ele>
        <time>2011-05-02T12:20:58Z</time>
      </trkpt>
      <trkpt lat="45.27301" lon="5.79801">
        <ele>1229.6</ele>
        <time>2011-05-02T12:21:01Z</time>
      </trkpt>
      <trkpt lat="45.27307" lon="5.79806">
        <ele>1230.1</ele>
        <time>2011-05-02T12:21:04Z</time>
      </trkpt>
      <trkpt lat="45.27313" lon="5.7981">
        <ele>1230.8</ele>
        <time>2011-05-02T12:21:07Z</time>
      </trkpt>
      <trkpt lat="45.2732" lon="5.79814">
        <ele>1231.8</ele>
        <time>2011-05-02T12:21:10Z</time>
      </trkpt>
      <trkpt lat="45.27329" lon="5.79817">
        <ele>1232.1</ele>
        <time>2011-05-02T12:21:14Z</time>
      </trkpt>
      <trkpt lat="45.27336" lon="5.7982">
        <ele>1234.1</ele>
        <time>2011-05-02T12:21:18Z</time>
      </trkpt>
      <trkpt lat="45.27344" lon="5.79821">
        <ele>1234</ele>
        <time>2011-05-02T12:21:22Z</time>
      </trkpt>
      <trkpt lat="45.27352" lon="5.79819">
        <ele>1235.5</ele>
        <time>2011-05-02T12:21:26Z</time>
      </trkpt>
      <trkpt lat="45.2736" lon="5.79816">
        <ele>1235.8</ele>
        <time>2011-05-02T12:21:30Z</time>
      </trkpt>
      <trkpt lat="45.27368" lon="5.79813">
        <ele>1236.7</ele>
        <time>2011-05-02T12:21:34Z</time>
      </trkpt>
      <trkpt lat="45.2737" lon="5.79812">
        <ele>1236.7</ele>
        <time>2011-05-02T12:21:35Z</time>
      </trkpt>
      <trkpt lat="45.27384" lon="5.79804">
        <ele>1238.2</ele>
        <time>2011-05-02T12:21:42Z</time>
      </trkpt>
      <trkpt lat="45.27392" lon="5.79799">
        <ele>1238.9</ele>
        <time>2011-05-02T12:21:46Z</time>
      </trkpt>
      <trkpt lat="45.27399" lon="5.79794">
        <ele>1239.7</ele>
        <time>2011-05-02T12:21:50Z</time>
      </trkpt>
      <trkpt lat="45.27406" lon="5.79788">
        <ele>1240.8</ele>
        <time>2011-05-02T12:21:55Z</time>
      </trkpt>
      <trkpt lat="45.27413" lon="5.79782">
        <ele>1241.4</ele>
        <time>2011-05-02T12:21:59Z</time>
      </trkpt>
      <trkpt lat="45.27421" lon="5.79777">
        <ele>1242.8</ele>
        <time>2011-05-02T12:22:03Z</time>
      </trkpt>
      <trkpt lat="45.27429" lon="5.79774">
        <ele>1243.6</ele>
        <time>2011-05-02T12:22:07Z</time>
      </trkpt>
      <trkpt lat="45.27437" lon="5.79771">
        <ele>1244.6</ele>
        <time>2011-05-02T12:22:11Z</time>
      </trkpt>
      <trkpt lat="45.27444" lon="5.79768">
        <ele>1245.2</ele>
        <time>2011-05-02T12:22:14Z</time>
      </trkpt>
      <trkpt lat="45.27452" lon="5.79762">
        <ele>1245.2</ele>
        <time>2011-05-02T12:22:18Z</time>
      </trkpt>
      <trkpt lat="45.2746" lon="5.79756">
        <ele>1245.9</ele>
        <time>2011-05-02T12:22:22Z</time>
      </trkpt>
      <trkpt lat="45.27466" lon="5.79749">
        <ele>1246.5</ele>
        <time>2011-05-02T12:22:25Z</time>
      </trkpt>
      <trkpt lat="45.27473" lon="5.79743">
        <ele>1246.5</ele>
        <time>2011-05-02T12:22:28Z</time>
      </trkpt>
      <trkpt lat="45.27481" lon="5.7974">
        <ele>1246.6</ele>
        <time>2011-05-02T12:22:31Z</time>
      </trkpt>
      <trkpt lat="45.27489" lon="5.79737">
        <ele>1247.1</ele>
        <time>2011-05-02T12:22:34Z</time>
      </trkpt>
      <trkpt lat="45.27497" lon="5.79735">
        <ele>1246.7</ele>
        <time>2011-05-02T12:22:37Z</time>
      </trkpt>
      <trkpt lat="45.27499" lon="5.79735">
        <ele>1246.9</ele>
        <time>2011-05-02T12:22:38Z</time>
      </trkpt>
      <trkpt lat="45.27511" lon="5.79738">
        <ele>1248.2</ele>
        <time>2011-05-02T12:22:43Z</time>
      </trkpt>
      <trkpt lat="45.27519" lon="5.79742">
        <ele>1248.8</ele>
        <time>2011-05-02T12:22:47Z</time>
      </trkpt>
      <trkpt lat="45.27526" lon="5.79749">
        <ele>1249.1</ele>
        <time>2011-05-02T12:22:51Z</time>
      </trkpt>
      <trkpt lat="45.27533" lon="5.79757">
        <ele>1250.3</ele>
        <time>2011-05-02T12:22:55Z</time>
      </trkpt>
      <trkpt lat="45.27539" lon="5.79761">
        <ele>1251</ele>
        <time>2011-05-02T12:22:58Z</time>
      </trkpt>
      <trkpt lat="45.27545" lon="5.79764">
        <ele>1251.3</ele>
        <time>2011-05-02T12:23:01Z</time>
      </trkpt>
      <trkpt lat="45.27552" lon="5.79767">
        <ele>1252.2</ele>
        <time>2011-05-02T12:23:04Z</time>
      </trkpt>
      <trkpt lat="45.27559" lon="5.79767">
        <ele>1251.8</ele>
        <time>2011-05-02T12:23:07Z</time>
      </trkpt>
      <trkpt lat="45.27567" lon="5.79769">
        <ele>1252.2</ele>
        <time>2011-05-02T12:23:10Z</time>
      </trkpt>
      <trkpt lat="45.27575" lon="5.7977">
        <ele>1253.7</ele>
        <time>2011-05-02T12:23:13Z</time>
      </trkpt>
      <trkpt lat="45.27582" lon="5.7977">
        <ele>1254.1</ele>
        <time>2011-05-02T12:23:16Z</time>
      </trkpt>
      <trkpt lat="45.2759" lon="5.79772">
        <ele>1254.6</ele>
        <time>2011-05-02T12:23:19Z</time>
      </trkpt>
      <trkpt lat="45.27597" lon="5.79774">
        <ele>1256</ele>
        <time>2011-05-02T12:23:22Z</time>
      </trkpt>
      <trkpt lat="45.27604" lon="5.79775">
        <ele>1256.7</ele>
        <time>2011-05-02T12:23:25Z</time>
      </trkpt>
      <trkpt lat="45.27611" lon="5.79776">
        <ele>1256.8</ele>
        <time>2011-05-02T12:23:28Z</time>
      </trkpt>
      <trkpt lat="45.27619" lon="5.79777">
        <ele>1257.2</ele>
        <time>2011-05-02T12:23:31Z</time>
      </trkpt>
      <trkpt lat="45.27626" lon="5.79779">
        <ele>1258</ele>
        <time>2011-05-02T12:23:34Z</time>
      </trkpt>
      <trkpt lat="45.27634" lon="5.79781">
        <ele>1258.8</ele>
        <time>2011-05-02T12:23:38Z</time>
      </trkpt>
      <trkpt lat="45.27637" lon="5.79781">
        <ele>1259.3</ele>
        <time>2011-05-02T12:23:39Z</time>
      </trkpt>
      <trkpt lat="45.2765" lon="5.79787">
        <ele>1258.7</ele>
        <time>2011-05-02T12:23:46Z</time>
      </trkpt>
      <trkpt lat="45.27659" lon="5.79789">
        <ele>1259.8</ele>
        <time>2011-05-02T12:23:50Z</time>
      </trkpt>
      <trkpt lat="45.27665" lon="5.79795">
        <ele>1260.9</ele>
        <time>2011-05-02T12:23:56Z</time>
      </trkpt>
      <trkpt lat="45.27673" lon="5.79801">
        <ele>1261.6</ele>
        <time>2011-05-02T12:24:00Z</time>
      </trkpt>
      <trkpt lat="45.27679" lon="5.79808">
        <ele>1261.9</ele>
        <time>2011-05-02T12:24:04Z</time>
      </trkpt>
      <trkpt lat="45.27685" lon="5.79817">
        <ele>1262.6</ele>
        <time>2011-05-02T12:24:08Z</time>
      </trkpt>
      <trkpt lat="45.27693" lon="5.79824">
        <ele>1262.6</ele>
        <time>2011-05-02T12:24:13Z</time>
      </trkpt>
      <trkpt lat="45.27699" lon="5.79832">
        <ele>1264.1</ele>
        <time>2011-05-02T12:24:18Z</time>
      </trkpt>
      <trkpt lat="45.27704" lon="5.79839">
        <ele>1264.6</ele>
        <time>2011-05-02T12:24:22Z</time>
      </trkpt>
      <trkpt lat="45.2771" lon="5.79848">
        <ele>1265</ele>
        <time>2011-05-02T12:24:34Z</time>
      </trkpt>
      <trkpt lat="45.27701" lon="5.79851">
        <ele>1266.2</ele>
        <time>2011-05-02T12:25:50Z</time>
      </trkpt>
      <trkpt lat="45.27701" lon="5.79851">
        <ele>1266.1</ele>
        <time>2011-05-02T12:25:51Z</time>
      </trkpt>
      <trkpt lat="45.27693" lon="5.79871">
        <ele>1267</ele>
        <time>2011-05-02T12:27:01Z</time>
      </trkpt>
      <trkpt lat="45.27693" lon="5.79871">
        <ele>1266.9</ele>
        <time>2011-05-02T12:27:02Z</time>
      </trkpt>
      <trkpt lat="45.27694" lon="5.79895">
        <ele>1270.3</ele>
        <time>2011-05-02T12:27:28Z</time>
      </trkpt>
      <trkpt lat="45.27689" lon="5.79905">
        <ele>1271</ele>
        <time>2011-05-02T12:27:39Z</time>
      </trkpt>
      <trkpt lat="45.27684" lon="5.79915">
        <ele>1272</ele>
        <time>2011-05-02T12:27:52Z</time>
      </trkpt>
      <trkpt lat="45.27684" lon="5.79928">
        <ele>1270.1</ele>
        <time>2011-05-02T12:28:10Z</time>
      </trkpt>
      <trkpt lat="45.27684" lon="5.79929">
        <ele>1269.9</ele>
        <time>2011-05-02T12:28:11Z</time>
      </trkpt>
      <trkpt lat="45.27689" lon="5.79951">
        <ele>1273.7</ele>
        <time>2011-05-02T12:28:35Z</time>
      </trkpt>
      <trkpt lat="45.27693" lon="5.79962">
        <ele>1272.6</ele>
        <time>2011-05-02T12:28:40Z</time>
      </trkpt>
      <trkpt lat="45.27696" lon="5.79972">
        <ele>1271.8</ele>
        <time>2011-05-02T12:28:46Z</time>
      </trkpt>
      <trkpt lat="45.27699" lon="5.79982">
        <ele>1270.8</ele>
        <time>2011-05-02T12:28:51Z</time>
      </trkpt>
      <trkpt lat="45.27705" lon="5.7999">
        <ele>1271.3</ele>
        <time>2011-05-02T12:28:57Z</time>
      </trkpt>
      <trkpt lat="45.2771" lon="5.79999">
        <ele>1270.7</ele>
        <time>2011-05-02T12:29:05Z</time>
      </trkpt>
      <trkpt lat="45.27712" lon="5.80011">
        <ele>1270.9</ele>
        <time>2011-05-02T12:29:15Z</time>
      </trkpt>
      <trkpt lat="45.27712" lon="5.80012">
        <ele>1270.8</ele>
        <time>2011-05-02T12:29:16Z</time>
      </trkpt>
      <trkpt lat="45.27722" lon="5.80031">
        <ele>1269.9</ele>
        <time>2011-05-02T12:29:35Z</time>
      </trkpt>
      <trkpt lat="45.27728" lon="5.80039">
        <ele>1268.1</ele>
        <time>2011-05-02T12:29:43Z</time>
      </trkpt>
      <trkpt lat="45.27733" lon="5.8005">
        <ele>1267.4</ele>
        <time>2011-05-02T12:30:17Z</time>
      </trkpt>
      <trkpt lat="45.27733" lon="5.8005">
        <ele>1267.3</ele>
        <time>2011-05-02T12:30:18Z</time>
      </trkpt>
      <trkpt lat="45.27742" lon="5.80048">
        <ele>1268.5</ele>
        <time>2011-05-02T12:31:50Z</time>
      </trkpt>
      <trkpt lat="45.27757" lon="5.80051">
        <ele>1270.6</ele>
        <time>2011-05-02T12:32:14Z</time>
      </trkpt>
      <trkpt lat="45.27765" lon="5.80052">
        <ele>1271.2</ele>
        <time>2011-05-02T12:32:27Z</time>
      </trkpt>
      <trkpt lat="45.27772" lon="5.80051">
        <ele>1271.9</ele>
        <time>2011-05-02T12:32:31Z</time>
      </trkpt>
      <trkpt lat="45.27779" lon="5.80058">
        <ele>1272.1</ele>
        <time>2011-05-02T12:32:35Z</time>
      </trkpt>
      <trkpt lat="45.27785" lon="5.80063">
        <ele>1272.4</ele>
        <time>2011-05-02T12:32:39Z</time>
      </trkpt>
      <trkpt lat="45.27793" lon="5.80067">
        <ele>1273.7</ele>
        <time>2011-05-02T12:32:43Z</time>
      </trkpt>
      <trkpt lat="45.27801" lon="5.80072">
        <ele>1273.9</ele>
        <time>2011-05-02T12:32:47Z</time>
      </trkpt>
      <trkpt lat="45.27807" lon="5.80075">
        <ele>1274</ele>
        <time>2011-05-02T12:32:50Z</time>
      </trkpt>
      <trkpt lat="45.2781" lon="5.80076">
        <ele>1273.9</ele>
        <time>2011-05-02T12:32:51Z</time>
      </trkpt>
      <trkpt lat="45.27823" lon="5.80084">
        <ele>1274.9</ele>
        <time>2011-05-02T12:32:57Z</time>
      </trkpt>
      <trkpt lat="45.2783" lon="5.80089">
        <ele>1275.3</ele>
        <time>2011-05-02T12:33:00Z</time>
      </trkpt>
      <trkpt lat="45.27838" lon="5.80091">
        <ele>1275.9</ele>
        <time>2011-05-02T12:33:02Z</time>
      </trkpt>
      <trkpt lat="45.27846" lon="5.80093">
        <ele>1275.1</ele>
        <time>2011-05-02T12:33:04Z</time>
      </trkpt>
      <trkpt lat="45.27851" lon="5.80093">
        <ele>1274.8</ele>
        <time>2011-05-02T12:33:05Z</time>
      </trkpt>
      <trkpt lat="45.27855" lon="5.80092">
        <ele>1274</ele>
        <time>2011-05-02T12:33:06Z</time>
      </trkpt>
      <trkpt lat="45.2786" lon="5.8009">
        <ele>1273.3</ele>
        <time>2011-05-02T12:33:07Z</time>
      </trkpt>
      <trkpt lat="45.27864" lon="5.80088">
        <ele>1272.9</ele>
        <time>2011-05-02T12:33:08Z</time>
      </trkpt>
      <trkpt lat="45.27869" lon="5.80087">
        <ele>1272.5</ele>
        <time>2011-05-02T12:33:09Z</time>
      </trkpt>
      <trkpt lat="45.27875" lon="5.80087">
        <ele>1271.7</ele>
        <time>2011-05-02T12:33:10Z</time>
      </trkpt>
      <trkpt lat="45.2788" lon="5.80087">
        <ele>1271.1</ele>
        <time>2011-05-02T12:33:11Z</time>
      </trkpt>
      <trkpt lat="45.27886" lon="5.80088">
        <ele>1270.7</ele>
        <time>2011-05-02T12:33:12Z</time>
      </trkpt>
      <trkpt lat="45.27894" lon="5.80093">
        <ele>1269.8</ele>
        <time>2011-05-02T12:33:14Z</time>
      </trkpt>
      <trkpt lat="45.279" lon="5.80099">
        <ele>1269.2</ele>
        <time>2011-05-02T12:33:16Z</time>
      </trkpt>
      <trkpt lat="45.27903" lon="5.80104">
        <ele>1269</ele>
        <time>2011-05-02T12:33:17Z</time>
      </trkpt>
      <trkpt lat="45.27906" lon="5.80109">
        <ele>1268.9</ele>
        <time>2011-05-02T12:33:18Z</time>
      </trkpt>
      <trkpt lat="45.27909" lon="5.80114">
        <ele>1267.9</ele>
        <time>2011-05-02T12:33:19Z</time>
      </trkpt>
      <trkpt lat="45.27912" lon="5.8012">
        <ele>1267.2</ele>
        <time>2011-05-02T12:33:20Z</time>
      </trkpt>
      <trkpt lat="45.27916" lon="5.8013">
        <ele>1267</ele>
        <time>2011-05-02T12:33:22Z</time>
      </trkpt>
      <trkpt lat="45.27922" lon="5.8014">
        <ele>1266.8</ele>
        <time>2011-05-02T12:33:36Z</time>
      </trkpt>
      <trkpt lat="45.2793" lon="5.80147">
        <ele>1267.9</ele>
        <time>2011-05-02T12:33:42Z</time>
      </trkpt>
      <trkpt lat="45.27936" lon="5.80152">
        <ele>1268.2</ele>
        <time>2011-05-02T12:33:45Z</time>
      </trkpt>
      <trkpt lat="45.27942" lon="5.80158">
        <ele>1268.4</ele>
        <time>2011-05-02T12:33:48Z</time>
      </trkpt>
      <trkpt lat="45.27948" lon="5.80163">
        <ele>1269.2</ele>
        <time>2011-05-02T12:33:51Z</time>
      </trkpt>
      <trkpt lat="45.2795" lon="5.80166">
        <ele>1269.5</ele>
        <time>2011-05-02T12:33:52Z</time>
      </trkpt>
      <trkpt lat="45.27959" lon="5.80177">
        <ele>1271.1</ele>
        <time>2011-05-02T12:33:57Z</time>
      </trkpt>
      <trkpt lat="45.27966" lon="5.80185">
        <ele>1272.1</ele>
        <time>2011-05-02T12:34:01Z</time>
      </trkpt>
      <trkpt lat="45.27973" lon="5.80192">
        <ele>1273.5</ele>
        <time>2011-05-02T12:34:05Z</time>
      </trkpt>
      <trkpt lat="45.2798" lon="5.80199">
        <ele>1274.1</ele>
        <time>2011-05-02T12:34:10Z</time>
      </trkpt>
      <trkpt lat="45.27987" lon="5.80207">
        <ele>1276</ele>
        <time>2011-05-02T12:34:16Z</time>
      </trkpt>
      <trkpt lat="45.27994" lon="5.80212">
        <ele>1277.4</ele>
        <time>2011-05-02T12:34:21Z</time>
      </trkpt>
      <trkpt lat="45.28002" lon="5.80216">
        <ele>1279.7</ele>
        <time>2011-05-02T12:34:31Z</time>
      </trkpt>
      <trkpt lat="45.2801" lon="5.80216">
        <ele>1281.8</ele>
        <time>2011-05-02T12:34:47Z</time>
      </trkpt>
      <trkpt lat="45.28019" lon="5.80217">
        <ele>1283.2</ele>
        <time>2011-05-02T12:35:01Z</time>
      </trkpt>
      <trkpt lat="45.2802" lon="5.80216">
        <ele>1283.2</ele>
        <time>2011-05-02T12:35:02Z</time>
      </trkpt>
      <trkpt lat="45.28036" lon="5.80218">
        <ele>1287.8</ele>
        <time>2011-05-02T12:35:37Z</time>
      </trkpt>
      <trkpt lat="45.28045" lon="5.80219">
        <ele>1289.3</ele>
        <time>2011-05-02T12:36:00Z</time>
      </trkpt>
      <trkpt lat="45.28054" lon="5.80221">
        <ele>1291.1</ele>
        <time>2011-05-02T12:36:12Z</time>
      </trkpt>
      <trkpt lat="45.28054" lon="5.80221">
        <ele>1291.5</ele>
        <time>2011-05-02T12:36:13Z</time>
      </trkpt>
      <trkpt lat="45.2807" lon="5.80229">
        <ele>1293.6</ele>
        <time>2011-05-02T12:36:29Z</time>
      </trkpt>
      <trkpt lat="45.28078" lon="5.80234">
        <ele>1294.8</ele>
        <time>2011-05-02T12:36:35Z</time>
      </trkpt>
      <trkpt lat="45.28085" lon="5.80239">
        <ele>1296.8</ele>
        <time>2011-05-02T12:36:41Z</time>
      </trkpt>
      <trkpt lat="45.28093" lon="5.80242">
        <ele>1298.1</ele>
        <time>2011-05-02T12:36:46Z</time>
      </trkpt>
      <trkpt lat="45.28101" lon="5.80246">
        <ele>1298.7</ele>
        <time>2011-05-02T12:36:52Z</time>
      </trkpt>
      <trkpt lat="45.28108" lon="5.80249">
        <ele>1299.2</ele>
        <time>2011-05-02T12:36:57Z</time>
      </trkpt>
      <trkpt lat="45.28117" lon="5.8025">
        <ele>1300.5</ele>
        <time>2011-05-02T12:37:02Z</time>
      </trkpt>
      <trkpt lat="45.28124" lon="5.8025">
        <ele>1302.4</ele>
        <time>2011-05-02T12:37:07Z</time>
      </trkpt>
      <trkpt lat="45.28132" lon="5.80246">
        <ele>1303.2</ele>
        <time>2011-05-02T12:37:13Z</time>
      </trkpt>
      <trkpt lat="45.28133" lon="5.80246">
        <ele>1303.6</ele>
        <time>2011-05-02T12:37:14Z</time>
      </trkpt>
      <trkpt lat="45.28147" lon="5.8024">
        <ele>1307.7</ele>
        <time>2011-05-02T12:37:27Z</time>
      </trkpt>
      <trkpt lat="45.28155" lon="5.80236">
        <ele>1308.9</ele>
        <time>2011-05-02T12:37:33Z</time>
      </trkpt>
      <trkpt lat="45.28163" lon="5.80236">
        <ele>1309.9</ele>
        <time>2011-05-02T12:37:40Z</time>
      </trkpt>
      <trkpt lat="45.28172" lon="5.80234">
        <ele>1311.5</ele>
        <time>2011-05-02T12:37:47Z</time>
      </trkpt>
      <trkpt lat="45.2818" lon="5.80233">
        <ele>1314</ele>
        <time>2011-05-02T12:37:54Z</time>
      </trkpt>
      <trkpt lat="45.28188" lon="5.80231">
        <ele>1315.4</ele>
        <time>2011-05-02T12:38:01Z</time>
      </trkpt>
      <trkpt lat="45.28197" lon="5.80229">
        <ele>1316.7</ele>
        <time>2011-05-02T12:38:10Z</time>
      </trkpt>
      <trkpt lat="45.28205" lon="5.80226">
        <ele>1318.3</ele>
        <time>2011-05-02T12:38:18Z</time>
      </trkpt>
      <trkpt lat="45.28206" lon="5.80226">
        <ele>1318.3</ele>
        <time>2011-05-02T12:38:19Z</time>
      </trkpt>
      <trkpt lat="45.28222" lon="5.80227">
        <ele>1321.8</ele>
        <time>2011-05-02T12:38:34Z</time>
      </trkpt>
      <trkpt lat="45.28231" lon="5.80229">
        <ele>1323.5</ele>
        <time>2011-05-02T12:38:42Z</time>
      </trkpt>
      <trkpt lat="45.28239" lon="5.80231">
        <ele>1323.6</ele>
        <time>2011-05-02T12:38:49Z</time>
      </trkpt>
      <trkpt lat="45.28248" lon="5.80232">
        <ele>1325.3</ele>
        <time>2011-05-02T12:38:56Z</time>
      </trkpt>
      <trkpt lat="45.28256" lon="5.80236">
        <ele>1326</ele>
        <time>2011-05-02T12:39:04Z</time>
      </trkpt>
      <trkpt lat="45.28263" lon="5.80241">
        <ele>1327.3</ele>
        <time>2011-05-02T12:39:11Z</time>
      </trkpt>
      <trkpt lat="45.2827" lon="5.80248">
        <ele>1327.7</ele>
        <time>2011-05-02T12:39:18Z</time>
      </trkpt>
      <trkpt lat="45.28276" lon="5.80257">
        <ele>1330.6</ele>
        <time>2011-05-02T12:39:54Z</time>
      </trkpt>
      <trkpt lat="45.28276" lon="5.80257">
        <ele>1330.6</ele>
        <time>2011-05-02T12:39:55Z</time>
      </trkpt>
      <trkpt lat="45.28277" lon="5.80269">
        <ele>1331</ele>
        <time>2011-05-02T12:42:56Z</time>
      </trkpt>
      <trkpt lat="45.28269" lon="5.80287">
        <ele>1331.2</ele>
        <time>2011-05-02T12:43:09Z</time>
      </trkpt>
      <trkpt lat="45.28263" lon="5.80295">
        <ele>1332</ele>
        <time>2011-05-02T12:43:14Z</time>
      </trkpt>
      <trkpt lat="45.28257" lon="5.80305">
        <ele>1331.9</ele>
        <time>2011-05-02T12:43:20Z</time>
      </trkpt>
      <trkpt lat="45.28255" lon="5.80315">
        <ele>1331.8</ele>
        <time>2011-05-02T12:43:27Z</time>
      </trkpt>
      <trkpt lat="45.28248" lon="5.8032">
        <ele>1332.2</ele>
        <time>2011-05-02T12:43:32Z</time>
      </trkpt>
      <trkpt lat="45.28241" lon="5.80324">
        <ele>1332.7</ele>
        <time>2011-05-02T12:43:37Z</time>
      </trkpt>
      <trkpt lat="45.28234" lon="5.80329">
        <ele>1332.3</ele>
        <time>2011-05-02T12:43:41Z</time>
      </trkpt>
      <trkpt lat="45.28227" lon="5.80333">
        <ele>1333.6</ele>
        <time>2011-05-02T12:43:45Z</time>
      </trkpt>
      <trkpt lat="45.2822" lon="5.80339">
        <ele>1334.4</ele>
        <time>2011-05-02T12:43:49Z</time>
      </trkpt>
      <trkpt lat="45.28214" lon="5.80347">
        <ele>1334.3</ele>
        <time>2011-05-02T12:43:53Z</time>
      </trkpt>
      <trkpt lat="45.28211" lon="5.80356">
        <ele>1335.8</ele>
        <time>2011-05-02T12:43:57Z</time>
      </trkpt>
      <trkpt lat="45.2821" lon="5.80359">
        <ele>1335.9</ele>
        <time>2011-05-02T12:43:58Z</time>
      </trkpt>
      <trkpt lat="45.28198" lon="5.80372">
        <ele>1336.3</ele>
        <time>2011-05-02T12:44:05Z</time>
      </trkpt>
      <trkpt lat="45.28192" lon="5.80379">
        <ele>1336.9</ele>
        <time>2011-05-02T12:44:09Z</time>
      </trkpt>
      <trkpt lat="45.28185" lon="5.80383">
        <ele>1337.7</ele>
        <time>2011-05-02T12:44:13Z</time>
      </trkpt>
      <trkpt lat="45.28177" lon="5.8039">
        <ele>1338.8</ele>
        <time>2011-05-02T12:44:18Z</time>
      </trkpt>
      <trkpt lat="45.28173" lon="5.804">
        <ele>1340.5</ele>
        <time>2011-05-02T12:44:22Z</time>
      </trkpt>
      <trkpt lat="45.2817" lon="5.8041">
        <ele>1341.2</ele>
        <time>2011-05-02T12:44:25Z</time>
      </trkpt>
      <trkpt lat="45.28167" lon="5.80418">
        <ele>1340.9</ele>
        <time>2011-05-02T12:44:27Z</time>
      </trkpt>
      <trkpt lat="45.28163" lon="5.80426">
        <ele>1340.5</ele>
        <time>2011-05-02T12:44:29Z</time>
      </trkpt>
      <trkpt lat="45.28159" lon="5.80435">
        <ele>1340.2</ele>
        <time>2011-05-02T12:44:31Z</time>
      </trkpt>
      <trkpt lat="45.28156" lon="5.80446">
        <ele>1339.7</ele>
        <time>2011-05-02T12:44:34Z</time>
      </trkpt>
      <trkpt lat="45.28151" lon="5.80457">
        <ele>1340.4</ele>
        <time>2011-05-02T12:44:38Z</time>
      </trkpt>
      <trkpt lat="45.28147" lon="5.80467">
        <ele>1341.3</ele>
        <time>2011-05-02T12:44:42Z</time>
      </trkpt>
      <trkpt lat="45.28143" lon="5.80478">
        <ele>1342.2</ele>
        <time>2011-05-02T12:44:52Z</time>
      </trkpt>
      <trkpt lat="45.28142" lon="5.80489">
        <ele>1342.7</ele>
        <time>2011-05-02T12:45:00Z</time>
      </trkpt>
      <trkpt lat="45.28141" lon="5.80491">
        <ele>1343</ele>
        <time>2011-05-02T12:45:01Z</time>
      </trkpt>
      <trkpt lat="45.28138" lon="5.8051">
        <ele>1342.3</ele>
        <time>2011-05-02T12:45:07Z</time>
      </trkpt>
      <trkpt lat="45.28136" lon="5.80521">
        <ele>1342.8</ele>
        <time>2011-05-02T12:45:11Z</time>
      </trkpt>
      <trkpt lat="45.28134" lon="5.80532">
        <ele>1342.4</ele>
        <time>2011-05-02T12:45:15Z</time>
      </trkpt>
      <trkpt lat="45.28131" lon="5.80543">
        <ele>1343.3</ele>
        <time>2011-05-02T12:45:19Z</time>
      </trkpt>
      <trkpt lat="45.28126" lon="5.80551">
        <ele>1344.6</ele>
        <time>2011-05-02T12:45:23Z</time>
      </trkpt>
      <trkpt lat="45.2812" lon="5.80558">
        <ele>1345.8</ele>
        <time>2011-05-02T12:45:27Z</time>
      </trkpt>
      <trkpt lat="45.28113" lon="5.80565">
        <ele>1347.9</ele>
        <time>2011-05-02T12:45:31Z</time>
      </trkpt>
      <trkpt lat="45.28108" lon="5.80574">
        <ele>1349.5</ele>
        <time>2011-05-02T12:45:36Z</time>
      </trkpt>
      <trkpt lat="45.28102" lon="5.80581">
        <ele>1349.9</ele>
        <time>2011-05-02T12:45:41Z</time>
      </trkpt>
      <trkpt lat="45.28097" lon="5.8059">
        <ele>1348.6</ele>
        <time>2011-05-02T12:45:46Z</time>
      </trkpt>
      <trkpt lat="45.2809" lon="5.80597">
        <ele>1349</ele>
        <time>2011-05-02T12:45:52Z</time>
      </trkpt>
      <trkpt lat="45.28084" lon="5.80605">
        <ele>1349.1</ele>
        <time>2011-05-02T12:45:58Z</time>
      </trkpt>
      <trkpt lat="45.2808" lon="5.80612">
        <ele>1349.1</ele>
        <time>2011-05-02T12:46:00Z</time>
      </trkpt>
      <trkpt lat="45.28075" lon="5.80619">
        <ele>1348.4</ele>
        <time>2011-05-02T12:46:02Z</time>
      </trkpt>
      <trkpt lat="45.28073" lon="5.80621">
        <ele>1348.2</ele>
        <time>2011-05-02T12:46:03Z</time>
      </trkpt>
      <trkpt lat="45.28061" lon="5.80633">
        <ele>1346</ele>
        <time>2011-05-02T12:46:08Z</time>
      </trkpt>
      <trkpt lat="45.28055" lon="5.8064">
        <ele>1345.1</ele>
        <time>2011-05-02T12:46:11Z</time>
      </trkpt>
      <trkpt lat="45.28048" lon="5.80644">
        <ele>1344.9</ele>
        <time>2011-05-02T12:46:15Z</time>
      </trkpt>
      <trkpt lat="45.2804" lon="5.80648">
        <ele>1345.1</ele>
        <time>2011-05-02T12:46:19Z</time>
      </trkpt>
      <trkpt lat="45.28031" lon="5.80651">
        <ele>1346.3</ele>
        <time>2011-05-02T12:46:24Z</time>
      </trkpt>
      <trkpt lat="45.28022" lon="5.80649">
        <ele>1347.8</ele>
        <time>2011-05-02T12:46:29Z</time>
      </trkpt>
      <trkpt lat="45.28014" lon="5.80644">
        <ele>1348.4</ele>
        <time>2011-05-02T12:46:34Z</time>
      </trkpt>
      <trkpt lat="45.28007" lon="5.8064">
        <ele>1348.3</ele>
        <time>2011-05-02T12:46:38Z</time>
      </trkpt>
      <trkpt lat="45.27999" lon="5.80639">
        <ele>1348.3</ele>
        <time>2011-05-02T12:46:43Z</time>
      </trkpt>
      <trkpt lat="45.27991" lon="5.8064">
        <ele>1348.3</ele>
        <time>2011-05-02T12:46:47Z</time>
      </trkpt>
      <trkpt lat="45.27982" lon="5.80641">
        <ele>1348.3</ele>
        <time>2011-05-02T12:46:51Z</time>
      </trkpt>
      <trkpt lat="45.27975" lon="5.80644">
        <ele>1348.4</ele>
        <time>2011-05-02T12:46:54Z</time>
      </trkpt>
      <trkpt lat="45.27967" lon="5.80646">
        <ele>1348.9</ele>
        <time>2011-05-02T12:46:57Z</time>
      </trkpt>
      <trkpt lat="45.2796" lon="5.80647">
        <ele>1348.4</ele>
        <time>2011-05-02T12:47:00Z</time>
      </trkpt>
      <trkpt lat="45.27951" lon="5.80645">
        <ele>1348.6</ele>
        <time>2011-05-02T12:47:04Z</time>
      </trkpt>
      <trkpt lat="45.27948" lon="5.80645">
        <ele>1348.8</ele>
        <time>2011-05-02T12:47:05Z</time>
      </trkpt>
      <trkpt lat="45.27935" lon="5.80638">
        <ele>1350.4</ele>
        <time>2011-05-02T12:47:12Z</time>
      </trkpt>
      <trkpt lat="45.27927" lon="5.80634">
        <ele>1349.5</ele>
        <time>2011-05-02T12:47:16Z</time>
      </trkpt>
      <trkpt lat="45.2792" lon="5.80634">
        <ele>1350.5</ele>
        <time>2011-05-02T12:47:19Z</time>
      </trkpt>
      <trkpt lat="45.27912" lon="5.8063">
        <ele>1351.4</ele>
        <time>2011-05-02T12:47:22Z</time>
      </trkpt>
      <trkpt lat="45.27905" lon="5.80628">
        <ele>1350.6</ele>
        <time>2011-05-02T12:47:25Z</time>
      </trkpt>
      <trkpt lat="45.27896" lon="5.80625">
        <ele>1351.9</ele>
        <time>2011-05-02T12:47:29Z</time>
      </trkpt>
      <trkpt lat="45.27887" lon="5.80623">
        <ele>1352</ele>
        <time>2011-05-02T12:47:48Z</time>
      </trkpt>
      <trkpt lat="45.2788" lon="5.80624">
        <ele>1353</ele>
        <time>2011-05-02T12:48:24Z</time>
      </trkpt>
      <trkpt lat="45.27878" lon="5.80623">
        <ele>1353.1</ele>
        <time>2011-05-02T12:48:25Z</time>
      </trkpt>
      <trkpt lat="45.27864" lon="5.80626">
        <ele>1352.8</ele>
        <time>2011-05-02T12:48:32Z</time>
      </trkpt>
      <trkpt lat="45.27857" lon="5.8063">
        <ele>1354</ele>
        <time>2011-05-02T12:48:36Z</time>
      </trkpt>
      <trkpt lat="45.2785" lon="5.80635">
        <ele>1355</ele>
        <time>2011-05-02T12:48:40Z</time>
      </trkpt>
      <trkpt lat="45.27849" lon="5.80646">
        <ele>1356.3</ele>
        <time>2011-05-02T12:48:45Z</time>
      </trkpt>
      <trkpt lat="45.27852" lon="5.80657">
        <ele>1356.1</ele>
        <time>2011-05-02T12:48:50Z</time>
      </trkpt>
      <trkpt lat="45.27859" lon="5.80666">
        <ele>1359.6</ele>
        <time>2011-05-02T12:48:57Z</time>
      </trkpt>
      <trkpt lat="45.27865" lon="5.80673">
        <ele>1360.9</ele>
        <time>2011-05-02T12:49:04Z</time>
      </trkpt>
      <trkpt lat="45.27871" lon="5.80681">
        <ele>1363.4</ele>
        <time>2011-05-02T12:49:11Z</time>
      </trkpt>
      <trkpt lat="45.27878" lon="5.80689">
        <ele>1365.9</ele>
        <time>2011-05-02T12:49:19Z</time>
      </trkpt>
      <trkpt lat="45.27884" lon="5.80695">
        <ele>1366.3</ele>
        <time>2011-05-02T12:49:26Z</time>
      </trkpt>
      <trkpt lat="45.27885" lon="5.80697">
        <ele>1366.5</ele>
        <time>2011-05-02T12:49:27Z</time>
      </trkpt>
      <trkpt lat="45.27895" lon="5.80713">
        <ele>1369.6</ele>
        <time>2011-05-02T12:49:40Z</time>
      </trkpt>
      <trkpt lat="45.27902" lon="5.80721">
        <ele>1371.1</ele>
        <time>2011-05-02T12:49:49Z</time>
      </trkpt>
      <trkpt lat="45.27909" lon="5.80729">
        <ele>1373.6</ele>
        <time>2011-05-02T12:50:02Z</time>
      </trkpt>
      <trkpt lat="45.27916" lon="5.80736">
        <ele>1374.5</ele>
        <time>2011-05-02T12:50:45Z</time>
      </trkpt>
      <trkpt lat="45.27916" lon="5.80736">
        <ele>1374.8</ele>
        <time>2011-05-02T12:50:46Z</time>
      </trkpt>
      <trkpt lat="45.27929" lon="5.80752">
        <ele>1375.3</ele>
        <time>2011-05-02T12:51:16Z</time>
      </trkpt>
      <trkpt lat="45.27936" lon="5.80759">
        <ele>1378.2</ele>
        <time>2011-05-02T12:51:25Z</time>
      </trkpt>
      <trkpt lat="45.27944" lon="5.80764">
        <ele>1379.2</ele>
        <time>2011-05-02T12:51:36Z</time>
      </trkpt>
      <trkpt lat="45.27952" lon="5.80769">
        <ele>1380.9</ele>
        <time>2011-05-02T12:51:44Z</time>
      </trkpt>
      <trkpt lat="45.2796" lon="5.80774">
        <ele>1382.6</ele>
        <time>2011-05-02T12:51:51Z</time>
      </trkpt>
      <trkpt lat="45.27961" lon="5.80775">
        <ele>1382.6</ele>
        <time>2011-05-02T12:51:52Z</time>
      </trkpt>
      <trkpt lat="45.27976" lon="5.80783">
        <ele>1385.6</ele>
        <time>2011-05-02T12:52:05Z</time>
      </trkpt>
      <trkpt lat="45.27984" lon="5.80786">
        <ele>1385.3</ele>
        <time>2011-05-02T12:52:11Z</time>
      </trkpt>
      <trkpt lat="45.27992" lon="5.80788">
        <ele>1387.1</ele>
        <time>2011-05-02T12:52:17Z</time>
      </trkpt>
      <trkpt lat="45.27999" lon="5.80792">
        <ele>1387.8</ele>
        <time>2011-05-02T12:52:24Z</time>
      </trkpt>
      <trkpt lat="45.28008" lon="5.80797">
        <ele>1388.8</ele>
        <time>2011-05-02T12:52:33Z</time>
      </trkpt>
      <trkpt lat="45.28015" lon="5.80801">
        <ele>1389.2</ele>
        <time>2011-05-02T12:52:40Z</time>
      </trkpt>
      <trkpt lat="45.28023" lon="5.80806">
        <ele>1389.7</ele>
        <time>2011-05-02T12:52:46Z</time>
      </trkpt>
      <trkpt lat="45.28031" lon="5.80811">
        <ele>1390.2</ele>
        <time>2011-05-02T12:52:51Z</time>
      </trkpt>
      <trkpt lat="45.28038" lon="5.80816">
        <ele>1391.1</ele>
        <time>2011-05-02T12:52:56Z</time>
      </trkpt>
      <trkpt lat="45.28039" lon="5.80817">
        <ele>1391.2</ele>
        <time>2011-05-02T12:52:57Z</time>
      </trkpt>
      <trkpt lat="45.28051" lon="5.80831">
        <ele>1391.4</ele>
        <time>2011-05-02T12:53:06Z</time>
      </trkpt>
      <trkpt lat="45.28058" lon="5.80836">
        <ele>1392.6</ele>
        <time>2011-05-02T12:53:12Z</time>
      </trkpt>
      <trkpt lat="45.28067" lon="5.80841">
        <ele>1393.5</ele>
        <time>2011-05-02T12:53:19Z</time>
      </trkpt>
      <trkpt lat="45.28075" lon="5.80846">
        <ele>1394.4</ele>
        <time>2011-05-02T12:53:25Z</time>
      </trkpt>
      <trkpt lat="45.28082" lon="5.80851">
        <ele>1395.7</ele>
        <time>2011-05-02T12:53:31Z</time>
      </trkpt>
      <trkpt lat="45.28089" lon="5.80858">
        <ele>1397</ele>
        <time>2011-05-02T12:53:37Z</time>
      </trkpt>
      <trkpt lat="45.28096" lon="5.80865">
        <ele>1399</ele>
        <time>2011-05-02T12:53:44Z</time>
      </trkpt>
      <trkpt lat="45.28103" lon="5.80873">
        <ele>1400.4</ele>
        <time>2011-05-02T12:53:51Z</time>
      </trkpt>
      <trkpt lat="45.2811" lon="5.8088">
        <ele>1402</ele>
        <time>2011-05-02T12:53:58Z</time>
      </trkpt>
      <trkpt lat="45.28111" lon="5.80881">
        <ele>1402.5</ele>
        <time>2011-05-02T12:53:59Z</time>
      </trkpt>
      <trkpt lat="45.28121" lon="5.80897">
        <ele>1406.7</ele>
        <time>2011-05-02T12:54:14Z</time>
      </trkpt>
      <trkpt lat="45.28127" lon="5.80905">
        <ele>1407.8</ele>
        <time>2011-05-02T12:54:22Z</time>
      </trkpt>
      <trkpt lat="45.28133" lon="5.80913">
        <ele>1410.2</ele>
        <time>2011-05-02T12:54:30Z</time>
      </trkpt>
      <trkpt lat="45.2814" lon="5.80919">
        <ele>1411</ele>
        <time>2011-05-02T12:54:37Z</time>
      </trkpt>
      <trkpt lat="45.28144" lon="5.80929">
        <ele>1413.2</ele>
        <time>2011-05-02T12:54:44Z</time>
      </trkpt>
      <trkpt lat="45.28149" lon="5.80938">
        <ele>1414.4</ele>
        <time>2011-05-02T12:54:51Z</time>
      </trkpt>
      <trkpt lat="45.28147" lon="5.80928">
        <ele>1418.7</ele>
        <time>2011-05-02T13:05:53Z</time>
      </trkpt>
      <trkpt lat="45.28145" lon="5.80925">
        <ele>1418.3</ele>
        <time>2011-05-02T13:05:54Z</time>
      </trkpt>
      <trkpt lat="45.28139" lon="5.80913">
        <ele>1417.7</ele>
        <time>2011-05-02T13:05:57Z</time>
      </trkpt>
      <trkpt lat="45.28132" lon="5.80906">
        <ele>1417.7</ele>
        <time>2011-05-02T13:05:59Z</time>
      </trkpt>
      <trkpt lat="45.28125" lon="5.80898">
        <ele>1416.3</ele>
        <time>2011-05-02T13:06:01Z</time>
      </trkpt>
      <trkpt lat="45.28122" lon="5.80894">
        <ele>1415.8</ele>
        <time>2011-05-02T13:06:02Z</time>
      </trkpt>
      <trkpt lat="45.28118" lon="5.80889">
        <ele>1415</ele>
        <time>2011-05-02T13:06:03Z</time>
      </trkpt>
      <trkpt lat="45.28115" lon="5.80885">
        <ele>1414.3</ele>
        <time>2011-05-02T13:06:04Z</time>
      </trkpt>
      <trkpt lat="45.28111" lon="5.8088">
        <ele>1413.8</ele>
        <time>2011-05-02T13:06:05Z</time>
      </trkpt>
      <trkpt lat="45.28107" lon="5.80876">
        <ele>1413.5</ele>
        <time>2011-05-02T13:06:06Z</time>
      </trkpt>
      <trkpt lat="45.28103" lon="5.80871">
        <ele>1411.3</ele>
        <time>2011-05-02T13:06:07Z</time>
      </trkpt>
      <trkpt lat="45.28099" lon="5.80866">
        <ele>1409.7</ele>
        <time>2011-05-02T13:06:08Z</time>
      </trkpt>
      <trkpt lat="45.28094" lon="5.8086">
        <ele>1408.5</ele>
        <time>2011-05-02T13:06:09Z</time>
      </trkpt>
      <trkpt lat="45.28089" lon="5.80856">
        <ele>1407.2</ele>
        <time>2011-05-02T13:06:10Z</time>
      </trkpt>
      <trkpt lat="45.28084" lon="5.80851">
        <ele>1406.2</ele>
        <time>2011-05-02T13:06:11Z</time>
      </trkpt>
      <trkpt lat="45.28079" lon="5.80846">
        <ele>1405.5</ele>
        <time>2011-05-02T13:06:12Z</time>
      </trkpt>
      <trkpt lat="45.28074" lon="5.80842">
        <ele>1403.8</ele>
        <time>2011-05-02T13:06:13Z</time>
      </trkpt>
      <trkpt lat="45.28069" lon="5.80839">
        <ele>1402.5</ele>
        <time>2011-05-02T13:06:14Z</time>
      </trkpt>
      <trkpt lat="45.28064" lon="5.80838">
        <ele>1401.6</ele>
        <time>2011-05-02T13:06:15Z</time>
      </trkpt>
      <trkpt lat="45.28059" lon="5.80838">
        <ele>1400</ele>
        <time>2011-05-02T13:06:16Z</time>
      </trkpt>
      <trkpt lat="45.28053" lon="5.80839">
        <ele>1398.8</ele>
        <time>2011-05-02T13:06:17Z</time>
      </trkpt>
      <trkpt lat="45.28048" lon="5.8084">
        <ele>1397.9</ele>
        <time>2011-05-02T13:06:18Z</time>
      </trkpt>
      <trkpt lat="45.28042" lon="5.80842">
        <ele>1396.6</ele>
        <time>2011-05-02T13:06:19Z</time>
      </trkpt>
      <trkpt lat="45.28036" lon="5.80845">
        <ele>1395.7</ele>
        <time>2011-05-02T13:06:20Z</time>
      </trkpt>
      <trkpt lat="45.28031" lon="5.80849">
        <ele>1395</ele>
        <time>2011-05-02T13:06:21Z</time>
      </trkpt>
      <trkpt lat="45.28025" lon="5.80856">
        <ele>1394.4</ele>
        <time>2011-05-02T13:06:23Z</time>
      </trkpt>
      <trkpt lat="45.28018" lon="5.80864">
        <ele>1393.8</ele>
        <time>2011-05-02T13:06:28Z</time>
      </trkpt>
      <trkpt lat="45.28011" lon="5.80871">
        <ele>1394.8</ele>
        <time>2011-05-02T13:06:33Z</time>
      </trkpt>
      <trkpt lat="45.28004" lon="5.80875">
        <ele>1395.5</ele>
        <time>2011-05-02T13:06:38Z</time>
      </trkpt>
      <trkpt lat="45.27996" lon="5.80877">
        <ele>1395.5</ele>
        <time>2011-05-02T13:06:42Z</time>
      </trkpt>
      <trkpt lat="45.27989" lon="5.80878">
        <ele>1395.4</ele>
        <time>2011-05-02T13:06:45Z</time>
      </trkpt>
      <trkpt lat="45.2798" lon="5.8088">
        <ele>1395.8</ele>
        <time>2011-05-02T13:06:49Z</time>
      </trkpt>
      <trkpt lat="45.27971" lon="5.80881">
        <ele>1396.7</ele>
        <time>2011-05-02T13:06:53Z</time>
      </trkpt>
      <trkpt lat="45.27962" lon="5.80882">
        <ele>1397.6</ele>
        <time>2011-05-02T13:06:58Z</time>
      </trkpt>
      <trkpt lat="45.27961" lon="5.80883">
        <ele>1397.8</ele>
        <time>2011-05-02T13:06:59Z</time>
      </trkpt>
      <trkpt lat="45.27946" lon="5.80884">
        <ele>1398.5</ele>
        <time>2011-05-02T13:07:07Z</time>
      </trkpt>
      <trkpt lat="45.27939" lon="5.80884">
        <ele>1398.5</ele>
        <time>2011-05-02T13:07:11Z</time>
      </trkpt>
      <trkpt lat="45.27931" lon="5.80884">
        <ele>1398.9</ele>
        <time>2011-05-02T13:07:15Z</time>
      </trkpt>
      <trkpt lat="45.27923" lon="5.80884">
        <ele>1398.4</ele>
        <time>2011-05-02T13:07:19Z</time>
      </trkpt>
      <trkpt lat="45.27915" lon="5.80883">
        <ele>1399.4</ele>
        <time>2011-05-02T13:07:23Z</time>
      </trkpt>
      <trkpt lat="45.27906" lon="5.80884">
        <ele>1400.1</ele>
        <time>2011-05-02T13:07:27Z</time>
      </trkpt>
      <trkpt lat="45.27898" lon="5.80885">
        <ele>1400.9</ele>
        <time>2011-05-02T13:07:31Z</time>
      </trkpt>
      <trkpt lat="45.27891" lon="5.80886">
        <ele>1401.3</ele>
        <time>2011-05-02T13:07:34Z</time>
      </trkpt>
      <trkpt lat="45.27882" lon="5.80886">
        <ele>1401</ele>
        <time>2011-05-02T13:07:38Z</time>
      </trkpt>
      <trkpt lat="45.27874" lon="5.80888">
        <ele>1401.3</ele>
        <time>2011-05-02T13:07:42Z</time>
      </trkpt>
      <trkpt lat="45.27868" lon="5.8089">
        <ele>1401.5</ele>
        <time>2011-05-02T13:07:45Z</time>
      </trkpt>
      <trkpt lat="45.27861" lon="5.80894">
        <ele>1401.5</ele>
        <time>2011-05-02T13:07:48Z</time>
      </trkpt>
      <trkpt lat="45.27853" lon="5.809">
        <ele>1401.2</ele>
        <time>2011-05-02T13:07:51Z</time>
      </trkpt>
      <trkpt lat="45.27847" lon="5.80903">
        <ele>1401</ele>
        <time>2011-05-02T13:07:53Z</time>
      </trkpt>
      <trkpt lat="45.2784" lon="5.80908">
        <ele>1400.4</ele>
        <time>2011-05-02T13:07:55Z</time>
      </trkpt>
      <trkpt lat="45.27833" lon="5.80912">
        <ele>1399.7</ele>
        <time>2011-05-02T13:07:57Z</time>
      </trkpt>
      <trkpt lat="45.27827" lon="5.80917">
        <ele>1399.4</ele>
        <time>2011-05-02T13:07:59Z</time>
      </trkpt>
      <trkpt lat="45.27825" lon="5.8092">
        <ele>1399.3</ele>
        <time>2011-05-02T13:08:00Z</time>
      </trkpt>
      <trkpt lat="45.2782" lon="5.80933">
        <ele>1398.7</ele>
        <time>2011-05-02T13:08:03Z</time>
      </trkpt>
      <trkpt lat="45.27818" lon="5.80944">
        <ele>1398.8</ele>
        <time>2011-05-02T13:08:05Z</time>
      </trkpt>
      <trkpt lat="45.27817" lon="5.80954">
        <ele>1398.6</ele>
        <time>2011-05-02T13:08:07Z</time>
      </trkpt>
      <trkpt lat="45.27816" lon="5.80963">
        <ele>1398.3</ele>
        <time>2011-05-02T13:08:09Z</time>
      </trkpt>
      <trkpt lat="45.27816" lon="5.80974">
        <ele>1397.7</ele>
        <time>2011-05-02T13:08:11Z</time>
      </trkpt>
      <trkpt lat="45.27815" lon="5.80984">
        <ele>1397.1</ele>
        <time>2011-05-02T13:08:13Z</time>
      </trkpt>
      <trkpt lat="45.27814" lon="5.80994">
        <ele>1396.5</ele>
        <time>2011-05-02T13:08:15Z</time>
      </trkpt>
      <trkpt lat="45.27813" lon="5.81004">
        <ele>1396.5</ele>
        <time>2011-05-02T13:08:17Z</time>
      </trkpt>
      <trkpt lat="45.27812" lon="5.81013">
        <ele>1396.8</ele>
        <time>2011-05-02T13:08:19Z</time>
      </trkpt>
      <trkpt lat="45.27811" lon="5.81023">
        <ele>1396.2</ele>
        <time>2011-05-02T13:08:21Z</time>
      </trkpt>
      <trkpt lat="45.27809" lon="5.81033">
        <ele>1395.9</ele>
        <time>2011-05-02T13:08:23Z</time>
      </trkpt>
      <trkpt lat="45.27806" lon="5.81044">
        <ele>1395.8</ele>
        <time>2011-05-02T13:08:25Z</time>
      </trkpt>
      <trkpt lat="45.27803" lon="5.81056">
        <ele>1395.4</ele>
        <time>2011-05-02T13:08:27Z</time>
      </trkpt>
      <trkpt lat="45.278" lon="5.81067">
        <ele>1395</ele>
        <time>2011-05-02T13:08:29Z</time>
      </trkpt>
      <trkpt lat="45.27799" lon="5.81073">
        <ele>1394.7</ele>
        <time>2011-05-02T13:08:30Z</time>
      </trkpt>
      <trkpt lat="45.27795" lon="5.81085">
        <ele>1394.3</ele>
        <time>2011-05-02T13:08:32Z</time>
      </trkpt>
      <trkpt lat="45.27792" lon="5.81095">
        <ele>1393.8</ele>
        <time>2011-05-02T13:08:34Z</time>
      </trkpt>
      <trkpt lat="45.27789" lon="5.81104">
        <ele>1393.6</ele>
        <time>2011-05-02T13:08:36Z</time>
      </trkpt>
      <trkpt lat="45.27785" lon="5.81113">
        <ele>1393.5</ele>
        <time>2011-05-02T13:08:38Z</time>
      </trkpt>
      <trkpt lat="45.27781" lon="5.81121">
        <ele>1393.4</ele>
        <time>2011-05-02T13:08:40Z</time>
      </trkpt>
      <trkpt lat="45.27777" lon="5.81129">
        <ele>1392.9</ele>
        <time>2011-05-02T13:08:42Z</time>
      </trkpt>
      <trkpt lat="45.27774" lon="5.81137">
        <ele>1392.4</ele>
        <time>2011-05-02T13:08:44Z</time>
      </trkpt>
      <trkpt lat="45.2777" lon="5.81144">
        <ele>1392</ele>
        <time>2011-05-02T13:08:46Z</time>
      </trkpt>
      <trkpt lat="45.27764" lon="5.81153">
        <ele>1391.1</ele>
        <time>2011-05-02T13:08:49Z</time>
      </trkpt>
      <trkpt lat="45.27759" lon="5.81163">
        <ele>1390.9</ele>
        <time>2011-05-02T13:08:52Z</time>
      </trkpt>
      <trkpt lat="45.27755" lon="5.8117">
        <ele>1391.3</ele>
        <time>2011-05-02T13:08:54Z</time>
      </trkpt>
      <trkpt lat="45.27751" lon="5.81178">
        <ele>1391.1</ele>
        <time>2011-05-02T13:08:56Z</time>
      </trkpt>
      <trkpt lat="45.27746" lon="5.81187">
        <ele>1391</ele>
        <time>2011-05-02T13:08:58Z</time>
      </trkpt>
      <trkpt lat="45.27741" lon="5.81194">
        <ele>1391</ele>
        <time>2011-05-02T13:09:00Z</time>
      </trkpt>
      <trkpt lat="45.27737" lon="5.81201">
        <ele>1390.7</ele>
        <time>2011-05-02T13:09:02Z</time>
      </trkpt>
      <trkpt lat="45.27735" lon="5.81204">
        <ele>1390.5</ele>
        <time>2011-05-02T13:09:03Z</time>
      </trkpt>
      <trkpt lat="45.27728" lon="5.81217">
        <ele>1389.7</ele>
        <time>2011-05-02T13:09:06Z</time>
      </trkpt>
      <trkpt lat="45.27724" lon="5.81226">
        <ele>1389.2</ele>
        <time>2011-05-02T13:09:08Z</time>
      </trkpt>
      <trkpt lat="45.27723" lon="5.81235">
        <ele>1389</ele>
        <time>2011-05-02T13:09:10Z</time>
      </trkpt>
      <trkpt lat="45.27724" lon="5.81244">
        <ele>1388.8</ele>
        <time>2011-05-02T13:09:12Z</time>
      </trkpt>
      <trkpt lat="45.27727" lon="5.81254">
        <ele>1388.1</ele>
        <time>2011-05-02T13:09:14Z</time>
      </trkpt>
      <trkpt lat="45.27729" lon="5.81264">
        <ele>1387.3</ele>
        <time>2011-05-02T13:09:16Z</time>
      </trkpt>
      <trkpt lat="45.27729" lon="5.81274">
        <ele>1386.8</ele>
        <time>2011-05-02T13:09:18Z</time>
      </trkpt>
      <trkpt lat="45.27729" lon="5.81283">
        <ele>1386.9</ele>
        <time>2011-05-02T13:09:20Z</time>
      </trkpt>
      <trkpt lat="45.27727" lon="5.81294">
        <ele>1387.1</ele>
        <time>2011-05-02T13:09:23Z</time>
      </trkpt>
      <trkpt lat="45.27723" lon="5.81303">
        <ele>1387</ele>
        <time>2011-05-02T13:09:27Z</time>
      </trkpt>
      <trkpt lat="45.27717" lon="5.81312">
        <ele>1387.6</ele>
        <time>2011-05-02T13:09:31Z</time>
      </trkpt>
      <trkpt lat="45.27712" lon="5.8132">
        <ele>1388</ele>
        <time>2011-05-02T13:09:34Z</time>
      </trkpt>
      <trkpt lat="45.27707" lon="5.81326">
        <ele>1388.6</ele>
        <time>2011-05-02T13:09:36Z</time>
      </trkpt>
      <trkpt lat="45.27701" lon="5.81334">
        <ele>1389.3</ele>
        <time>2011-05-02T13:09:38Z</time>
      </trkpt>
      <trkpt lat="45.27695" lon="5.81341">
        <ele>1388.3</ele>
        <time>2011-05-02T13:09:40Z</time>
      </trkpt>
      <trkpt lat="45.27688" lon="5.81349">
        <ele>1387.5</ele>
        <time>2011-05-02T13:09:42Z</time>
      </trkpt>
      <trkpt lat="45.27685" lon="5.81354">
        <ele>1387.1</ele>
        <time>2011-05-02T13:09:43Z</time>
      </trkpt>
      <trkpt lat="45.27681" lon="5.81357">
        <ele>1386.9</ele>
        <time>2011-05-02T13:09:44Z</time>
      </trkpt>
      <trkpt lat="45.27674" lon="5.81364">
        <ele>1386.9</ele>
        <time>2011-05-02T13:09:46Z</time>
      </trkpt>
      <trkpt lat="45.27667" lon="5.81371">
        <ele>1387.3</ele>
        <time>2011-05-02T13:09:48Z</time>
      </trkpt>
      <trkpt lat="45.27663" lon="5.81375">
        <ele>1386.8</ele>
        <time>2011-05-02T13:09:49Z</time>
      </trkpt>
      <trkpt lat="45.27659" lon="5.81379">
        <ele>1386.4</ele>
        <time>2011-05-02T13:09:50Z</time>
      </trkpt>
      <trkpt lat="45.27652" lon="5.81386">
        <ele>1386</ele>
        <time>2011-05-02T13:09:52Z</time>
      </trkpt>
      <trkpt lat="45.27649" lon="5.8139">
        <ele>1385.8</ele>
        <time>2011-05-02T13:09:53Z</time>
      </trkpt>
      <trkpt lat="45.27645" lon="5.81394">
        <ele>1385.7</ele>
        <time>2011-05-02T13:09:54Z</time>
      </trkpt>
      <trkpt lat="45.27638" lon="5.81401">
        <ele>1385.3</ele>
        <time>2011-05-02T13:09:56Z</time>
      </trkpt>
      <trkpt lat="45.27629" lon="5.81405">
        <ele>1384.4</ele>
        <time>2011-05-02T13:09:58Z</time>
      </trkpt>
      <trkpt lat="45.27625" lon="5.81407">
        <ele>1383.9</ele>
        <time>2011-05-02T13:09:59Z</time>
      </trkpt>
      <trkpt lat="45.2762" lon="5.81408">
        <ele>1383.5</ele>
        <time>2011-05-02T13:10:00Z</time>
      </trkpt>
      <trkpt lat="45.27615" lon="5.81407">
        <ele>1383.2</ele>
        <time>2011-05-02T13:10:01Z</time>
      </trkpt>
      <trkpt lat="45.27611" lon="5.81407">
        <ele>1383.3</ele>
        <time>2011-05-02T13:10:02Z</time>
      </trkpt>
      <trkpt lat="45.27606" lon="5.81405">
        <ele>1383.3</ele>
        <time>2011-05-02T13:10:03Z</time>
      </trkpt>
      <trkpt lat="45.27602" lon="5.81402">
        <ele>1383.3</ele>
        <time>2011-05-02T13:10:04Z</time>
      </trkpt>
      <trkpt lat="45.27594" lon="5.81396">
        <ele>1382.6</ele>
        <time>2011-05-02T13:10:06Z</time>
      </trkpt>
      <trkpt lat="45.27587" lon="5.81389">
        <ele>1382</ele>
        <time>2011-05-02T13:10:08Z</time>
      </trkpt>
      <trkpt lat="45.2758" lon="5.81382">
        <ele>1381.6</ele>
        <time>2011-05-02T13:10:10Z</time>
      </trkpt>
      <trkpt lat="45.27576" lon="5.81378">
        <ele>1381.1</ele>
        <time>2011-05-02T13:10:11Z</time>
      </trkpt>
      <trkpt lat="45.27568" lon="5.81371">
        <ele>1380.3</ele>
        <time>2011-05-02T13:10:13Z</time>
      </trkpt>
      <trkpt lat="45.27563" lon="5.81366">
        <ele>1379.8</ele>
        <time>2011-05-02T13:10:15Z</time>
      </trkpt>
      <trkpt lat="45.27557" lon="5.81361">
        <ele>1379.3</ele>
        <time>2011-05-02T13:10:18Z</time>
      </trkpt>
      <trkpt lat="45.27552" lon="5.81355">
        <ele>1379.1</ele>
        <time>2011-05-02T13:10:20Z</time>
      </trkpt>
      <trkpt lat="45.27547" lon="5.81349">
        <ele>1379.2</ele>
        <time>2011-05-02T13:10:22Z</time>
      </trkpt>
      <trkpt lat="45.27539" lon="5.81342">
        <ele>1379</ele>
        <time>2011-05-02T13:10:24Z</time>
      </trkpt>
      <trkpt lat="45.27536" lon="5.81338">
        <ele>1378.9</ele>
        <time>2011-05-02T13:10:25Z</time>
      </trkpt>
      <trkpt lat="45.27532" lon="5.81334">
        <ele>1378.7</ele>
        <time>2011-05-02T13:10:26Z</time>
      </trkpt>
      <trkpt lat="45.27529" lon="5.81329">
        <ele>1378.3</ele>
        <time>2011-05-02T13:10:27Z</time>
      </trkpt>
      <trkpt lat="45.27525" lon="5.81324">
        <ele>1378</ele>
        <time>2011-05-02T13:10:28Z</time>
      </trkpt>
      <trkpt lat="45.27522" lon="5.81319">
        <ele>1377.8</ele>
        <time>2011-05-02T13:10:29Z</time>
      </trkpt>
      <trkpt lat="45.27518" lon="5.81315">
        <ele>1377.6</ele>
        <time>2011-05-02T13:10:30Z</time>
      </trkpt>
      <trkpt lat="45.27514" lon="5.8131">
        <ele>1377.5</ele>
        <time>2011-05-02T13:10:31Z</time>
      </trkpt>
      <trkpt lat="45.27511" lon="5.81305">
        <ele>1377.5</ele>
        <time>2011-05-02T13:10:32Z</time>
      </trkpt>
      <trkpt lat="45.27508" lon="5.813">
        <ele>1377.1</ele>
        <time>2011-05-02T13:10:33Z</time>
      </trkpt>
      <trkpt lat="45.27505" lon="5.81295">
        <ele>1376.8</ele>
        <time>2011-05-02T13:10:34Z</time>
      </trkpt>
      <trkpt lat="45.27502" lon="5.8129">
        <ele>1376.6</ele>
        <time>2011-05-02T13:10:35Z</time>
      </trkpt>
      <trkpt lat="45.27498" lon="5.81285">
        <ele>1376.8</ele>
        <time>2011-05-02T13:10:36Z</time>
      </trkpt>
      <trkpt lat="45.27495" lon="5.81281">
        <ele>1377</ele>
        <time>2011-05-02T13:10:37Z</time>
      </trkpt>
      <trkpt lat="45.27491" lon="5.81276">
        <ele>1377.1</ele>
        <time>2011-05-02T13:10:38Z</time>
      </trkpt>
      <trkpt lat="45.27488" lon="5.81271">
        <ele>1377.2</ele>
        <time>2011-05-02T13:10:39Z</time>
      </trkpt>
      <trkpt lat="45.27484" lon="5.81266">
        <ele>1376.2</ele>
        <time>2011-05-02T13:10:40Z</time>
      </trkpt>
      <trkpt lat="45.2748" lon="5.81261">
        <ele>1375.5</ele>
        <time>2011-05-02T13:10:41Z</time>
      </trkpt>
      <trkpt lat="45.27477" lon="5.81256">
        <ele>1375</ele>
        <time>2011-05-02T13:10:42Z</time>
      </trkpt>
      <trkpt lat="45.27473" lon="5.81252">
        <ele>1374.7</ele>
        <time>2011-05-02T13:10:43Z</time>
      </trkpt>
      <trkpt lat="45.27469" lon="5.81247">
        <ele>1374.5</ele>
        <time>2011-05-02T13:10:44Z</time>
      </trkpt>
      <trkpt lat="45.27466" lon="5.81242">
        <ele>1374.4</ele>
        <time>2011-05-02T13:10:45Z</time>
      </trkpt>
      <trkpt lat="45.27462" lon="5.81237">
        <ele>1373.7</ele>
        <time>2011-05-02T13:10:46Z</time>
      </trkpt>
      <trkpt lat="45.27459" lon="5.81231">
        <ele>1373.1</ele>
        <time>2011-05-02T13:10:47Z</time>
      </trkpt>
      <trkpt lat="45.27457" lon="5.81224">
        <ele>1372.7</ele>
        <time>2011-05-02T13:10:48Z</time>
      </trkpt>
      <trkpt lat="45.27455" lon="5.81217">
        <ele>1372.6</ele>
        <time>2011-05-02T13:10:49Z</time>
      </trkpt>
      <trkpt lat="45.27455" lon="5.81205">
        <ele>1372.4</ele>
        <time>2011-05-02T13:10:51Z</time>
      </trkpt>
      <trkpt lat="45.27459" lon="5.81196">
        <ele>1369.6</ele>
        <time>2011-05-02T13:11:21Z</time>
      </trkpt>
      <trkpt lat="45.2746" lon="5.81194">
        <ele>1369.8</ele>
        <time>2011-05-02T13:11:22Z</time>
      </trkpt>
      <trkpt lat="45.27465" lon="5.81181">
        <ele>1370.6</ele>
        <time>2011-05-02T13:11:26Z</time>
      </trkpt>
      <trkpt lat="45.27468" lon="5.81172">
        <ele>1370</ele>
        <time>2011-05-02T13:11:28Z</time>
      </trkpt>
      <trkpt lat="45.27469" lon="5.81161">
        <ele>1369.7</ele>
        <time>2011-05-02T13:11:30Z</time>
      </trkpt>
      <trkpt lat="45.27469" lon="5.81149">
        <ele>1369.5</ele>
        <time>2011-05-02T13:11:32Z</time>
      </trkpt>
      <trkpt lat="45.27469" lon="5.81142">
        <ele>1369.4</ele>
        <time>2011-05-02T13:11:33Z</time>
      </trkpt>
      <trkpt lat="45.2747" lon="5.81136">
        <ele>1369.3</ele>
        <time>2011-05-02T13:11:34Z</time>
      </trkpt>
      <trkpt lat="45.27471" lon="5.81128">
        <ele>1369.1</ele>
        <time>2011-05-02T13:11:35Z</time>
      </trkpt>
      <trkpt lat="45.27472" lon="5.81121">
        <ele>1369.1</ele>
        <time>2011-05-02T13:11:36Z</time>
      </trkpt>
      <trkpt lat="45.27474" lon="5.81113">
        <ele>1368.5</ele>
        <time>2011-05-02T13:11:37Z</time>
      </trkpt>
      <trkpt lat="45.27474" lon="5.81105">
        <ele>1368</ele>
        <time>2011-05-02T13:11:38Z</time>
      </trkpt>
      <trkpt lat="45.27474" lon="5.81096">
        <ele>1367.7</ele>
        <time>2011-05-02T13:11:39Z</time>
      </trkpt>
      <trkpt lat="45.27473" lon="5.81088">
        <ele>1367.4</ele>
        <time>2011-05-02T13:11:40Z</time>
      </trkpt>
      <trkpt lat="45.27472" lon="5.8108">
        <ele>1367.2</ele>
        <time>2011-05-02T13:11:41Z</time>
      </trkpt>
      <trkpt lat="45.27469" lon="5.81073">
        <ele>1367</ele>
        <time>2011-05-02T13:11:42Z</time>
      </trkpt>
      <trkpt lat="45.27467" lon="5.81067">
        <ele>1366.1</ele>
        <time>2011-05-02T13:11:43Z</time>
      </trkpt>
      <trkpt lat="45.27466" lon="5.8106">
        <ele>1365.5</ele>
        <time>2011-05-02T13:11:44Z</time>
      </trkpt>
      <trkpt lat="45.27463" lon="5.81049">
        <ele>1364.7</ele>
        <time>2011-05-02T13:11:46Z</time>
      </trkpt>
      <trkpt lat="45.2746" lon="5.81038">
        <ele>1364.4</ele>
        <time>2011-05-02T13:11:48Z</time>
      </trkpt>
      <trkpt lat="45.27456" lon="5.81027">
        <ele>1363.7</ele>
        <time>2011-05-02T13:11:50Z</time>
      </trkpt>
      <trkpt lat="45.27454" lon="5.81022">
        <ele>1363.4</ele>
        <time>2011-05-02T13:11:51Z</time>
      </trkpt>
      <trkpt lat="45.27452" lon="5.81016">
        <ele>1363.3</ele>
        <time>2011-05-02T13:11:52Z</time>
      </trkpt>
      <trkpt lat="45.2745" lon="5.8101">
        <ele>1363</ele>
        <time>2011-05-02T13:11:53Z</time>
      </trkpt>
      <trkpt lat="45.27448" lon="5.81003">
        <ele>1362.8</ele>
        <time>2011-05-02T13:11:54Z</time>
      </trkpt>
      <trkpt lat="45.27445" lon="5.80997">
        <ele>1362.7</ele>
        <time>2011-05-02T13:11:55Z</time>
      </trkpt>
      <trkpt lat="45.27442" lon="5.8099">
        <ele>1362.1</ele>
        <time>2011-05-02T13:11:56Z</time>
      </trkpt>
      <trkpt lat="45.27438" lon="5.80984">
        <ele>1361.7</ele>
        <time>2011-05-02T13:11:57Z</time>
      </trkpt>
      <trkpt lat="45.27434" lon="5.80977">
        <ele>1361.4</ele>
        <time>2011-05-02T13:11:58Z</time>
      </trkpt>
      <trkpt lat="45.27429" lon="5.80971">
        <ele>1361.2</ele>
        <time>2011-05-02T13:11:59Z</time>
      </trkpt>
      <trkpt lat="45.27424" lon="5.80966">
        <ele>1361.1</ele>
        <time>2011-05-02T13:12:00Z</time>
      </trkpt>
      <trkpt lat="45.27419" lon="5.8096">
        <ele>1361</ele>
        <time>2011-05-02T13:12:01Z</time>
      </trkpt>
      <trkpt lat="45.27413" lon="5.80955">
        <ele>1359.9</ele>
        <time>2011-05-02T13:12:02Z</time>
      </trkpt>
      <trkpt lat="45.27407" lon="5.8095">
        <ele>1359</ele>
        <time>2011-05-02T13:12:03Z</time>
      </trkpt>
      <trkpt lat="45.27401" lon="5.80946">
        <ele>1358.4</ele>
        <time>2011-05-02T13:12:04Z</time>
      </trkpt>
      <trkpt lat="45.27394" lon="5.80944">
        <ele>1357.8</ele>
        <time>2011-05-02T13:12:05Z</time>
      </trkpt>
      <trkpt lat="45.27387" lon="5.80945">
        <ele>1357.4</ele>
        <time>2011-05-02T13:12:06Z</time>
      </trkpt>
      <trkpt lat="45.27382" lon="5.80947">
        <ele>1357.1</ele>
        <time>2011-05-02T13:12:07Z</time>
      </trkpt>
      <trkpt lat="45.27376" lon="5.80953">
        <ele>1356.6</ele>
        <time>2011-05-02T13:12:09Z</time>
      </trkpt>
      <trkpt lat="45.27369" lon="5.80959">
        <ele>1356.4</ele>
        <time>2011-05-02T13:12:13Z</time>
      </trkpt>
      <trkpt lat="45.27366" lon="5.80967">
        <ele>1356.1</ele>
        <time>2011-05-02T13:12:16Z</time>
      </trkpt>
      <trkpt lat="45.27364" lon="5.80975">
        <ele>1355.3</ele>
        <time>2011-05-02T13:12:18Z</time>
      </trkpt>
      <trkpt lat="45.27359" lon="5.80985">
        <ele>1352</ele>
        <time>2011-05-02T13:12:28Z</time>
      </trkpt>
      <trkpt lat="45.27358" lon="5.80986">
        <ele>1352.3</ele>
        <time>2011-05-02T13:12:29Z</time>
      </trkpt>
      <trkpt lat="45.27342" lon="5.8099">
        <ele>1352.8</ele>
        <time>2011-05-02T13:12:43Z</time>
      </trkpt>
      <trkpt lat="45.27334" lon="5.80986">
        <ele>1353.8</ele>
        <time>2011-05-02T13:12:48Z</time>
      </trkpt>
      <trkpt lat="45.27327" lon="5.80981">
        <ele>1354.9</ele>
        <time>2011-05-02T13:12:53Z</time>
      </trkpt>
      <trkpt lat="45.27319" lon="5.80975">
        <ele>1355.5</ele>
        <time>2011-05-02T13:13:00Z</time>
      </trkpt>
      <trkpt lat="45.27314" lon="5.80964">
        <ele>1354</ele>
        <time>2011-05-02T13:13:20Z</time>
      </trkpt>
      <trkpt lat="45.27307" lon="5.80956">
        <ele>1355.6</ele>
        <time>2011-05-02T13:13:25Z</time>
      </trkpt>
      <trkpt lat="45.27301" lon="5.80949">
        <ele>1355.6</ele>
        <time>2011-05-02T13:13:29Z</time>
      </trkpt>
      <trkpt lat="45.27296" lon="5.80943">
        <ele>1355</ele>
        <time>2011-05-02T13:13:32Z</time>
      </trkpt>
      <trkpt lat="45.27293" lon="5.80941">
        <ele>1354.9</ele>
        <time>2011-05-02T13:13:33Z</time>
      </trkpt>
      <trkpt lat="45.27283" lon="5.80933">
        <ele>1356.9</ele>
        <time>2011-05-02T13:13:38Z</time>
      </trkpt>
      <trkpt lat="45.27275" lon="5.80929">
        <ele>1358.2</ele>
        <time>2011-05-02T13:13:42Z</time>
      </trkpt>
      <trkpt lat="45.27266" lon="5.80926">
        <ele>1359.4</ele>
        <time>2011-05-02T13:13:46Z</time>
      </trkpt>
      <trkpt lat="45.27258" lon="5.80923">
        <ele>1361</ele>
        <time>2011-05-02T13:13:50Z</time>
      </trkpt>
      <trkpt lat="45.27249" lon="5.8092">
        <ele>1361.5</ele>
        <time>2011-05-02T13:13:54Z</time>
      </trkpt>
      <trkpt lat="45.27243" lon="5.80916">
        <ele>1361.8</ele>
        <time>2011-05-02T13:13:57Z</time>
      </trkpt>
      <trkpt lat="45.27235" lon="5.80915">
        <ele>1362.2</ele>
        <time>2011-05-02T13:14:00Z</time>
      </trkpt>
      <trkpt lat="45.27228" lon="5.80913">
        <ele>1363</ele>
        <time>2011-05-02T13:14:03Z</time>
      </trkpt>
      <trkpt lat="45.2722" lon="5.80913">
        <ele>1363.7</ele>
        <time>2011-05-02T13:14:06Z</time>
      </trkpt>
      <trkpt lat="45.27212" lon="5.80916">
        <ele>1363.8</ele>
        <time>2011-05-02T13:14:09Z</time>
      </trkpt>
      <trkpt lat="45.27204" lon="5.80919">
        <ele>1363.8</ele>
        <time>2011-05-02T13:14:12Z</time>
      </trkpt>
      <trkpt lat="45.27198" lon="5.80921">
        <ele>1363.9</ele>
        <time>2011-05-02T13:14:14Z</time>
      </trkpt>
      <trkpt lat="45.27192" lon="5.80922">
        <ele>1364</ele>
        <time>2011-05-02T13:14:16Z</time>
      </trkpt>
      <trkpt lat="45.27186" lon="5.8092">
        <ele>1364.1</ele>
        <time>2011-05-02T13:14:18Z</time>
      </trkpt>
      <trkpt lat="45.27178" lon="5.80919">
        <ele>1364</ele>
        <time>2011-05-02T13:14:20Z</time>
      </trkpt>
      <trkpt lat="45.27174" lon="5.80917">
        <ele>1364</ele>
        <time>2011-05-02T13:14:21Z</time>
      </trkpt>
      <trkpt lat="45.27166" lon="5.80912">
        <ele>1364.5</ele>
        <time>2011-05-02T13:14:23Z</time>
      </trkpt>
      <trkpt lat="45.2716" lon="5.80908">
        <ele>1364.3</ele>
        <time>2011-05-02T13:14:25Z</time>
      </trkpt>
      <trkpt lat="45.27153" lon="5.80904">
        <ele>1363.8</ele>
        <time>2011-05-02T13:14:27Z</time>
      </trkpt>
      <trkpt lat="45.27146" lon="5.80899">
        <ele>1363.1</ele>
        <time>2011-05-02T13:14:29Z</time>
      </trkpt>
      <trkpt lat="45.27138" lon="5.80894">
        <ele>1362.2</ele>
        <time>2011-05-02T13:14:31Z</time>
      </trkpt>
      <trkpt lat="45.27134" lon="5.80892">
        <ele>1361.7</ele>
        <time>2011-05-02T13:14:32Z</time>
      </trkpt>
      <trkpt lat="45.27129" lon="5.80889">
        <ele>1361.4</ele>
        <time>2011-05-02T13:14:33Z</time>
      </trkpt>
      <trkpt lat="45.27124" lon="5.80886">
        <ele>1361.2</ele>
        <time>2011-05-02T13:14:34Z</time>
      </trkpt>
      <trkpt lat="45.27119" lon="5.80882">
        <ele>1361.1</ele>
        <time>2011-05-02T13:14:35Z</time>
      </trkpt>
      <trkpt lat="45.27114" lon="5.80878">
        <ele>1361</ele>
        <time>2011-05-02T13:14:36Z</time>
      </trkpt>
      <trkpt lat="45.27109" lon="5.80874">
        <ele>1360.9</ele>
        <time>2011-05-02T13:14:37Z</time>
      </trkpt>
      <trkpt lat="45.27104" lon="5.80869">
        <ele>1360</ele>
        <time>2011-05-02T13:14:38Z</time>
      </trkpt>
      <trkpt lat="45.27098" lon="5.80864">
        <ele>1359.3</ele>
        <time>2011-05-02T13:14:39Z</time>
      </trkpt>
      <trkpt lat="45.27093" lon="5.80858">
        <ele>1358.8</ele>
        <time>2011-05-02T13:14:40Z</time>
      </trkpt>
      <trkpt lat="45.27088" lon="5.80852">
        <ele>1357.9</ele>
        <time>2011-05-02T13:14:41Z</time>
      </trkpt>
      <trkpt lat="45.27082" lon="5.80845">
        <ele>1357.2</ele>
        <time>2011-05-02T13:14:42Z</time>
      </trkpt>
      <trkpt lat="45.27076" lon="5.80838">
        <ele>1356.7</ele>
        <time>2011-05-02T13:14:43Z</time>
      </trkpt>
      <trkpt lat="45.27071" lon="5.80832">
        <ele>1355.9</ele>
        <time>2011-05-02T13:14:44Z</time>
      </trkpt>
      <trkpt lat="45.27064" lon="5.80825">
        <ele>1355.3</ele>
        <time>2011-05-02T13:14:45Z</time>
      </trkpt>
      <trkpt lat="45.27058" lon="5.80818">
        <ele>1354.8</ele>
        <time>2011-05-02T13:14:46Z</time>
      </trkpt>
      <trkpt lat="45.27053" lon="5.80811">
        <ele>1354.2</ele>
        <time>2011-05-02T13:14:47Z</time>
      </trkpt>
      <trkpt lat="45.27047" lon="5.80806">
        <ele>1353.7</ele>
        <time>2011-05-02T13:14:48Z</time>
      </trkpt>
      <trkpt lat="45.27041" lon="5.808">
        <ele>1353.3</ele>
        <time>2011-05-02T13:14:49Z</time>
      </trkpt>
      <trkpt lat="45.27035" lon="5.80794">
        <ele>1352.4</ele>
        <time>2011-05-02T13:14:50Z</time>
      </trkpt>
      <trkpt lat="45.27029" lon="5.80789">
        <ele>1351.7</ele>
        <time>2011-05-02T13:14:51Z</time>
      </trkpt>
      <trkpt lat="45.27023" lon="5.80784">
        <ele>1351.2</ele>
        <time>2011-05-02T13:14:52Z</time>
      </trkpt>
      <trkpt lat="45.27017" lon="5.80777">
        <ele>1350.8</ele>
        <time>2011-05-02T13:14:53Z</time>
      </trkpt>
      <trkpt lat="45.27011" lon="5.8077">
        <ele>1350.5</ele>
        <time>2011-05-02T13:14:54Z</time>
      </trkpt>
      <trkpt lat="45.27005" lon="5.80764">
        <ele>1350.3</ele>
        <time>2011-05-02T13:14:55Z</time>
      </trkpt>
      <trkpt lat="45.26999" lon="5.80757">
        <ele>1350.2</ele>
        <time>2011-05-02T13:14:56Z</time>
      </trkpt>
      <trkpt lat="45.26994" lon="5.80749">
        <ele>1349</ele>
        <time>2011-05-02T13:14:57Z</time>
      </trkpt>
      <trkpt lat="45.26987" lon="5.80741">
        <ele>1348.2</ele>
        <time>2011-05-02T13:14:58Z</time>
      </trkpt>
      <trkpt lat="45.26981" lon="5.80732">
        <ele>1347.6</ele>
        <time>2011-05-02T13:14:59Z</time>
      </trkpt>
      <trkpt lat="45.26975" lon="5.80723">
        <ele>1346.7</ele>
        <time>2011-05-02T13:15:00Z</time>
      </trkpt>
      <trkpt lat="45.26969" lon="5.80714">
        <ele>1346.1</ele>
        <time>2011-05-02T13:15:01Z</time>
      </trkpt>
      <trkpt lat="45.26962" lon="5.80705">
        <ele>1345.6</ele>
        <time>2011-05-02T13:15:02Z</time>
      </trkpt>
      <trkpt lat="45.26956" lon="5.80695">
        <ele>1344.2</ele>
        <time>2011-05-02T13:15:03Z</time>
      </trkpt>
      <trkpt lat="45.2695" lon="5.80686">
        <ele>1343.2</ele>
        <time>2011-05-02T13:15:04Z</time>
      </trkpt>
      <trkpt lat="45.26943" lon="5.80676">
        <ele>1342.4</ele>
        <time>2011-05-02T13:15:05Z</time>
      </trkpt>
      <trkpt lat="45.26937" lon="5.80666">
        <ele>1341.8</ele>
        <time>2011-05-02T13:15:06Z</time>
      </trkpt>
      <trkpt lat="45.26931" lon="5.80655">
        <ele>1341.3</ele>
        <time>2011-05-02T13:15:07Z</time>
      </trkpt>
      <trkpt lat="45.26925" lon="5.80644">
        <ele>1341</ele>
        <time>2011-05-02T13:15:08Z</time>
      </trkpt>
      <trkpt lat="45.26919" lon="5.80633">
        <ele>1339.9</ele>
        <time>2011-05-02T13:15:09Z</time>
      </trkpt>
      <trkpt lat="45.26912" lon="5.80622">
        <ele>1339</ele>
        <time>2011-05-02T13:15:10Z</time>
      </trkpt>
      <trkpt lat="45.26905" lon="5.80612">
        <ele>1338.4</ele>
        <time>2011-05-02T13:15:11Z</time>
      </trkpt>
      <trkpt lat="45.26897" lon="5.80602">
        <ele>1337.9</ele>
        <time>2011-05-02T13:15:12Z</time>
      </trkpt>
      <trkpt lat="45.26889" lon="5.80593">
        <ele>1336.8</ele>
        <time>2011-05-02T13:15:13Z</time>
      </trkpt>
      <trkpt lat="45.26881" lon="5.80584">
        <ele>1336</ele>
        <time>2011-05-02T13:15:14Z</time>
      </trkpt>
      <trkpt lat="45.26873" lon="5.80575">
        <ele>1335.3</ele>
        <time>2011-05-02T13:15:15Z</time>
      </trkpt>
      <trkpt lat="45.26864" lon="5.80567">
        <ele>1334.3</ele>
        <time>2011-05-02T13:15:16Z</time>
      </trkpt>
      <trkpt lat="45.26856" lon="5.8056">
        <ele>1333.5</ele>
        <time>2011-05-02T13:15:17Z</time>
      </trkpt>
      <trkpt lat="45.26848" lon="5.80551">
        <ele>1332.8</ele>
        <time>2011-05-02T13:15:18Z</time>
      </trkpt>
      <trkpt lat="45.2684" lon="5.80543">
        <ele>1332</ele>
        <time>2011-05-02T13:15:19Z</time>
      </trkpt>
      <trkpt lat="45.26832" lon="5.80534">
        <ele>1331.3</ele>
        <time>2011-05-02T13:15:20Z</time>
      </trkpt>
      <trkpt lat="45.26825" lon="5.80526">
        <ele>1330.8</ele>
        <time>2011-05-02T13:15:21Z</time>
      </trkpt>
      <trkpt lat="45.26817" lon="5.80517">
        <ele>1329</ele>
        <time>2011-05-02T13:15:22Z</time>
      </trkpt>
      <trkpt lat="45.26809" lon="5.80508">
        <ele>1327.6</ele>
        <time>2011-05-02T13:15:23Z</time>
      </trkpt>
      <trkpt lat="45.26801" lon="5.80498">
        <ele>1326.6</ele>
        <time>2011-05-02T13:15:24Z</time>
      </trkpt>
      <trkpt lat="45.26794" lon="5.80487">
        <ele>1325.8</ele>
        <time>2011-05-02T13:15:25Z</time>
      </trkpt>
      <trkpt lat="45.26786" lon="5.80476">
        <ele>1325.2</ele>
        <time>2011-05-02T13:15:26Z</time>
      </trkpt>
      <trkpt lat="45.26778" lon="5.80466">
        <ele>1324.7</ele>
        <time>2011-05-02T13:15:27Z</time>
      </trkpt>
      <trkpt lat="45.2677" lon="5.80455">
        <ele>1323.1</ele>
        <time>2011-05-02T13:15:28Z</time>
      </trkpt>
      <trkpt lat="45.26763" lon="5.80445">
        <ele>1321.9</ele>
        <time>2011-05-02T13:15:29Z</time>
      </trkpt>
      <trkpt lat="45.26755" lon="5.80434">
        <ele>1321</ele>
        <time>2011-05-02T13:15:30Z</time>
      </trkpt>
      <trkpt lat="45.26747" lon="5.80424">
        <ele>1320.3</ele>
        <time>2011-05-02T13:15:31Z</time>
      </trkpt>
      <trkpt lat="45.26739" lon="5.80413">
        <ele>1319.6</ele>
        <time>2011-05-02T13:15:32Z</time>
      </trkpt>
      <trkpt lat="45.26731" lon="5.80402">
        <ele>1319.1</ele>
        <time>2011-05-02T13:15:33Z</time>
      </trkpt>
      <trkpt lat="45.26722" lon="5.80392">
        <ele>1318.8</ele>
        <time>2011-05-02T13:15:34Z</time>
      </trkpt>
      <trkpt lat="45.26714" lon="5.80382">
        <ele>1317.3</ele>
        <time>2011-05-02T13:15:35Z</time>
      </trkpt>
      <trkpt lat="45.26705" lon="5.80372">
        <ele>1316.2</ele>
        <time>2011-05-02T13:15:36Z</time>
      </trkpt>
      <trkpt lat="45.26696" lon="5.80361">
        <ele>1315.3</ele>
        <time>2011-05-02T13:15:37Z</time>
      </trkpt>
      <trkpt lat="45.26688" lon="5.80351">
        <ele>1314</ele>
        <time>2011-05-02T13:15:38Z</time>
      </trkpt>
      <trkpt lat="45.26679" lon="5.8034">
        <ele>1312.9</ele>
        <time>2011-05-02T13:15:39Z</time>
      </trkpt>
      <trkpt lat="45.2667" lon="5.80329">
        <ele>1312.2</ele>
        <time>2011-05-02T13:15:40Z</time>
      </trkpt>
      <trkpt lat="45.26661" lon="5.80319">
        <ele>1310.7</ele>
        <time>2011-05-02T13:15:41Z</time>
      </trkpt>
      <trkpt lat="45.26652" lon="5.80308">
        <ele>1309.5</ele>
        <time>2011-05-02T13:15:42Z</time>
      </trkpt>
      <trkpt lat="45.26642" lon="5.80298">
        <ele>1308.7</ele>
        <time>2011-05-02T13:15:43Z</time>
      </trkpt>
      <trkpt lat="45.26634" lon="5.80287">
        <ele>1307.2</ele>
        <time>2011-05-02T13:15:44Z</time>
      </trkpt>
      <trkpt lat="45.26625" lon="5.80276">
        <ele>1306.2</ele>
        <time>2011-05-02T13:15:45Z</time>
      </trkpt>
      <trkpt lat="45.26616" lon="5.80265">
        <ele>1305.4</ele>
        <time>2011-05-02T13:15:46Z</time>
      </trkpt>
      <trkpt lat="45.26608" lon="5.80253">
        <ele>1303.8</ele>
        <time>2011-05-02T13:15:47Z</time>
      </trkpt>
      <trkpt lat="45.26599" lon="5.80242">
        <ele>1302.6</ele>
        <time>2011-05-02T13:15:48Z</time>
      </trkpt>
      <trkpt lat="45.2659" lon="5.80231">
        <ele>1301.7</ele>
        <time>2011-05-02T13:15:49Z</time>
      </trkpt>
      <trkpt lat="45.2658" lon="5.80221">
        <ele>1301</ele>
        <time>2011-05-02T13:15:50Z</time>
      </trkpt>
      <trkpt lat="45.26571" lon="5.8021">
        <ele>1299.6</ele>
        <time>2011-05-02T13:15:51Z</time>
      </trkpt>
      <trkpt lat="45.26562" lon="5.80199">
        <ele>1298.6</ele>
        <time>2011-05-02T13:15:52Z</time>
      </trkpt>
      <trkpt lat="45.26554" lon="5.80187">
        <ele>1297.8</ele>
        <time>2011-05-02T13:15:53Z</time>
      </trkpt>
      <trkpt lat="45.26545" lon="5.80176">
        <ele>1297.1</ele>
        <time>2011-05-02T13:15:54Z</time>
      </trkpt>
      <trkpt lat="45.26537" lon="5.80164">
        <ele>1296.5</ele>
        <time>2011-05-02T13:15:55Z</time>
      </trkpt>
      <trkpt lat="45.26529" lon="5.80152">
        <ele>1296.1</ele>
        <time>2011-05-02T13:15:56Z</time>
      </trkpt>
      <trkpt lat="45.26521" lon="5.8014">
        <ele>1294.3</ele>
        <time>2011-05-02T13:15:57Z</time>
      </trkpt>
      <trkpt lat="45.26513" lon="5.80128">
        <ele>1293</ele>
        <time>2011-05-02T13:15:58Z</time>
      </trkpt>
      <trkpt lat="45.26504" lon="5.80117">
        <ele>1292</ele>
        <time>2011-05-02T13:15:59Z</time>
      </trkpt>
      <trkpt lat="45.26495" lon="5.80107">
        <ele>1290.6</ele>
        <time>2011-05-02T13:16:00Z</time>
      </trkpt>
      <trkpt lat="45.26486" lon="5.80097">
        <ele>1289.6</ele>
        <time>2011-05-02T13:16:01Z</time>
      </trkpt>
      <trkpt lat="45.26477" lon="5.80086">
        <ele>1288.8</ele>
        <time>2011-05-02T13:16:02Z</time>
      </trkpt>
      <trkpt lat="45.26468" lon="5.80077">
        <ele>1287.8</ele>
        <time>2011-05-02T13:16:03Z</time>
      </trkpt>
      <trkpt lat="45.26459" lon="5.80069">
        <ele>1287</ele>
        <time>2011-05-02T13:16:04Z</time>
      </trkpt>
      <trkpt lat="45.2645" lon="5.80062">
        <ele>1286.4</ele>
        <time>2011-05-02T13:16:05Z</time>
      </trkpt>
      <trkpt lat="45.26442" lon="5.80053">
        <ele>1286</ele>
        <time>2011-05-02T13:16:06Z</time>
      </trkpt>
      <trkpt lat="45.26433" lon="5.80045">
        <ele>1285.1</ele>
        <time>2011-05-02T13:16:07Z</time>
      </trkpt>
      <trkpt lat="45.26425" lon="5.80036">
        <ele>1284.4</ele>
        <time>2011-05-02T13:16:08Z</time>
      </trkpt>
      <trkpt lat="45.26417" lon="5.80028">
        <ele>1283.8</ele>
        <time>2011-05-02T13:16:09Z</time>
      </trkpt>
      <trkpt lat="45.26409" lon="5.8002">
        <ele>1282.4</ele>
        <time>2011-05-02T13:16:10Z</time>
      </trkpt>
      <trkpt lat="45.26401" lon="5.80012">
        <ele>1281.4</ele>
        <time>2011-05-02T13:16:11Z</time>
      </trkpt>
      <trkpt lat="45.26393" lon="5.80004">
        <ele>1280.6</ele>
        <time>2011-05-02T13:16:12Z</time>
      </trkpt>
      <trkpt lat="45.26385" lon="5.79996">
        <ele>1279.6</ele>
        <time>2011-05-02T13:16:13Z</time>
      </trkpt>
      <trkpt lat="45.26376" lon="5.79987">
        <ele>1278.8</ele>
        <time>2011-05-02T13:16:14Z</time>
      </trkpt>
      <trkpt lat="45.26368" lon="5.79978">
        <ele>1278.2</ele>
        <time>2011-05-02T13:16:15Z</time>
      </trkpt>
      <trkpt lat="45.26359" lon="5.79968">
        <ele>1277</ele>
        <time>2011-05-02T13:16:16Z</time>
      </trkpt>
      <trkpt lat="45.26351" lon="5.79958">
        <ele>1276</ele>
        <time>2011-05-02T13:16:17Z</time>
      </trkpt>
      <trkpt lat="45.26343" lon="5.79948">
        <ele>1275.3</ele>
        <time>2011-05-02T13:16:18Z</time>
      </trkpt>
      <trkpt lat="45.26336" lon="5.79938">
        <ele>1273.6</ele>
        <time>2011-05-02T13:16:19Z</time>
      </trkpt>
      <trkpt lat="45.2633" lon="5.79927">
        <ele>1272.3</ele>
        <time>2011-05-02T13:16:20Z</time>
      </trkpt>
      <trkpt lat="45.26322" lon="5.79916">
        <ele>1271.4</ele>
        <time>2011-05-02T13:16:21Z</time>
      </trkpt>
      <trkpt lat="45.26315" lon="5.79904">
        <ele>1270.2</ele>
        <time>2011-05-02T13:16:22Z</time>
      </trkpt>
      <trkpt lat="45.26309" lon="5.79893">
        <ele>1269.3</ele>
        <time>2011-05-02T13:16:23Z</time>
      </trkpt>
      <trkpt lat="45.26303" lon="5.79882">
        <ele>1268.6</ele>
        <time>2011-05-02T13:16:24Z</time>
      </trkpt>
      <trkpt lat="45.26297" lon="5.79872">
        <ele>1268.1</ele>
        <time>2011-05-02T13:16:25Z</time>
      </trkpt>
      <trkpt lat="45.2629" lon="5.79865">
        <ele>1267.5</ele>
        <time>2011-05-02T13:16:26Z</time>
      </trkpt>
      <trkpt lat="45.26281" lon="5.79859">
        <ele>1267</ele>
        <time>2011-05-02T13:16:27Z</time>
      </trkpt>
      <trkpt lat="45.26272" lon="5.79854">
        <ele>1266.6</ele>
        <time>2011-05-02T13:16:28Z</time>
      </trkpt>
      <trkpt lat="45.26264" lon="5.79848">
        <ele>1265.2</ele>
        <time>2011-05-02T13:16:29Z</time>
      </trkpt>
      <trkpt lat="45.26255" lon="5.79841">
        <ele>1264.1</ele>
        <time>2011-05-02T13:16:30Z</time>
      </trkpt>
      <trkpt lat="45.26247" lon="5.79833">
        <ele>1263.3</ele>
        <time>2011-05-02T13:16:31Z</time>
      </trkpt>
      <trkpt lat="45.2624" lon="5.79824">
        <ele>1262.4</ele>
        <time>2011-05-02T13:16:32Z</time>
      </trkpt>
      <trkpt lat="45.26233" lon="5.79814">
        <ele>1261.8</ele>
        <time>2011-05-02T13:16:33Z</time>
      </trkpt>
      <trkpt lat="45.26228" lon="5.79802">
        <ele>1261.3</ele>
        <time>2011-05-02T13:16:34Z</time>
      </trkpt>
      <trkpt lat="45.26222" lon="5.79792">
        <ele>1260.4</ele>
        <time>2011-05-02T13:16:35Z</time>
      </trkpt>
      <trkpt lat="45.26216" lon="5.79783">
        <ele>1259.8</ele>
        <time>2011-05-02T13:16:36Z</time>
      </trkpt>
      <trkpt lat="45.26211" lon="5.79774">
        <ele>1259.3</ele>
        <time>2011-05-02T13:16:37Z</time>
      </trkpt>
      <trkpt lat="45.26206" lon="5.79766">
        <ele>1258</ele>
        <time>2011-05-02T13:16:38Z</time>
      </trkpt>
      <trkpt lat="45.26203" lon="5.79759">
        <ele>1257</ele>
        <time>2011-05-02T13:16:39Z</time>
      </trkpt>
      <trkpt lat="45.26201" lon="5.79747">
        <ele>1255.5</ele>
        <time>2011-05-02T13:16:41Z</time>
      </trkpt>
      <trkpt lat="45.26209" lon="5.79745">
        <ele>1253.7</ele>
        <time>2011-05-02T13:17:13Z</time>
      </trkpt>
      <trkpt lat="45.26216" lon="5.79753">
        <ele>1253.7</ele>
        <time>2011-05-02T13:17:16Z</time>
      </trkpt>
      <trkpt lat="45.26219" lon="5.79758">
        <ele>1253.3</ele>
        <time>2011-05-02T13:17:17Z</time>
      </trkpt>
      <trkpt lat="45.26222" lon="5.79763">
        <ele>1253.1</ele>
        <time>2011-05-02T13:17:18Z</time>
      </trkpt>
      <trkpt lat="45.26226" lon="5.79768">
        <ele>1252</ele>
        <time>2011-05-02T13:17:19Z</time>
      </trkpt>
      <trkpt lat="45.2623" lon="5.79773">
        <ele>1251.2</ele>
        <time>2011-05-02T13:17:20Z</time>
      </trkpt>
      <trkpt lat="45.26234" lon="5.79778">
        <ele>1250.6</ele>
        <time>2011-05-02T13:17:21Z</time>
      </trkpt>
      <trkpt lat="45.26238" lon="5.79783">
        <ele>1250.2</ele>
        <time>2011-05-02T13:17:22Z</time>
      </trkpt>
      <trkpt lat="45.26243" lon="5.79788">
        <ele>1250.1</ele>
        <time>2011-05-02T13:17:23Z</time>
      </trkpt>
      <trkpt lat="45.26248" lon="5.79792">
        <ele>1250.1</ele>
        <time>2011-05-02T13:17:24Z</time>
      </trkpt>
      <trkpt lat="45.26254" lon="5.79795">
        <ele>1250</ele>
        <time>2011-05-02T13:17:25Z</time>
      </trkpt>
      <trkpt lat="45.2626" lon="5.79797">
        <ele>1249.1</ele>
        <time>2011-05-02T13:17:26Z</time>
      </trkpt>
      <trkpt lat="45.26266" lon="5.79797">
        <ele>1248.5</ele>
        <time>2011-05-02T13:17:27Z</time>
      </trkpt>
      <trkpt lat="45.26273" lon="5.79797">
        <ele>1248</ele>
        <time>2011-05-02T13:17:28Z</time>
      </trkpt>
      <trkpt lat="45.26279" lon="5.79795">
        <ele>1247.3</ele>
        <time>2011-05-02T13:17:29Z</time>
      </trkpt>
      <trkpt lat="45.26285" lon="5.79794">
        <ele>1246.9</ele>
        <time>2011-05-02T13:17:30Z</time>
      </trkpt>
      <trkpt lat="45.2629" lon="5.79791">
        <ele>1246.5</ele>
        <time>2011-05-02T13:17:31Z</time>
      </trkpt>
      <trkpt lat="45.26295" lon="5.7979">
        <ele>1246.5</ele>
        <time>2011-05-02T13:17:32Z</time>
      </trkpt>
      <trkpt lat="45.26299" lon="5.79788">
        <ele>1246.5</ele>
        <time>2011-05-02T13:17:33Z</time>
      </trkpt>
      <trkpt lat="45.26305" lon="5.79786">
        <ele>1246.5</ele>
        <time>2011-05-02T13:17:34Z</time>
      </trkpt>
      <trkpt lat="45.2631" lon="5.79785">
        <ele>1246</ele>
        <time>2011-05-02T13:17:35Z</time>
      </trkpt>
      <trkpt lat="45.26318" lon="5.79787">
        <ele>1245.5</ele>
        <time>2011-05-02T13:17:40Z</time>
      </trkpt>
      <trkpt lat="45.26319" lon="5.79786">
        <ele>1245.6</ele>
        <time>2011-05-02T13:17:41Z</time>
      </trkpt>
      <trkpt lat="45.26333" lon="5.79791">
        <ele>1246.2</ele>
        <time>2011-05-02T13:18:07Z</time>
      </trkpt>
      <trkpt lat="45.26336" lon="5.79801">
        <ele>1246</ele>
        <time>2011-05-02T13:18:11Z</time>
      </trkpt>
      <trkpt lat="45.2634" lon="5.79809">
        <ele>1245.7</ele>
        <time>2011-05-02T13:18:13Z</time>
      </trkpt>
      <trkpt lat="45.26342" lon="5.79818">
        <ele>1245.3</ele>
        <time>2011-05-02T13:18:15Z</time>
      </trkpt>
      <trkpt lat="45.26344" lon="5.79824">
        <ele>1245.2</ele>
        <time>2011-05-02T13:18:16Z</time>
      </trkpt>
      <trkpt lat="45.26346" lon="5.7983">
        <ele>1244.3</ele>
        <time>2011-05-02T13:18:17Z</time>
      </trkpt>
      <trkpt lat="45.26349" lon="5.79837">
        <ele>1243.6</ele>
        <time>2011-05-02T13:18:18Z</time>
      </trkpt>
      <trkpt lat="45.26352" lon="5.79844">
        <ele>1243.1</ele>
        <time>2011-05-02T13:18:19Z</time>
      </trkpt>
      <trkpt lat="45.26356" lon="5.7985">
        <ele>1242.4</ele>
        <time>2011-05-02T13:18:20Z</time>
      </trkpt>
      <trkpt lat="45.26361" lon="5.79857">
        <ele>1241.9</ele>
        <time>2011-05-02T13:18:21Z</time>
      </trkpt>
      <trkpt lat="45.26365" lon="5.79865">
        <ele>1241.5</ele>
        <time>2011-05-02T13:18:22Z</time>
      </trkpt>
      <trkpt lat="45.26371" lon="5.79872">
        <ele>1239.9</ele>
        <time>2011-05-02T13:18:23Z</time>
      </trkpt>
      <trkpt lat="45.26378" lon="5.79878">
        <ele>1238.8</ele>
        <time>2011-05-02T13:18:24Z</time>
      </trkpt>
      <trkpt lat="45.26385" lon="5.79884">
        <ele>1237.9</ele>
        <time>2011-05-02T13:18:25Z</time>
      </trkpt>
      <trkpt lat="45.26393" lon="5.7989">
        <ele>1237</ele>
        <time>2011-05-02T13:18:26Z</time>
      </trkpt>
      <trkpt lat="45.26401" lon="5.79895">
        <ele>1236.3</ele>
        <time>2011-05-02T13:18:27Z</time>
      </trkpt>
      <trkpt lat="45.26409" lon="5.79899">
        <ele>1235.8</ele>
        <time>2011-05-02T13:18:28Z</time>
      </trkpt>
      <trkpt lat="45.26418" lon="5.79903">
        <ele>1234.5</ele>
        <time>2011-05-02T13:18:29Z</time>
      </trkpt>
      <trkpt lat="45.26427" lon="5.79907">
        <ele>1233.5</ele>
        <time>2011-05-02T13:18:30Z</time>
      </trkpt>
      <trkpt lat="45.26437" lon="5.7991">
        <ele>1232.8</ele>
        <time>2011-05-02T13:18:31Z</time>
      </trkpt>
      <trkpt lat="45.26446" lon="5.79914">
        <ele>1231.6</ele>
        <time>2011-05-02T13:18:32Z</time>
      </trkpt>
      <trkpt lat="45.26455" lon="5.79919">
        <ele>1230.7</ele>
        <time>2011-05-02T13:18:33Z</time>
      </trkpt>
      <trkpt lat="45.26464" lon="5.79924">
        <ele>1230</ele>
        <time>2011-05-02T13:18:34Z</time>
      </trkpt>
      <trkpt lat="45.26473" lon="5.79928">
        <ele>1229.5</ele>
        <time>2011-05-02T13:18:35Z</time>
      </trkpt>
      <trkpt lat="45.26483" lon="5.79932">
        <ele>1228.1</ele>
        <time>2011-05-02T13:18:36Z</time>
      </trkpt>
      <trkpt lat="45.26493" lon="5.79937">
        <ele>1227.1</ele>
        <time>2011-05-02T13:18:37Z</time>
      </trkpt>
      <trkpt lat="45.26503" lon="5.79941">
        <ele>1226.4</ele>
        <time>2011-05-02T13:18:38Z</time>
      </trkpt>
      <trkpt lat="45.26513" lon="5.79946">
        <ele>1224.7</ele>
        <time>2011-05-02T13:18:39Z</time>
      </trkpt>
      <trkpt lat="45.26522" lon="5.7995">
        <ele>1223.5</ele>
        <time>2011-05-02T13:18:40Z</time>
      </trkpt>
      <trkpt lat="45.26533" lon="5.79953">
        <ele>1222.6</ele>
        <time>2011-05-02T13:18:41Z</time>
      </trkpt>
      <trkpt lat="45.26542" lon="5.79958">
        <ele>1221.5</ele>
        <time>2011-05-02T13:18:42Z</time>
      </trkpt>
      <trkpt lat="45.26552" lon="5.79963">
        <ele>1220.6</ele>
        <time>2011-05-02T13:18:43Z</time>
      </trkpt>
      <trkpt lat="45.26561" lon="5.7997">
        <ele>1220</ele>
        <time>2011-05-02T13:18:44Z</time>
      </trkpt>
      <trkpt lat="45.26569" lon="5.79977">
        <ele>1219.7</ele>
        <time>2011-05-02T13:18:45Z</time>
      </trkpt>
      <trkpt lat="45.26578" lon="5.79984">
        <ele>1219.5</ele>
        <time>2011-05-02T13:18:46Z</time>
      </trkpt>
      <trkpt lat="45.26587" lon="5.79991">
        <ele>1219.3</ele>
        <time>2011-05-02T13:18:47Z</time>
      </trkpt>
      <trkpt lat="45.26595" lon="5.79999">
        <ele>1218.1</ele>
        <time>2011-05-02T13:18:48Z</time>
      </trkpt>
      <trkpt lat="45.26604" lon="5.80007">
        <ele>1217.3</ele>
        <time>2011-05-02T13:18:49Z</time>
      </trkpt>
      <trkpt lat="45.26612" lon="5.80015">
        <ele>1216.6</ele>
        <time>2011-05-02T13:18:50Z</time>
      </trkpt>
      <trkpt lat="45.2662" lon="5.80023">
        <ele>1216.1</ele>
        <time>2011-05-02T13:18:51Z</time>
      </trkpt>
      <trkpt lat="45.2663" lon="5.80029">
        <ele>1215.4</ele>
        <time>2011-05-02T13:18:52Z</time>
      </trkpt>
      <trkpt lat="45.26639" lon="5.80034">
        <ele>1214.8</ele>
        <time>2011-05-02T13:18:53Z</time>
      </trkpt>
      <trkpt lat="45.26648" lon="5.8004">
        <ele>1214.4</ele>
        <time>2011-05-02T13:18:54Z</time>
      </trkpt>
      <trkpt lat="45.26658" lon="5.80044">
        <ele>1212.8</ele>
        <time>2011-05-02T13:18:55Z</time>
      </trkpt>
      <trkpt lat="45.26667" lon="5.80047">
        <ele>1211.7</ele>
        <time>2011-05-02T13:18:56Z</time>
      </trkpt>
      <trkpt lat="45.26677" lon="5.8005">
        <ele>1210.8</ele>
        <time>2011-05-02T13:18:57Z</time>
      </trkpt>
      <trkpt lat="45.26687" lon="5.80053">
        <ele>1208.9</ele>
        <time>2011-05-02T13:18:58Z</time>
      </trkpt>
      <trkpt lat="45.26697" lon="5.80056">
        <ele>1207.4</ele>
        <time>2011-05-02T13:18:59Z</time>
      </trkpt>
      <trkpt lat="45.26707" lon="5.80059">
        <ele>1206.3</ele>
        <time>2011-05-02T13:19:00Z</time>
      </trkpt>
      <trkpt lat="45.26718" lon="5.80061">
        <ele>1204.7</ele>
        <time>2011-05-02T13:19:01Z</time>
      </trkpt>
      <trkpt lat="45.26728" lon="5.80062">
        <ele>1203.5</ele>
        <time>2011-05-02T13:19:02Z</time>
      </trkpt>
      <trkpt lat="45.26738" lon="5.80063">
        <ele>1202.6</ele>
        <time>2011-05-02T13:19:03Z</time>
      </trkpt>
      <trkpt lat="45.26749" lon="5.80065">
        <ele>1201</ele>
        <time>2011-05-02T13:19:04Z</time>
      </trkpt>
      <trkpt lat="45.26758" lon="5.80067">
        <ele>1199.8</ele>
        <time>2011-05-02T13:19:05Z</time>
      </trkpt>
      <trkpt lat="45.26769" lon="5.8007">
        <ele>1199</ele>
        <time>2011-05-02T13:19:06Z</time>
      </trkpt>
      <trkpt lat="45.26778" lon="5.80074">
        <ele>1197.2</ele>
        <time>2011-05-02T13:19:07Z</time>
      </trkpt>
      <trkpt lat="45.26785" lon="5.80078">
        <ele>1195.8</ele>
        <time>2011-05-02T13:19:08Z</time>
      </trkpt>
      <trkpt lat="45.26791" lon="5.80081">
        <ele>1194.8</ele>
        <time>2011-05-02T13:19:09Z</time>
      </trkpt>
      <trkpt lat="45.26796" lon="5.80083">
        <ele>1194</ele>
        <time>2011-05-02T13:19:10Z</time>
      </trkpt>
      <trkpt lat="45.268" lon="5.80085">
        <ele>1193</ele>
        <time>2011-05-02T13:19:11Z</time>
      </trkpt>
      <trkpt lat="45.26805" lon="5.80087">
        <ele>1192.3</ele>
        <time>2011-05-02T13:19:12Z</time>
      </trkpt>
      <trkpt lat="45.26813" lon="5.80088">
        <ele>1190.7</ele>
        <time>2011-05-02T13:19:14Z</time>
      </trkpt>
      <trkpt lat="45.26822" lon="5.80089">
        <ele>1188.4</ele>
        <time>2011-05-02T13:19:39Z</time>
      </trkpt>
      <trkpt lat="45.26826" lon="5.80079">
        <ele>1187.6</ele>
        <time>2011-05-02T13:20:04Z</time>
      </trkpt>
      <trkpt lat="45.26827" lon="5.80075">
        <ele>1187.6</ele>
        <time>2011-05-02T13:20:05Z</time>
      </trkpt>
      <trkpt lat="45.26832" lon="5.80066">
        <ele>1187.6</ele>
        <time>2011-05-02T13:20:07Z</time>
      </trkpt>
      <trkpt lat="45.26836" lon="5.80061">
        <ele>1187.2</ele>
        <time>2011-05-02T13:20:08Z</time>
      </trkpt>
      <trkpt lat="45.2684" lon="5.80055">
        <ele>1186.9</ele>
        <time>2011-05-02T13:20:09Z</time>
      </trkpt>
      <trkpt lat="45.26844" lon="5.80049">
        <ele>1186.7</ele>
        <time>2011-05-02T13:20:10Z</time>
      </trkpt>
      <trkpt lat="45.2685" lon="5.80043">
        <ele>1185.5</ele>
        <time>2011-05-02T13:20:11Z</time>
      </trkpt>
      <trkpt lat="45.26856" lon="5.80038">
        <ele>1184.6</ele>
        <time>2011-05-02T13:20:12Z</time>
      </trkpt>
      <trkpt lat="45.26864" lon="5.80033">
        <ele>1184</ele>
        <time>2011-05-02T13:20:13Z</time>
      </trkpt>
      <trkpt lat="45.26871" lon="5.8003">
        <ele>1183.1</ele>
        <time>2011-05-02T13:20:14Z</time>
      </trkpt>
      <trkpt lat="45.26878" lon="5.80027">
        <ele>1182.5</ele>
        <time>2011-05-02T13:20:15Z</time>
      </trkpt>
      <trkpt lat="45.26884" lon="5.80027">
        <ele>1182</ele>
        <time>2011-05-02T13:20:16Z</time>
      </trkpt>
      <trkpt lat="45.2689" lon="5.80029">
        <ele>1180.7</ele>
        <time>2011-05-02T13:20:17Z</time>
      </trkpt>
      <trkpt lat="45.26895" lon="5.80033">
        <ele>1179.7</ele>
        <time>2011-05-02T13:20:18Z</time>
      </trkpt>
      <trkpt lat="45.26899" lon="5.80038">
        <ele>1179</ele>
        <time>2011-05-02T13:20:19Z</time>
      </trkpt>
      <trkpt lat="45.26906" lon="5.80045">
        <ele>1176.9</ele>
        <time>2011-05-02T13:20:21Z</time>
      </trkpt>
      <trkpt lat="45.26912" lon="5.8004">
        <ele>1175.9</ele>
        <time>2011-05-02T13:20:24Z</time>
      </trkpt>
      <trkpt lat="45.26911" lon="5.80029">
        <ele>1174.9</ele>
        <time>2011-05-02T13:20:29Z</time>
      </trkpt>
      <trkpt lat="45.26906" lon="5.8002">
        <ele>1174.1</ele>
        <time>2011-05-02T13:20:32Z</time>
      </trkpt>
      <trkpt lat="45.26904" lon="5.80016">
        <ele>1173.9</ele>
        <time>2011-05-02T13:20:33Z</time>
      </trkpt>
      <trkpt lat="45.26901" lon="5.8001">
        <ele>1173.7</ele>
        <time>2011-05-02T13:20:34Z</time>
      </trkpt>
      <trkpt lat="45.26898" lon="5.80004">
        <ele>1173.6</ele>
        <time>2011-05-02T13:20:35Z</time>
      </trkpt>
      <trkpt lat="45.26892" lon="5.79996">
        <ele>1171.6</ele>
        <time>2011-05-02T13:20:37Z</time>
      </trkpt>
      <trkpt lat="45.26887" lon="5.79987">
        <ele>1169.6</ele>
        <time>2011-05-02T13:20:49Z</time>
      </trkpt>
      <trkpt lat="45.26881" lon="5.7998">
        <ele>1169.7</ele>
        <time>2011-05-02T13:20:51Z</time>
      </trkpt>
      <trkpt lat="45.26874" lon="5.79973">
        <ele>1168.6</ele>
        <time>2011-05-02T13:20:53Z</time>
      </trkpt>
      <trkpt lat="45.2687" lon="5.79969">
        <ele>1168.2</ele>
        <time>2011-05-02T13:20:54Z</time>
      </trkpt>
      <trkpt lat="45.26866" lon="5.79965">
        <ele>1167.9</ele>
        <time>2011-05-02T13:20:55Z</time>
      </trkpt>
      <trkpt lat="45.26862" lon="5.79961">
        <ele>1167.7</ele>
        <time>2011-05-02T13:20:56Z</time>
      </trkpt>
      <trkpt lat="45.26858" lon="5.79951">
        <ele>1166.8</ele>
        <time>2011-05-02T13:20:58Z</time>
      </trkpt>
      <trkpt lat="45.26855" lon="5.7994">
        <ele>1165.5</ele>
        <time>2011-05-02T13:21:01Z</time>
      </trkpt>
      <trkpt lat="45.26847" lon="5.79936">
        <ele>1167.1</ele>
        <time>2011-05-02T13:21:35Z</time>
      </trkpt>
      <trkpt lat="45.26845" lon="5.79935">
        <ele>1167.2</ele>
        <time>2011-05-02T13:21:36Z</time>
      </trkpt>
      <trkpt lat="45.26831" lon="5.79925">
        <ele>1162.5</ele>
        <time>2011-05-02T13:21:47Z</time>
      </trkpt>
      <trkpt lat="45.26826" lon="5.7992">
        <ele>1162.3</ele>
        <time>2011-05-02T13:21:49Z</time>
      </trkpt>
      <trkpt lat="45.2682" lon="5.79912">
        <ele>1162.2</ele>
        <time>2011-05-02T13:21:51Z</time>
      </trkpt>
      <trkpt lat="45.26814" lon="5.79904">
        <ele>1160.7</ele>
        <time>2011-05-02T13:21:53Z</time>
      </trkpt>
      <trkpt lat="45.2681" lon="5.799">
        <ele>1160.3</ele>
        <time>2011-05-02T13:21:54Z</time>
      </trkpt>
      <trkpt lat="45.26807" lon="5.79896">
        <ele>1159.9</ele>
        <time>2011-05-02T13:21:55Z</time>
      </trkpt>
      <trkpt lat="45.26803" lon="5.79892">
        <ele>1158.9</ele>
        <time>2011-05-02T13:21:56Z</time>
      </trkpt>
      <trkpt lat="45.26796" lon="5.79885">
        <ele>1157.5</ele>
        <time>2011-05-02T13:21:58Z</time>
      </trkpt>
      <trkpt lat="45.2679" lon="5.79877">
        <ele>1155.9</ele>
        <time>2011-05-02T13:22:00Z</time>
      </trkpt>
      <trkpt lat="45.26783" lon="5.79871">
        <ele>1155.1</ele>
        <time>2011-05-02T13:22:02Z</time>
      </trkpt>
      <trkpt lat="45.26777" lon="5.79866">
        <ele>1154.8</ele>
        <time>2011-05-02T13:22:04Z</time>
      </trkpt>
      <trkpt lat="45.26771" lon="5.79861">
        <ele>1153.1</ele>
        <time>2011-05-02T13:22:06Z</time>
      </trkpt>
      <trkpt lat="45.26765" lon="5.79853">
        <ele>1149.7</ele>
        <time>2011-05-02T13:22:09Z</time>
      </trkpt>
      <trkpt lat="45.26756" lon="5.79851">
        <ele>1144.5</ele>
        <time>2011-05-02T13:22:24Z</time>
      </trkpt>
      <trkpt lat="45.26748" lon="5.79855">
        <ele>1144.5</ele>
        <time>2011-05-02T13:23:26Z</time>
      </trkpt>
      <trkpt lat="45.26747" lon="5.79856">
        <ele>1144.6</ele>
        <time>2011-05-02T13:23:27Z</time>
      </trkpt>
      <trkpt lat="45.26756" lon="5.79848">
        <ele>1145</ele>
        <time>2011-05-02T13:24:42Z</time>
      </trkpt>
      <trkpt lat="45.26748" lon="5.79858">
        <ele>1145.8</ele>
        <time>2011-05-02T13:26:05Z</time>
      </trkpt>
      <trkpt lat="45.26751" lon="5.7986">
        <ele>1146.8</ele>
        <time>2011-05-02T13:27:34Z</time>
      </trkpt>
      <trkpt lat="45.2675" lon="5.7986">
        <ele>1146.7</ele>
        <time>2011-05-02T13:27:35Z</time>
      </trkpt>
      <trkpt lat="45.26738" lon="5.79843">
        <ele>1142.2</ele>
        <time>2011-05-02T13:28:06Z</time>
      </trkpt>
      <trkpt lat="45.26732" lon="5.79834">
        <ele>1140.6</ele>
        <time>2011-05-02T13:28:19Z</time>
      </trkpt>
      <trkpt lat="45.26726" lon="5.79825">
        <ele>1139.5</ele>
        <time>2011-05-02T13:28:25Z</time>
      </trkpt>
      <trkpt lat="45.26721" lon="5.79816">
        <ele>1137.9</ele>
        <time>2011-05-02T13:28:31Z</time>
      </trkpt>
      <trkpt lat="45.26719" lon="5.79804">
        <ele>1135.7</ele>
        <time>2011-05-02T13:28:35Z</time>
      </trkpt>
      <trkpt lat="45.26718" lon="5.79802">
        <ele>1135</ele>
        <time>2011-05-02T13:28:36Z</time>
      </trkpt>
      <trkpt lat="45.26719" lon="5.79782">
        <ele>1130.5</ele>
        <time>2011-05-02T13:28:45Z</time>
      </trkpt>
      <trkpt lat="45.26718" lon="5.7977">
        <ele>1127.9</ele>
        <time>2011-05-02T13:28:49Z</time>
      </trkpt>
      <trkpt lat="45.26718" lon="5.79758">
        <ele>1125.8</ele>
        <time>2011-05-02T13:28:54Z</time>
      </trkpt>
      <trkpt lat="45.26718" lon="5.79747">
        <ele>1123.7</ele>
        <time>2011-05-02T13:28:58Z</time>
      </trkpt>
      <trkpt lat="45.26716" lon="5.79736">
        <ele>1122.2</ele>
        <time>2011-05-02T13:29:02Z</time>
      </trkpt>
      <trkpt lat="45.26715" lon="5.79725">
        <ele>1119.3</ele>
        <time>2011-05-02T13:29:07Z</time>
      </trkpt>
      <trkpt lat="45.26712" lon="5.79714">
        <ele>1117.8</ele>
        <time>2011-05-02T13:29:11Z</time>
      </trkpt>
      <trkpt lat="45.26712" lon="5.79701">
        <ele>1115.9</ele>
        <time>2011-05-02T13:29:16Z</time>
      </trkpt>
      <trkpt lat="45.26713" lon="5.79689">
        <ele>1113.4</ele>
        <time>2011-05-02T13:29:31Z</time>
      </trkpt>
      <trkpt lat="45.26714" lon="5.79677">
        <ele>1113.1</ele>
        <time>2011-05-02T13:29:48Z</time>
      </trkpt>
      <trkpt lat="45.26713" lon="5.79676">
        <ele>1113.3</ele>
        <time>2011-05-02T13:29:49Z</time>
      </trkpt>
      <trkpt lat="45.26711" lon="5.79655">
        <ele>1112.1</ele>
        <time>2011-05-02T13:30:28Z</time>
      </trkpt>
      <trkpt lat="45.26708" lon="5.79642">
        <ele>1109.7</ele>
        <time>2011-05-02T13:30:32Z</time>
      </trkpt>
      <trkpt lat="45.26705" lon="5.79632">
        <ele>1108.6</ele>
        <time>2011-05-02T13:30:35Z</time>
      </trkpt>
      <trkpt lat="45.26701" lon="5.79625">
        <ele>1107.2</ele>
        <time>2011-05-02T13:30:37Z</time>
      </trkpt>
      <trkpt lat="45.26696" lon="5.79615">
        <ele>1104.3</ele>
        <time>2011-05-02T13:30:40Z</time>
      </trkpt>
      <trkpt lat="45.26692" lon="5.79606">
        <ele>1102.6</ele>
        <time>2011-05-02T13:30:43Z</time>
      </trkpt>
      <trkpt lat="45.26686" lon="5.79598">
        <ele>1101</ele>
        <time>2011-05-02T13:30:47Z</time>
      </trkpt>
      <trkpt lat="45.2668" lon="5.79589">
        <ele>1097.2</ele>
        <time>2011-05-02T13:30:52Z</time>
      </trkpt>
      <trkpt lat="45.26678" lon="5.79586">
        <ele>1096.8</ele>
        <time>2011-05-02T13:30:53Z</time>
      </trkpt>
      <trkpt lat="45.26671" lon="5.79574">
        <ele>1094.4</ele>
        <time>2011-05-02T13:30:56Z</time>
      </trkpt>
      <trkpt lat="45.26665" lon="5.79565">
        <ele>1092.4</ele>
        <time>2011-05-02T13:30:58Z</time>
      </trkpt>
      <trkpt lat="45.26662" lon="5.7956">
        <ele>1091.3</ele>
        <time>2011-05-02T13:30:59Z</time>
      </trkpt>
      <trkpt lat="45.26659" lon="5.79554">
        <ele>1090.5</ele>
        <time>2011-05-02T13:31:00Z</time>
      </trkpt>
      <trkpt lat="45.26655" lon="5.79544">
        <ele>1089</ele>
        <time>2011-05-02T13:31:02Z</time>
      </trkpt>
      <trkpt lat="45.26652" lon="5.79539">
        <ele>1088.3</ele>
        <time>2011-05-02T13:31:03Z</time>
      </trkpt>
      <trkpt lat="45.2665" lon="5.79533">
        <ele>1087.9</ele>
        <time>2011-05-02T13:31:04Z</time>
      </trkpt>
      <trkpt lat="45.26647" lon="5.79527">
        <ele>1086.5</ele>
        <time>2011-05-02T13:31:05Z</time>
      </trkpt>
      <trkpt lat="45.26644" lon="5.79521">
        <ele>1085.5</ele>
        <time>2011-05-02T13:31:06Z</time>
      </trkpt>
      <trkpt lat="45.26639" lon="5.79511">
        <ele>1083.1</ele>
        <time>2011-05-02T13:31:08Z</time>
      </trkpt>
      <trkpt lat="45.26634" lon="5.79502">
        <ele>1080.9</ele>
        <time>2011-05-02T13:31:10Z</time>
      </trkpt>
      <trkpt lat="45.2663" lon="5.79494">
        <ele>1078.7</ele>
        <time>2011-05-02T13:31:12Z</time>
      </trkpt>
      <trkpt lat="45.26627" lon="5.79487">
        <ele>1076.8</ele>
        <time>2011-05-02T13:31:14Z</time>
      </trkpt>
      <trkpt lat="45.26624" lon="5.79476">
        <ele>1076</ele>
        <time>2011-05-02T13:31:16Z</time>
      </trkpt>
      <trkpt lat="45.2662" lon="5.79465">
        <ele>1071.4</ele>
        <time>2011-05-02T13:31:22Z</time>
      </trkpt>
      <trkpt lat="45.26621" lon="5.79453">
        <ele>1069.9</ele>
        <time>2011-05-02T13:31:42Z</time>
      </trkpt>
      <trkpt lat="45.26614" lon="5.79445">
        <ele>1070.8</ele>
        <time>2011-05-02T13:31:47Z</time>
      </trkpt>
      <trkpt lat="45.26609" lon="5.79435">
        <ele>1070</ele>
        <time>2011-05-02T13:31:51Z</time>
      </trkpt>
      <trkpt lat="45.26606" lon="5.79426">
        <ele>1069.6</ele>
        <time>2011-05-02T13:31:54Z</time>
      </trkpt>
      <trkpt lat="45.26605" lon="5.79423">
        <ele>1069.5</ele>
        <time>2011-05-02T13:31:55Z</time>
      </trkpt>
      <trkpt lat="45.26611" lon="5.79403">
        <ele>1069.2</ele>
        <time>2011-05-02T13:32:03Z</time>
      </trkpt>
      <trkpt lat="45.26606" lon="5.79394">
        <ele>1069.2</ele>
        <time>2011-05-02T13:32:08Z</time>
      </trkpt>
      <trkpt lat="45.26599" lon="5.79388">
        <ele>1070.2</ele>
        <time>2011-05-02T13:32:13Z</time>
      </trkpt>
      <trkpt lat="45.26591" lon="5.79382">
        <ele>1069.9</ele>
        <time>2011-05-02T13:32:16Z</time>
      </trkpt>
      <trkpt lat="45.26585" lon="5.79377">
        <ele>1069.1</ele>
        <time>2011-05-02T13:32:19Z</time>
      </trkpt>
      <trkpt lat="45.26577" lon="5.79372">
        <ele>1068</ele>
        <time>2011-05-02T13:32:23Z</time>
      </trkpt>
      <trkpt lat="45.26572" lon="5.79368">
        <ele>1067.7</ele>
        <time>2011-05-02T13:32:25Z</time>
      </trkpt>
      <trkpt lat="45.26565" lon="5.79362">
        <ele>1067.5</ele>
        <time>2011-05-02T13:32:27Z</time>
      </trkpt>
      <trkpt lat="45.26561" lon="5.79359">
        <ele>1067.4</ele>
        <time>2011-05-02T13:32:28Z</time>
      </trkpt>
      <trkpt lat="45.26558" lon="5.79355">
        <ele>1067.3</ele>
        <time>2011-05-02T13:32:29Z</time>
      </trkpt>
      <trkpt lat="45.26554" lon="5.7935">
        <ele>1066.7</ele>
        <time>2011-05-02T13:32:30Z</time>
      </trkpt>
      <trkpt lat="45.2655" lon="5.79346">
        <ele>1066.2</ele>
        <time>2011-05-02T13:32:31Z</time>
      </trkpt>
      <trkpt lat="45.26545" lon="5.79342">
        <ele>1065.9</ele>
        <time>2011-05-02T13:32:32Z</time>
      </trkpt>
      <trkpt lat="45.26541" lon="5.79337">
        <ele>1065.6</ele>
        <time>2011-05-02T13:32:33Z</time>
      </trkpt>
      <trkpt lat="45.26536" lon="5.79333">
        <ele>1065.3</ele>
        <time>2011-05-02T13:32:34Z</time>
      </trkpt>
      <trkpt lat="45.26531" lon="5.79328">
        <ele>1065.1</ele>
        <time>2011-05-02T13:32:35Z</time>
      </trkpt>
      <trkpt lat="45.26526" lon="5.79324">
        <ele>1065</ele>
        <time>2011-05-02T13:32:36Z</time>
      </trkpt>
      <trkpt lat="45.2652" lon="5.79319">
        <ele>1064.8</ele>
        <time>2011-05-02T13:32:37Z</time>
      </trkpt>
      <trkpt lat="45.26515" lon="5.79313">
        <ele>1064.7</ele>
        <time>2011-05-02T13:32:38Z</time>
      </trkpt>
      <trkpt lat="45.2651" lon="5.79308">
        <ele>1064.6</ele>
        <time>2011-05-02T13:32:39Z</time>
      </trkpt>
      <trkpt lat="45.26504" lon="5.79303">
        <ele>1063.9</ele>
        <time>2011-05-02T13:32:40Z</time>
      </trkpt>
      <trkpt lat="45.26499" lon="5.79298">
        <ele>1063.3</ele>
        <time>2011-05-02T13:32:41Z</time>
      </trkpt>
      <trkpt lat="45.26494" lon="5.79292">
        <ele>1062.9</ele>
        <time>2011-05-02T13:32:42Z</time>
      </trkpt>
      <trkpt lat="45.26488" lon="5.79286">
        <ele>1062.4</ele>
        <time>2011-05-02T13:32:43Z</time>
      </trkpt>
      <trkpt lat="45.26483" lon="5.7928">
        <ele>1062</ele>
        <time>2011-05-02T13:32:44Z</time>
      </trkpt>
      <trkpt lat="45.26478" lon="5.79274">
        <ele>1061.7</ele>
        <time>2011-05-02T13:32:45Z</time>
      </trkpt>
      <trkpt lat="45.26472" lon="5.79268">
        <ele>1060.9</ele>
        <time>2011-05-02T13:32:46Z</time>
      </trkpt>
      <trkpt lat="45.26466" lon="5.79262">
        <ele>1060.2</ele>
        <time>2011-05-02T13:32:47Z</time>
      </trkpt>
      <trkpt lat="45.2646" lon="5.79256">
        <ele>1059.8</ele>
        <time>2011-05-02T13:32:48Z</time>
      </trkpt>
      <trkpt lat="45.26454" lon="5.79248">
        <ele>1058.9</ele>
        <time>2011-05-02T13:32:49Z</time>
      </trkpt>
      <trkpt lat="45.26449" lon="5.7924">
        <ele>1058.3</ele>
        <time>2011-05-02T13:32:50Z</time>
      </trkpt>
      <trkpt lat="45.26442" lon="5.79233">
        <ele>1057.8</ele>
        <time>2011-05-02T13:32:51Z</time>
      </trkpt>
      <trkpt lat="45.26435" lon="5.79226">
        <ele>1057.5</ele>
        <time>2011-05-02T13:32:52Z</time>
      </trkpt>
      <trkpt lat="45.26429" lon="5.79219">
        <ele>1057</ele>
        <time>2011-05-02T13:32:53Z</time>
      </trkpt>
      <trkpt lat="45.26422" lon="5.79211">
        <ele>1056.7</ele>
        <time>2011-05-02T13:32:54Z</time>
      </trkpt>
      <trkpt lat="45.26415" lon="5.79204">
        <ele>1056.4</ele>
        <time>2011-05-02T13:32:55Z</time>
      </trkpt>
      <trkpt lat="45.26408" lon="5.79197">
        <ele>1055.5</ele>
        <time>2011-05-02T13:32:56Z</time>
      </trkpt>
      <trkpt lat="45.26401" lon="5.79189">
        <ele>1054.8</ele>
        <time>2011-05-02T13:32:57Z</time>
      </trkpt>
      <trkpt lat="45.26394" lon="5.79181">
        <ele>1054.2</ele>
        <time>2011-05-02T13:32:58Z</time>
      </trkpt>
      <trkpt lat="45.26387" lon="5.79174">
        <ele>1053.4</ele>
        <time>2011-05-02T13:32:59Z</time>
      </trkpt>
      <trkpt lat="45.2638" lon="5.79166">
        <ele>1052.7</ele>
        <time>2011-05-02T13:33:00Z</time>
      </trkpt>
      <trkpt lat="45.26373" lon="5.79158">
        <ele>1052.2</ele>
        <time>2011-05-02T13:33:01Z</time>
      </trkpt>
      <trkpt lat="45.26367" lon="5.79149">
        <ele>1052.1</ele>
        <time>2011-05-02T13:33:02Z</time>
      </trkpt>
      <trkpt lat="45.26361" lon="5.79139">
        <ele>1051.9</ele>
        <time>2011-05-02T13:33:03Z</time>
      </trkpt>
      <trkpt lat="45.26355" lon="5.79129">
        <ele>1051.9</ele>
        <time>2011-05-02T13:33:04Z</time>
      </trkpt>
      <trkpt lat="45.26349" lon="5.79119">
        <ele>1051.1</ele>
        <time>2011-05-02T13:33:05Z</time>
      </trkpt>
      <trkpt lat="45.26342" lon="5.79109">
        <ele>1050.5</ele>
        <time>2011-05-02T13:33:06Z</time>
      </trkpt>
      <trkpt lat="45.26336" lon="5.79099">
        <ele>1050</ele>
        <time>2011-05-02T13:33:07Z</time>
      </trkpt>
      <trkpt lat="45.26328" lon="5.79091">
        <ele>1049</ele>
        <time>2011-05-02T13:33:08Z</time>
      </trkpt>
      <trkpt lat="45.26321" lon="5.79082">
        <ele>1048.3</ele>
        <time>2011-05-02T13:33:09Z</time>
      </trkpt>
      <trkpt lat="45.26312" lon="5.79075">
        <ele>1047.8</ele>
        <time>2011-05-02T13:33:10Z</time>
      </trkpt>
      <trkpt lat="45.26304" lon="5.79068">
        <ele>1047.4</ele>
        <time>2011-05-02T13:33:11Z</time>
      </trkpt>
      <trkpt lat="45.26295" lon="5.7906">
        <ele>1046.7</ele>
        <time>2011-05-02T13:33:12Z</time>
      </trkpt>
      <trkpt lat="45.26287" lon="5.79052">
        <ele>1046.3</ele>
        <time>2011-05-02T13:33:13Z</time>
      </trkpt>
      <trkpt lat="45.26279" lon="5.79043">
        <ele>1045.9</ele>
        <time>2011-05-02T13:33:14Z</time>
      </trkpt>
      <trkpt lat="45.26271" lon="5.79034">
        <ele>1045</ele>
        <time>2011-05-02T13:33:15Z</time>
      </trkpt>
      <trkpt lat="45.26263" lon="5.79025">
        <ele>1044.3</ele>
        <time>2011-05-02T13:33:16Z</time>
      </trkpt>
      <trkpt lat="45.26255" lon="5.79018">
        <ele>1043.8</ele>
        <time>2011-05-02T13:33:17Z</time>
      </trkpt>
      <trkpt lat="45.26246" lon="5.79013">
        <ele>1043</ele>
        <time>2011-05-02T13:33:18Z</time>
      </trkpt>
      <trkpt lat="45.26237" lon="5.79011">
        <ele>1042.4</ele>
        <time>2011-05-02T13:33:19Z</time>
      </trkpt>
      <trkpt lat="45.26228" lon="5.7901">
        <ele>1042</ele>
        <time>2011-05-02T13:33:20Z</time>
      </trkpt>
      <trkpt lat="45.26219" lon="5.79008">
        <ele>1041.2</ele>
        <time>2011-05-02T13:33:21Z</time>
      </trkpt>
      <trkpt lat="45.2621" lon="5.79006">
        <ele>1040.6</ele>
        <time>2011-05-02T13:33:22Z</time>
      </trkpt>
      <trkpt lat="45.26202" lon="5.79002">
        <ele>1040.2</ele>
        <time>2011-05-02T13:33:23Z</time>
      </trkpt>
      <trkpt lat="45.26195" lon="5.78995">
        <ele>1039.8</ele>
        <time>2011-05-02T13:33:24Z</time>
      </trkpt>
      <trkpt lat="45.26189" lon="5.78987">
        <ele>1039.6</ele>
        <time>2011-05-02T13:33:25Z</time>
      </trkpt>
      <trkpt lat="45.26185" lon="5.78978">
        <ele>1039.3</ele>
        <time>2011-05-02T13:33:26Z</time>
      </trkpt>
      <trkpt lat="45.2618" lon="5.78968">
        <ele>1038.1</ele>
        <time>2011-05-02T13:33:27Z</time>
      </trkpt>
      <trkpt lat="45.26175" lon="5.78958">
        <ele>1037.3</ele>
        <time>2011-05-02T13:33:28Z</time>
      </trkpt>
      <trkpt lat="45.2617" lon="5.78947">
        <ele>1036.6</ele>
        <time>2011-05-02T13:33:29Z</time>
      </trkpt>
      <trkpt lat="45.26165" lon="5.78937">
        <ele>1036.1</ele>
        <time>2011-05-02T13:33:30Z</time>
      </trkpt>
      <trkpt lat="45.26159" lon="5.78926">
        <ele>1035.3</ele>
        <time>2011-05-02T13:33:31Z</time>
      </trkpt>
      <trkpt lat="45.26154" lon="5.78914">
        <ele>1034.7</ele>
        <time>2011-05-02T13:33:32Z</time>
      </trkpt>
      <trkpt lat="45.26148" lon="5.78903">
        <ele>1034.3</ele>
        <time>2011-05-02T13:33:33Z</time>
      </trkpt>
      <trkpt lat="45.26143" lon="5.7889">
        <ele>1032.7</ele>
        <time>2011-05-02T13:33:34Z</time>
      </trkpt>
      <trkpt lat="45.26137" lon="5.78878">
        <ele>1031.5</ele>
        <time>2011-05-02T13:33:35Z</time>
      </trkpt>
      <trkpt lat="45.26131" lon="5.78866">
        <ele>1030.6</ele>
        <time>2011-05-02T13:33:36Z</time>
      </trkpt>
      <trkpt lat="45.26125" lon="5.78854">
        <ele>1029.5</ele>
        <time>2011-05-02T13:33:37Z</time>
      </trkpt>
      <trkpt lat="45.26119" lon="5.78842">
        <ele>1028.7</ele>
        <time>2011-05-02T13:33:38Z</time>
      </trkpt>
      <trkpt lat="45.26113" lon="5.78831">
        <ele>1028.1</ele>
        <time>2011-05-02T13:33:39Z</time>
      </trkpt>
      <trkpt lat="45.26108" lon="5.78819">
        <ele>1027.8</ele>
        <time>2011-05-02T13:33:40Z</time>
      </trkpt>
      <trkpt lat="45.26103" lon="5.78807">
        <ele>1027.5</ele>
        <time>2011-05-02T13:33:41Z</time>
      </trkpt>
      <trkpt lat="45.26098" lon="5.78795">
        <ele>1027.3</ele>
        <time>2011-05-02T13:33:42Z</time>
      </trkpt>
      <trkpt lat="45.26093" lon="5.78782">
        <ele>1026.9</ele>
        <time>2011-05-02T13:33:43Z</time>
      </trkpt>
      <trkpt lat="45.2609" lon="5.78769">
        <ele>1026.6</ele>
        <time>2011-05-02T13:33:44Z</time>
      </trkpt>
      <trkpt lat="45.26088" lon="5.78756">
        <ele>1026.3</ele>
        <time>2011-05-02T13:33:45Z</time>
      </trkpt>
      <trkpt lat="45.26087" lon="5.78743">
        <ele>1026.1</ele>
        <time>2011-05-02T13:33:46Z</time>
      </trkpt>
      <trkpt lat="45.26085" lon="5.78731">
        <ele>1025.6</ele>
        <time>2011-05-02T13:33:47Z</time>
      </trkpt>
      <trkpt lat="45.26083" lon="5.78719">
        <ele>1025.3</ele>
        <time>2011-05-02T13:33:48Z</time>
      </trkpt>
      <trkpt lat="45.2608" lon="5.78708">
        <ele>1025</ele>
        <time>2011-05-02T13:33:49Z</time>
      </trkpt>
      <trkpt lat="45.26077" lon="5.78698">
        <ele>1025.1</ele>
        <time>2011-05-02T13:33:50Z</time>
      </trkpt>
      <trkpt lat="45.26073" lon="5.78688">
        <ele>1025.2</ele>
        <time>2011-05-02T13:33:51Z</time>
      </trkpt>
      <trkpt lat="45.2607" lon="5.78679">
        <ele>1025.2</ele>
        <time>2011-05-02T13:33:52Z</time>
      </trkpt>
      <trkpt lat="45.26066" lon="5.7867">
        <ele>1025.5</ele>
        <time>2011-05-02T13:33:53Z</time>
      </trkpt>
      <trkpt lat="45.26063" lon="5.78662">
        <ele>1025.6</ele>
        <time>2011-05-02T13:33:54Z</time>
      </trkpt>
      <trkpt lat="45.26059" lon="5.78654">
        <ele>1025.7</ele>
        <time>2011-05-02T13:33:55Z</time>
      </trkpt>
      <trkpt lat="45.26056" lon="5.78647">
        <ele>1025.5</ele>
        <time>2011-05-02T13:33:56Z</time>
      </trkpt>
      <trkpt lat="45.26052" lon="5.7864">
        <ele>1025.3</ele>
        <time>2011-05-02T13:33:57Z</time>
      </trkpt>
      <trkpt lat="45.26048" lon="5.78633">
        <ele>1025.2</ele>
        <time>2011-05-02T13:33:58Z</time>
      </trkpt>
      <trkpt lat="45.26045" lon="5.78626">
        <ele>1025.1</ele>
        <time>2011-05-02T13:33:59Z</time>
      </trkpt>
      <trkpt lat="45.26042" lon="5.7862">
        <ele>1025</ele>
        <time>2011-05-02T13:34:00Z</time>
      </trkpt>
      <trkpt lat="45.26039" lon="5.78613">
        <ele>1024.9</ele>
        <time>2011-05-02T13:34:01Z</time>
      </trkpt>
      <trkpt lat="45.26036" lon="5.78607">
        <ele>1025.1</ele>
        <time>2011-05-02T13:34:02Z</time>
      </trkpt>
      <trkpt lat="45.26033" lon="5.78601">
        <ele>1025.3</ele>
        <time>2011-05-02T13:34:03Z</time>
      </trkpt>
      <trkpt lat="45.26031" lon="5.78595">
        <ele>1025.4</ele>
        <time>2011-05-02T13:34:04Z</time>
      </trkpt>
      <trkpt lat="45.26028" lon="5.78588">
        <ele>1025.5</ele>
        <time>2011-05-02T13:34:05Z</time>
      </trkpt>
      <trkpt lat="45.26025" lon="5.78583">
        <ele>1025.3</ele>
        <time>2011-05-02T13:34:06Z</time>
      </trkpt>
      <trkpt lat="45.26022" lon="5.78577">
        <ele>1025.2</ele>
        <time>2011-05-02T13:34:07Z</time>
      </trkpt>
      <trkpt lat="45.26018" lon="5.78572">
        <ele>1025.1</ele>
        <time>2011-05-02T13:34:08Z</time>
      </trkpt>
      <trkpt lat="45.26015" lon="5.78566">
        <ele>1025.3</ele>
        <time>2011-05-02T13:34:09Z</time>
      </trkpt>
      <trkpt lat="45.26012" lon="5.78561">
        <ele>1025.5</ele>
        <time>2011-05-02T13:34:10Z</time>
      </trkpt>
      <trkpt lat="45.26007" lon="5.78556">
        <ele>1025.6</ele>
        <time>2011-05-02T13:34:11Z</time>
      </trkpt>
      <trkpt lat="45.26003" lon="5.78551">
        <ele>1025.6</ele>
        <time>2011-05-02T13:34:12Z</time>
      </trkpt>
      <trkpt lat="45.25998" lon="5.78546">
        <ele>1025.5</ele>
        <time>2011-05-02T13:34:13Z</time>
      </trkpt>
      <trkpt lat="45.25994" lon="5.78541">
        <ele>1025.5</ele>
        <time>2011-05-02T13:34:14Z</time>
      </trkpt>
      <trkpt lat="45.2599" lon="5.78535">
        <ele>1025.1</ele>
        <time>2011-05-02T13:34:15Z</time>
      </trkpt>
      <trkpt lat="45.25986" lon="5.78529">
        <ele>1024.9</ele>
        <time>2011-05-02T13:34:16Z</time>
      </trkpt>
      <trkpt lat="45.25982" lon="5.78523">
        <ele>1024.7</ele>
        <time>2011-05-02T13:34:17Z</time>
      </trkpt>
      <trkpt lat="45.25978" lon="5.78516">
        <ele>1024.7</ele>
        <time>2011-05-02T13:34:18Z</time>
      </trkpt>
      <trkpt lat="45.25974" lon="5.78509">
        <ele>1024.7</ele>
        <time>2011-05-02T13:34:19Z</time>
      </trkpt>
      <trkpt lat="45.2597" lon="5.78502">
        <ele>1024.7</ele>
        <time>2011-05-02T13:34:20Z</time>
      </trkpt>
      <trkpt lat="45.25966" lon="5.78495">
        <ele>1023.9</ele>
        <time>2011-05-02T13:34:21Z</time>
      </trkpt>
      <trkpt lat="45.25962" lon="5.78487">
        <ele>1023.3</ele>
        <time>2011-05-02T13:34:22Z</time>
      </trkpt>
      <trkpt lat="45.25958" lon="5.78479">
        <ele>1022.9</ele>
        <time>2011-05-02T13:34:23Z</time>
      </trkpt>
      <trkpt lat="45.25955" lon="5.78471">
        <ele>1022.6</ele>
        <time>2011-05-02T13:34:24Z</time>
      </trkpt>
      <trkpt lat="45.25951" lon="5.78463">
        <ele>1022.1</ele>
        <time>2011-05-02T13:34:25Z</time>
      </trkpt>
      <trkpt lat="45.25948" lon="5.78455">
        <ele>1021.8</ele>
        <time>2011-05-02T13:34:26Z</time>
      </trkpt>
      <trkpt lat="45.25945" lon="5.78446">
        <ele>1021.5</ele>
        <time>2011-05-02T13:34:27Z</time>
      </trkpt>
      <trkpt lat="45.25941" lon="5.78438">
        <ele>1021.2</ele>
        <time>2011-05-02T13:34:28Z</time>
      </trkpt>
      <trkpt lat="45.25939" lon="5.7843">
        <ele>1020.9</ele>
        <time>2011-05-02T13:34:29Z</time>
      </trkpt>
      <trkpt lat="45.25936" lon="5.78422">
        <ele>1020.8</ele>
        <time>2011-05-02T13:34:30Z</time>
      </trkpt>
      <trkpt lat="45.25934" lon="5.78414">
        <ele>1020.8</ele>
        <time>2011-05-02T13:34:31Z</time>
      </trkpt>
      <trkpt lat="45.25931" lon="5.78406">
        <ele>1020.8</ele>
        <time>2011-05-02T13:34:32Z</time>
      </trkpt>
      <trkpt lat="45.25928" lon="5.78398">
        <ele>1020.8</ele>
        <time>2011-05-02T13:34:33Z</time>
      </trkpt>
      <trkpt lat="45.25926" lon="5.7839">
        <ele>1020.7</ele>
        <time>2011-05-02T13:34:34Z</time>
      </trkpt>
      <trkpt lat="45.25923" lon="5.78381">
        <ele>1020.6</ele>
        <time>2011-05-02T13:34:35Z</time>
      </trkpt>
      <trkpt lat="45.25921" lon="5.78373">
        <ele>1020.6</ele>
        <time>2011-05-02T13:34:36Z</time>
      </trkpt>
      <trkpt lat="45.25918" lon="5.78365">
        <ele>1019.9</ele>
        <time>2011-05-02T13:34:37Z</time>
      </trkpt>
      <trkpt lat="45.25916" lon="5.78357">
        <ele>1019.4</ele>
        <time>2011-05-02T13:34:38Z</time>
      </trkpt>
      <trkpt lat="45.25913" lon="5.78349">
        <ele>1019.1</ele>
        <time>2011-05-02T13:34:39Z</time>
      </trkpt>
      <trkpt lat="45.2591" lon="5.78341">
        <ele>1019.2</ele>
        <time>2011-05-02T13:34:40Z</time>
      </trkpt>
      <trkpt lat="45.25907" lon="5.78333">
        <ele>1019.3</ele>
        <time>2011-05-02T13:34:41Z</time>
      </trkpt>
      <trkpt lat="45.25903" lon="5.78325">
        <ele>1019.4</ele>
        <time>2011-05-02T13:34:42Z</time>
      </trkpt>
      <trkpt lat="45.259" lon="5.78316">
        <ele>1019.5</ele>
        <time>2011-05-02T13:34:43Z</time>
      </trkpt>
      <trkpt lat="45.25898" lon="5.78308">
        <ele>1019.1</ele>
        <time>2011-05-02T13:34:44Z</time>
      </trkpt>
      <trkpt lat="45.25895" lon="5.783">
        <ele>1018.8</ele>
        <time>2011-05-02T13:34:45Z</time>
      </trkpt>
      <trkpt lat="45.25892" lon="5.78292">
        <ele>1018.5</ele>
        <time>2011-05-02T13:34:46Z</time>
      </trkpt>
      <trkpt lat="45.25889" lon="5.78284">
        <ele>1018.4</ele>
        <time>2011-05-02T13:34:47Z</time>
      </trkpt>
      <trkpt lat="45.25886" lon="5.78276">
        <ele>1018.3</ele>
        <time>2011-05-02T13:34:48Z</time>
      </trkpt>
      <trkpt lat="45.25884" lon="5.78268">
        <ele>1018.2</ele>
        <time>2011-05-02T13:34:49Z</time>
      </trkpt>
      <trkpt lat="45.25881" lon="5.7826">
        <ele>1017.6</ele>
        <time>2011-05-02T13:34:50Z</time>
      </trkpt>
      <trkpt lat="45.25877" lon="5.78252">
        <ele>1017.1</ele>
        <time>2011-05-02T13:34:51Z</time>
      </trkpt>
      <trkpt lat="45.25875" lon="5.78244">
        <ele>1016.8</ele>
        <time>2011-05-02T13:34:52Z</time>
      </trkpt>
      <trkpt lat="45.25872" lon="5.78236">
        <ele>1016.4</ele>
        <time>2011-05-02T13:34:53Z</time>
      </trkpt>
      <trkpt lat="45.25869" lon="5.78228">
        <ele>1016.2</ele>
        <time>2011-05-02T13:34:54Z</time>
      </trkpt>
      <trkpt lat="45.25867" lon="5.78219">
        <ele>1015.9</ele>
        <time>2011-05-02T13:34:55Z</time>
      </trkpt>
      <trkpt lat="45.25864" lon="5.78211">
        <ele>1016.2</ele>
        <time>2011-05-02T13:34:56Z</time>
      </trkpt>
      <trkpt lat="45.25861" lon="5.78204">
        <ele>1016.4</ele>
        <time>2011-05-02T13:34:57Z</time>
      </trkpt>
      <trkpt lat="45.25857" lon="5.78196">
        <ele>1016.5</ele>
        <time>2011-05-02T13:34:58Z</time>
      </trkpt>
      <trkpt lat="45.25854" lon="5.78189">
        <ele>1016.6</ele>
        <time>2011-05-02T13:34:59Z</time>
      </trkpt>
      <trkpt lat="45.25851" lon="5.78182">
        <ele>1016.1</ele>
        <time>2011-05-02T13:35:00Z</time>
      </trkpt>
      <trkpt lat="45.25848" lon="5.78174">
        <ele>1015.7</ele>
        <time>2011-05-02T13:35:01Z</time>
      </trkpt>
      <trkpt lat="45.25846" lon="5.78166">
        <ele>1015.4</ele>
        <time>2011-05-02T13:35:02Z</time>
      </trkpt>
      <trkpt lat="45.25844" lon="5.78158">
        <ele>1015.5</ele>
        <time>2011-05-02T13:35:03Z</time>
      </trkpt>
      <trkpt lat="45.25842" lon="5.7815">
        <ele>1015.7</ele>
        <time>2011-05-02T13:35:04Z</time>
      </trkpt>
      <trkpt lat="45.2584" lon="5.78142">
        <ele>1015.7</ele>
        <time>2011-05-02T13:35:05Z</time>
      </trkpt>
      <trkpt lat="45.25839" lon="5.78134">
        <ele>1015.8</ele>
        <time>2011-05-02T13:35:06Z</time>
      </trkpt>
      <trkpt lat="45.25838" lon="5.78126">
        <ele>1015.8</ele>
        <time>2011-05-02T13:35:07Z</time>
      </trkpt>
      <trkpt lat="45.25837" lon="5.78118">
        <ele>1015.8</ele>
        <time>2011-05-02T13:35:08Z</time>
      </trkpt>
      <trkpt lat="45.25835" lon="5.78109">
        <ele>1015.4</ele>
        <time>2011-05-02T13:35:09Z</time>
      </trkpt>
      <trkpt lat="45.25834" lon="5.78101">
        <ele>1015.1</ele>
        <time>2011-05-02T13:35:10Z</time>
      </trkpt>
      <trkpt lat="45.25833" lon="5.78093">
        <ele>1014.8</ele>
        <time>2011-05-02T13:35:11Z</time>
      </trkpt>
      <trkpt lat="45.25832" lon="5.78085">
        <ele>1014.8</ele>
        <time>2011-05-02T13:35:12Z</time>
      </trkpt>
      <trkpt lat="45.25831" lon="5.78077">
        <ele>1014.8</ele>
        <time>2011-05-02T13:35:13Z</time>
      </trkpt>
      <trkpt lat="45.2583" lon="5.78069">
        <ele>1014.8</ele>
        <time>2011-05-02T13:35:14Z</time>
      </trkpt>
      <trkpt lat="45.25829" lon="5.78061">
        <ele>1014.6</ele>
        <time>2011-05-02T13:35:15Z</time>
      </trkpt>
      <trkpt lat="45.25828" lon="5.78054">
        <ele>1014.4</ele>
        <time>2011-05-02T13:35:16Z</time>
      </trkpt>
      <trkpt lat="45.25827" lon="5.78046">
        <ele>1014.3</ele>
        <time>2011-05-02T13:35:17Z</time>
      </trkpt>
      <trkpt lat="45.25826" lon="5.78039">
        <ele>1014.7</ele>
        <time>2011-05-02T13:35:18Z</time>
      </trkpt>
      <trkpt lat="45.25825" lon="5.78031">
        <ele>1015</ele>
        <time>2011-05-02T13:35:19Z</time>
      </trkpt>
      <trkpt lat="45.25824" lon="5.78024">
        <ele>1015.2</ele>
        <time>2011-05-02T13:35:20Z</time>
      </trkpt>
      <trkpt lat="45.25823" lon="5.78017">
        <ele>1015.4</ele>
        <time>2011-05-02T13:35:21Z</time>
      </trkpt>
      <trkpt lat="45.25822" lon="5.7801">
        <ele>1015.5</ele>
        <time>2011-05-02T13:35:22Z</time>
      </trkpt>
      <trkpt lat="45.25822" lon="5.78003">
        <ele>1015.6</ele>
        <time>2011-05-02T13:35:23Z</time>
      </trkpt>
      <trkpt lat="45.2582" lon="5.77997">
        <ele>1015.7</ele>
        <time>2011-05-02T13:35:24Z</time>
      </trkpt>
      <trkpt lat="45.25819" lon="5.77984">
        <ele>1014.6</ele>
        <time>2011-05-02T13:35:26Z</time>
      </trkpt>
      <trkpt lat="45.25816" lon="5.77973">
        <ele>1014</ele>
        <time>2011-05-02T13:35:28Z</time>
      </trkpt>
      <trkpt lat="45.25815" lon="5.77962">
        <ele>1013.8</ele>
        <time>2011-05-02T13:35:30Z</time>
      </trkpt>
      <trkpt lat="45.25813" lon="5.77951">
        <ele>1013.4</ele>
        <time>2011-05-02T13:35:32Z</time>
      </trkpt>
      <trkpt lat="45.25813" lon="5.7794">
        <ele>1013.4</ele>
        <time>2011-05-02T13:35:34Z</time>
      </trkpt>
      <trkpt lat="45.25815" lon="5.7793">
        <ele>1013.6</ele>
        <time>2011-05-02T13:35:36Z</time>
      </trkpt>
      <trkpt lat="45.25821" lon="5.77924">
        <ele>1013.8</ele>
        <time>2011-05-02T13:35:38Z</time>
      </trkpt>
      <trkpt lat="45.25829" lon="5.77921">
        <ele>1014.1</ele>
        <time>2011-05-02T13:35:40Z</time>
      </trkpt>
      <trkpt lat="45.25834" lon="5.77921">
        <ele>1013.8</ele>
        <time>2011-05-02T13:35:41Z</time>
      </trkpt>
      <trkpt lat="45.25839" lon="5.7792">
        <ele>1013.5</ele>
        <time>2011-05-02T13:35:42Z</time>
      </trkpt>
      <trkpt lat="45.25844" lon="5.77918">
        <ele>1013.3</ele>
        <time>2011-05-02T13:35:43Z</time>
      </trkpt>
      <trkpt lat="45.2585" lon="5.77916">
        <ele>1012.8</ele>
        <time>2011-05-02T13:35:44Z</time>
      </trkpt>
      <trkpt lat="45.25855" lon="5.77913">
        <ele>1012.4</ele>
        <time>2011-05-02T13:35:45Z</time>
      </trkpt>
      <trkpt lat="45.25861" lon="5.7791">
        <ele>1012.1</ele>
        <time>2011-05-02T13:35:46Z</time>
      </trkpt>
      <trkpt lat="45.25866" lon="5.77907">
        <ele>1011.9</ele>
        <time>2011-05-02T13:35:47Z</time>
      </trkpt>
      <trkpt lat="45.2587" lon="5.77903">
        <ele>1011.8</ele>
        <time>2011-05-02T13:35:48Z</time>
      </trkpt>
      <trkpt lat="45.25876" lon="5.77895">
        <ele>1012</ele>
        <time>2011-05-02T13:35:50Z</time>
      </trkpt>
      <trkpt lat="45.25881" lon="5.77886">
        <ele>1012.5</ele>
        <time>2011-05-02T13:35:52Z</time>
      </trkpt>
      <trkpt lat="45.25886" lon="5.77878">
        <ele>1012.8</ele>
        <time>2011-05-02T13:35:54Z</time>
      </trkpt>
      <trkpt lat="45.25891" lon="5.77871">
        <ele>1013.1</ele>
        <time>2011-05-02T13:35:56Z</time>
      </trkpt>
      <trkpt lat="45.25896" lon="5.77863">
        <ele>1013.8</ele>
        <time>2011-05-02T13:35:58Z</time>
      </trkpt>
      <trkpt lat="45.25898" lon="5.7786">
        <ele>1014</ele>
        <time>2011-05-02T13:35:59Z</time>
      </trkpt>
      <trkpt lat="45.25907" lon="5.7785">
        <ele>1015</ele>
        <time>2011-05-02T13:36:02Z</time>
      </trkpt>
      <trkpt lat="45.25913" lon="5.77845">
        <ele>1015.7</ele>
        <time>2011-05-02T13:36:04Z</time>
      </trkpt>
      <trkpt lat="45.25918" lon="5.7784">
        <ele>1016.2</ele>
        <time>2011-05-02T13:36:06Z</time>
      </trkpt>
      <trkpt lat="45.25923" lon="5.77835">
        <ele>1016.5</ele>
        <time>2011-05-02T13:36:08Z</time>
      </trkpt>
      <trkpt lat="45.25928" lon="5.77829">
        <ele>1016.3</ele>
        <time>2011-05-02T13:36:10Z</time>
      </trkpt>
      <trkpt lat="45.25936" lon="5.77825">
        <ele>1016.2</ele>
        <time>2011-05-02T13:36:12Z</time>
      </trkpt>
      <trkpt lat="45.2594" lon="5.77823">
        <ele>1016</ele>
        <time>2011-05-02T13:36:13Z</time>
      </trkpt>
      <trkpt lat="45.25945" lon="5.77822">
        <ele>1015.9</ele>
        <time>2011-05-02T13:36:14Z</time>
      </trkpt>
      <trkpt lat="45.2595" lon="5.7782">
        <ele>1015.8</ele>
        <time>2011-05-02T13:36:15Z</time>
      </trkpt>
      <trkpt lat="45.25955" lon="5.77818">
        <ele>1016.1</ele>
        <time>2011-05-02T13:36:16Z</time>
      </trkpt>
      <trkpt lat="45.25959" lon="5.77816">
        <ele>1016.3</ele>
        <time>2011-05-02T13:36:17Z</time>
      </trkpt>
      <trkpt lat="45.25964" lon="5.77813">
        <ele>1016.5</ele>
        <time>2011-05-02T13:36:18Z</time>
      </trkpt>
      <trkpt lat="45.25969" lon="5.77811">
        <ele>1016</ele>
        <time>2011-05-02T13:36:19Z</time>
      </trkpt>
      <trkpt lat="45.25976" lon="5.77805">
        <ele>1015.4</ele>
        <time>2011-05-02T13:36:21Z</time>
      </trkpt>
      <trkpt lat="45.25981" lon="5.77797">
        <ele>1015</ele>
        <time>2011-05-02T13:36:23Z</time>
      </trkpt>
      <trkpt lat="45.25986" lon="5.77788">
        <ele>1015.2</ele>
        <time>2011-05-02T13:36:25Z</time>
      </trkpt>
      <trkpt lat="45.25988" lon="5.77779">
        <ele>1015.5</ele>
        <time>2011-05-02T13:36:27Z</time>
      </trkpt>
      <trkpt lat="45.25989" lon="5.77768">
        <ele>1016.4</ele>
        <time>2011-05-02T13:36:29Z</time>
      </trkpt>
      <trkpt lat="45.25993" lon="5.77762">
        <ele>1017</ele>
        <time>2011-05-02T13:36:31Z</time>
      </trkpt>
      <trkpt lat="45.25999" lon="5.77757">
        <ele>1017.4</ele>
        <time>2011-05-02T13:36:33Z</time>
      </trkpt>
      <trkpt lat="45.26002" lon="5.77748">
        <ele>1017.5</ele>
        <time>2011-05-02T13:36:35Z</time>
      </trkpt>
      <trkpt lat="45.26006" lon="5.7774">
        <ele>1017.4</ele>
        <time>2011-05-02T13:36:37Z</time>
      </trkpt>
      <trkpt lat="45.26007" lon="5.77731">
        <ele>1017.7</ele>
        <time>2011-05-02T13:36:39Z</time>
      </trkpt>
    </trkseg>
  </trk>
</gpx>